Provisional Data: Catatonk Creek near Spencer, NY


Please select a monitoring station.
Please select start date.
Please select start date.

Toggle Unit: C/F Toggle Unit: C/F
Sample Time Temperature (C) Temperature (F) Specific Conductivity (mS/cm) pH   Turbidity (NTU+) DO (mg/L)
3/7/2021 12:00:00 AM 1.85 35.33 0.269 7.74 2.86 12.2
3/7/2021 12:15:00 AM 1.88 35.384 0.277 7.73 3.44 12.13
3/7/2021 12:30:00 AM 1.92 35.456 0.275 7.73 2.87 12.08
3/7/2021 12:45:00 AM 1.78 35.204 0.271 7.73 3.32 12.21
3/7/2021 1:00:00 AM 1.75 35.15 0.272 7.73 2.64 12.16
3/7/2021 1:15:00 AM 1.71 35.078 0.271 7.73 2.99 12.19
3/7/2021 1:30:00 AM 1.73 35.114 0.274 7.73 3.2 12.18
3/7/2021 1:45:00 AM 1.67 35.006 0.274 7.73 3.01 12.16
3/7/2021 2:00:00 AM 1.63 34.934 0.272 7.73 3.01 12.19
3/7/2021 2:15:00 AM 1.59 34.862 0.274 7.73 2.99 12.21
3/7/2021 2:30:00 AM 1.56 34.808 0.275 7.73 3.09 12.22
3/7/2021 2:45:00 AM 1.51 34.718 0.274 7.73 3.04 12.22
3/7/2021 3:00:00 AM 1.48 34.664 0.274 7.73 2.8 12.24
3/7/2021 3:15:00 AM 1.45 34.61 0.274 7.72 3 12.25
3/7/2021 3:30:00 AM 1.51 34.718 0.29 7.73 2.87 12.2
3/7/2021 3:45:00 AM 1.39 34.502 0.277 7.73 2.84 12.24
3/7/2021 4:00:00 AM 1.37 34.466 0.278 7.73 2.99 12.28
3/7/2021 4:15:00 AM 1.35 34.43 0.276 7.73 3 12.29
3/7/2021 4:30:00 AM 1.39 34.502 0.281 7.72 2.99 12.25
3/7/2021 4:45:00 AM 1.35 34.43 0.279 7.72 2.91 12.18
3/7/2021 5:00:00 AM 1.29 34.322 0.28 7.73 2.89 12.24
3/7/2021 5:15:00 AM 1.28 34.304 0.282 7.72 2.91 12.28
3/7/2021 5:30:00 AM 1.24 34.232 0.282 7.73 3.15 12.29
3/7/2021 5:45:00 AM 1.22 34.196 0.28 7.72 2.85 12.29
3/7/2021 6:00:00 AM 1.14 34.052 0.279 7.73 2.99 12.32
3/7/2021 6:15:00 AM 1.2 34.16 0.285 7.72 3.7 12.27
3/7/2021 6:30:00 AM 1.1 33.98 0.284 7.72 3.25 12.32
3/7/2021 6:45:00 AM 1.18 34.124 0.288 7.72 3.03 12.27
3/7/2021 7:00:00 AM 1.1 33.98 0.287 7.73 3.04 12.3
3/7/2021 7:15:00 AM 1.04 33.872 0.285 7.73 2.89 12.38
3/7/2021 7:30:00 AM 1.05 33.89 0.288 7.73 3.04 12.38
3/7/2021 7:45:00 AM 1.01 33.818 0.284 7.74 3.12 12.46
3/7/2021 8:00:00 AM 1.04 33.872 0.286 7.74 2.96 12.48
3/7/2021 8:15:00 AM 1.11 33.998 0.287 7.75 3.88 12.54
3/7/2021 8:30:00 AM 1.17 34.106 0.289 7.75 6.23 12.52
3/7/2021 8:45:00 AM 1.14 34.052 0.289 7.76 3.1 12.67
3/7/2021 9:00:00 AM 1.25 34.25 0.292 7.76 3.24 12.71
3/7/2021 9:15:00 AM 1.35 34.43 0.29 7.77 2.8 12.77
3/7/2021 9:30:00 AM 1.51 34.718 0.298 7.77 2.86 12.82
3/7/2021 9:45:00 AM 1.64 34.952 0.293 7.78 4.49 12.84
3/7/2021 10:00:00 AM 1.69 35.042 0.289 7.79 2.95 12.96
3/7/2021 10:15:00 AM 1.83 35.294 0.29 7.8 2.73 13.01
3/7/2021 10:30:00 AM 1.97 35.546 0.29 7.8 3.16 13.05
3/7/2021 10:45:00 AM 2.08 35.744 0.29 7.81 3.1 13.1
3/7/2021 11:00:00 AM 2.24 36.032 0.297 7.82 3.09 13.14
3/7/2021 11:15:00 AM 2.37 36.266 0.291 7.82 3 13.15
3/7/2021 11:30:00 AM 2.54 36.572 0.294 7.83 3.11 13.16
3/7/2021 11:45:00 AM 2.71 36.878 0.294 7.83 3.26 13.16
3/7/2021 12:00:00 PM 2.9 37.22 0.293 7.83 3.46 13.15
3/7/2021 12:15:00 PM 3.07 37.526 0.294 7.84 2.71 13.16
3/7/2021 12:30:00 PM 3.26 37.868 0.292 7.84 2.96 13.13
3/7/2021 12:45:00 PM 3.42 38.156 0.292 7.84 2.79 13.18
3/7/2021 1:00:00 PM 3.56 38.408 0.29 7.85 3.04 13.17
3/7/2021 1:15:00 PM 3.73 38.714 0.292 7.85 2.83 13.08
3/7/2021 1:30:00 PM 3.8 38.84 0.292 7.85 3.13 13.1
3/7/2021 1:45:00 PM 3.88 38.984 0.292 7.85 2.83 13.1
3/7/2021 2:00:00 PM 4.02 39.236 0.295 7.86 3.34 13.07
3/7/2021 2:15:00 PM 4.12 39.416 0.296 7.86 2.81 13.01
3/7/2021 2:30:00 PM 4.18 39.524 0.292 7.87 2.66 13
3/7/2021 2:45:00 PM 4.32 39.776 0.295 7.87 2.9 12.96
3/7/2021 3:00:00 PM 4.42 39.956 0.295 7.87 2.88 12.92
3/7/2021 3:15:00 PM 4.5 40.1 0.294 7.88 2.98 12.9
3/7/2021 3:30:00 PM 4.55 40.19 0.293 7.89 2.86 12.95
3/7/2021 3:45:00 PM 4.62 40.316 0.293 7.89 3.13 12.89
3/7/2021 4:00:00 PM 4.66 40.388 0.293 7.89 2.96 12.86
3/7/2021 4:15:00 PM 4.69 40.442 0.292 7.89 3.4 12.81
3/7/2021 4:30:00 PM 4.7 40.46 0.294 7.89 3.17 12.76
3/7/2021 4:45:00 PM 4.67 40.406 0.292 7.89 3.09 12.72
3/7/2021 5:00:00 PM 4.67 40.406 0.297 7.88 3.44 12.61
3/7/2021 5:15:00 PM 4.59 40.262 0.294 7.88 3.11 12.56
3/7/2021 5:30:00 PM 4.55 40.19 0.293 7.88 3.03 12.53
3/7/2021 5:45:00 PM 4.53 40.154 0.299 7.87 3.26 12.4
3/7/2021 6:00:00 PM 4.46 40.028 0.294 7.86 3.22 12.29
3/7/2021 6:15:00 PM 4.39 39.902 0.296 7.86 3.31 12.26
3/7/2021 6:30:00 PM 4.33 39.794 0.293 7.85 3.17 12.17
3/7/2021 6:45:00 PM 4.23 39.614 0.291 7.85 3.45 12.15
3/7/2021 7:00:00 PM 4.19 39.542 0.292 7.84 3.14 12
3/7/2021 7:15:00 PM 4.12 39.416 0.292 7.83 3.47 11.96
3/7/2021 7:30:00 PM 4 39.2 0.29 7.83 3.02 11.94
3/7/2021 7:45:00 PM 3.94 39.092 0.292 7.83 3.45 11.89
3/7/2021 8:00:00 PM 3.86 38.948 0.291 7.82 3.25 11.85
3/7/2021 8:15:00 PM 3.76 38.768 0.289 7.81 3.32 11.77
3/7/2021 8:30:00 PM 3.67 38.606 0.291 7.81 3.29 11.81
3/7/2021 8:45:00 PM 3.56 38.408 0.29 7.81 3.33 11.78
3/7/2021 9:00:00 PM 3.49 38.282 0.292 7.8 3.25 11.8
3/7/2021 9:15:00 PM 3.36 38.048 0.288 7.8 3.57 11.8
3/7/2021 9:30:00 PM 3.23 37.814 0.285 7.79 3.64 11.83
3/7/2021 9:45:00 PM 3.13 37.634 0.286 7.78 3.28 11.79
3/7/2021 10:00:00 PM 3.03 37.454 0.288 7.78 3.21 11.78
3/7/2021 10:15:00 PM 2.9 37.22 0.288 7.78 3.44 11.83
3/7/2021 10:30:00 PM 2.76 36.968 0.286 7.78 3.28 11.82
3/7/2021 10:45:00 PM 2.63 36.734 0.286 7.77 3.23 11.89
3/7/2021 11:00:00 PM 2.49 36.482 0.283 7.77 2.95 11.97
3/7/2021 11:15:00 PM 2.37 36.266 0.282 7.77 3.33 11.99
3/7/2021 11:30:00 PM 2.28 36.104 0.282 7.77 3.09 11.97
3/7/2021 11:45:00 PM 2.19 35.942 0.285 7.76 3.21 11.97
3/8/2021 12:00:00 AM 2.07 35.726 0.286 7.76 3.25 11.98
3/8/2021 12:15:00 AM 1.94 35.492 0.283 7.76 2.96 12.07
3/8/2021 12:30:00 AM 1.87 35.366 0.288 7.75 3.28 12.06
3/8/2021 12:45:00 AM 1.73 35.114 0.283 7.76 3.19 12.13
3/8/2021 1:00:00 AM 1.67 35.006 0.284 7.75 2.86 12.13
3/8/2021 1:15:00 AM 1.57 34.826 0.285 7.75 3.19 12.18
3/8/2021 1:30:00 AM 1.47 34.646 0.282 7.76 3.16 12.21
3/8/2021 1:45:00 AM 1.42 34.556 0.291 7.74 3.05 12.21
3/8/2021 2:00:00 AM 1.32 34.376 0.283 7.75 3.17 12.23
3/8/2021 2:15:00 AM 1.25 34.25 0.285 7.75 3.13 12.26
3/8/2021 2:30:00 AM 1.16 34.088 0.283 7.74 2.71 12.26
3/8/2021 2:45:00 AM 1.09 33.962 0.285 7.74 2.86 12.27
3/8/2021 3:00:00 AM 1.08 33.944 0.289 7.74 2.85 12.26
3/8/2021 3:15:00 AM 1.04 33.872 0.293 7.74 3.13 12.23
3/8/2021 3:30:00 AM 0.93 33.674 0.289 7.74 2.76 12.28
3/8/2021 3:45:00 AM 0.89 33.602 0.29 7.74 2.84 12.28
3/8/2021 4:00:00 AM 0.87 33.566 0.292 7.74 2.93 12.25
3/8/2021 4:15:00 AM 0.83 33.494 0.293 7.73 3.25 12.27
3/8/2021 4:30:00 AM 0.79 33.422 0.295 7.74 3.13 12.3
3/8/2021 4:45:00 AM 0.78 33.404 0.297 7.73 3.26 12.26
3/8/2021 5:00:00 AM 0.75 33.35 0.301 7.73 3.07 12.29
3/8/2021 5:15:00 AM 0.74 33.332 0.3 7.73 3.09 12.26
3/8/2021 5:30:00 AM 0.77 33.386 0.302 7.73 2.87 12.24
3/8/2021 5:45:00 AM 0.8 33.44 0.306 7.73 2.96 12.2
3/8/2021 6:00:00 AM 0.78 33.404 0.308 7.73 2.78 12.18
3/8/2021 6:15:00 AM 0.81 33.458 0.311 7.73 2.87 12.15
3/8/2021 6:30:00 AM 0.8 33.44 0.31 7.73 2.85 12.16
3/8/2021 6:45:00 AM 0.77 33.386 0.313 7.73 2.96 12.19
3/8/2021 7:00:00 AM 0.8 33.44 0.312 7.73 2.76 12.17
3/8/2021 7:15:00 AM 0.83 33.494 0.316 7.73 2.79 12.19
3/8/2021 7:30:00 AM 0.82 33.476 0.316 7.73 3.68 12.24
3/8/2021 7:45:00 AM 0.89 33.602 0.318 7.73 3.26 12.25
3/8/2021 8:00:00 AM 0.9 33.62 0.319 7.75 2.96 12.3
3/8/2021 8:15:00 AM 0.95 33.71 0.319 7.75 2.86 12.38
3/8/2021 8:30:00 AM 1.03 33.854 0.321 7.75 2.85 12.42
3/8/2021 8:45:00 AM 1.06 33.908 0.321 7.76 2.6 12.5
3/8/2021 9:00:00 AM 1.15 34.07 0.321 7.77 2.88 12.55
3/8/2021 9:15:00 AM 1.22 34.196 0.324 7.77 3.97 12.66
3/8/2021 9:30:00 AM 1.33 34.394 0.319 7.78 3.57 12.7
3/8/2021 9:45:00 AM 1.41 34.538 0.321 7.79 3.45 12.8
3/8/2021 10:00:00 AM 1.54 34.772 0.32 7.79 3.35 12.83
3/8/2021 10:15:00 AM 1.69 35.042 0.321 7.8 2.92 12.86
3/8/2021 10:30:00 AM 1.82 35.276 0.323 7.8 2.74 12.87
3/8/2021 10:45:00 AM 2.02 35.636 0.324 7.81 2.62 12.9
3/8/2021 11:00:00 AM 2.14 35.852 0.322 7.82 2.66 12.96
3/8/2021 11:15:00 AM 2.27 36.086 0.321 7.83 2.72 13.04
3/8/2021 11:30:00 AM 2.38 36.284 0.318 7.84 2.78 13.15
3/8/2021 11:45:00 AM 2.48 36.464 0.312 7.85 2.8 13.2
3/8/2021 12:00:00 PM 2.62 36.716 0.313 7.86 2.82 13.25
3/8/2021 12:15:00 PM 2.76 36.968 0.313 7.86 4.55 13.28
3/8/2021 12:30:00 PM 2.88 37.184 0.313 7.87 3.15 13.29
3/8/2021 12:45:00 PM 3.04 37.472 0.314 7.88 2.84 13.27
3/8/2021 1:00:00 PM 3.18 37.724 0.314 7.88 2.94 13.19
3/8/2021 1:15:00 PM 3.31 37.958 0.32 7.89 2.67 13.19
3/8/2021 1:30:00 PM 3.34 38.012 0.313 7.89 3.43 13.19
3/8/2021 1:45:00 PM 3.4 38.12 0.314 7.9 3.02 13.21
3/8/2021 2:00:00 PM 3.5 38.3 0.316 7.9 2.85 13.08
3/8/2021 2:15:00 PM 3.5 38.3 0.315 7.9 2.83 13.12
3/8/2021 2:30:00 PM 3.59 38.462 0.319 7.9 2.99 13.11
3/8/2021 2:45:00 PM 3.66 38.588 0.321 7.9 2.87 13.06
3/8/2021 3:00:00 PM 3.73 38.714 0.326 7.9 2.97 13.01
3/8/2021 3:15:00 PM 3.77 38.786 0.328 7.91 3.04 13
3/8/2021 3:30:00 PM 3.81 38.858 0.33 7.9 2.87 12.92
3/8/2021 3:45:00 PM 3.86 38.948 0.331 7.91 2.82 12.91
3/8/2021 4:00:00 PM 3.92 39.056 0.331 7.91 2.81 12.89
3/8/2021 4:15:00 PM 4.01 39.218 0.336 7.91 2.65 12.82
3/8/2021 4:30:00 PM 4.02 39.236 0.336 7.91 2.67 12.81
3/8/2021 4:45:00 PM 4.03 39.254 0.336 7.92 2.45 12.72
3/8/2021 5:00:00 PM 4.06 39.308 0.337 7.91 2.62 12.66
3/8/2021 5:15:00 PM 4.06 39.308 0.334 7.92 2.93 12.68
3/8/2021 5:30:00 PM 4.04 39.272 0.335 7.92 4.74 12.66
3/8/2021 5:45:00 PM 3.98 39.164 0.332 7.91 2.83 12.6
3/8/2021 6:00:00 PM 3.94 39.092 0.332 7.91 2.57 12.56
3/8/2021 6:15:00 PM 3.89 39.002 0.331 7.91 3.17 12.48
3/8/2021 6:30:00 PM 3.81 38.858 0.327 7.9 3.06 12.46
3/8/2021 6:45:00 PM 3.81 38.858 0.328 7.9 3.07 12.37
3/8/2021 7:00:00 PM 3.71 38.678 0.323 7.89 3.47 12.3
3/8/2021 7:15:00 PM 3.7 38.66 0.324 7.88 3.38 12.12
3/8/2021 7:30:00 PM 3.66 38.588 0.319 7.88 3.15 12.15
3/8/2021 7:45:00 PM 3.65 38.57 0.315 7.88 3.18 12.14
3/8/2021 8:00:00 PM 3.66 38.588 0.313 7.87 3.47 11.99
3/8/2021 8:15:00 PM 3.67 38.606 0.308 7.86 3.14 12.03
3/8/2021 8:30:00 PM 3.65 38.57 0.304 7.85 3.28 11.93
3/8/2021 8:45:00 PM 3.7 38.66 0.303 7.84 3.28 11.8
3/8/2021 9:00:00 PM 3.67 38.606 0.302 7.83 3.28 11.77
3/8/2021 9:15:00 PM 3.67 38.606 0.304 7.82 3.59 11.69
3/8/2021 9:30:00 PM 3.58 38.444 0.297 7.82 3.52 11.78
3/8/2021 9:45:00 PM 3.61 38.498 0.293 7.81 2.88 11.79
3/8/2021 10:00:00 PM 3.54 38.372 0.288 7.8 3.13 11.73
3/8/2021 10:15:00 PM 3.52 38.336 0.295 7.78 3.37 11.61
3/8/2021 10:30:00 PM 3.47 38.246 0.288 7.79 3.48 11.68
3/8/2021 10:45:00 PM 3.42 38.156 0.286 7.78 4.18 11.63
3/8/2021 11:00:00 PM 3.4 38.12 0.288 7.76 3.63 11.57
3/8/2021 11:15:00 PM 3.38 38.084 0.285 7.76 3.3 11.57
3/8/2021 11:30:00 PM 3.3 37.94 0.282 7.75 3.45 11.56
3/8/2021 11:45:00 PM 3.24 37.832 0.283 7.75 3.08 11.6
3/9/2021 12:00:00 AM 3.18 37.724 0.285 7.75 3.42 11.62
3/9/2021 12:15:00 AM 3.24 37.832 0.288 7.74 3.16 11.56
3/9/2021 12:30:00 AM 3.12 37.616 0.282 7.73 3.19 11.54
3/9/2021 12:45:00 AM 3.03 37.454 0.281 7.74 3.38 11.61
3/9/2021 1:00:00 AM 3.06 37.508 0.285 7.73 3.22 11.58
3/9/2021 1:15:00 AM 3.01 37.418 0.285 7.7 3.36 11.6
3/9/2021 1:30:00 AM 2.94 37.292 0.282 7.72 3.34 11.59
3/9/2021 1:45:00 AM 2.88 37.184 0.286 7.72 3.35 11.54
3/9/2021 2:00:00 AM 2.87 37.166 0.284 7.71 3.5 11.59
3/9/2021 2:15:00 AM 2.81 37.058 0.286 7.71 3.22 11.61
3/9/2021 2:30:00 AM 2.7 36.86 0.277 7.71 3.68 11.67
3/9/2021 2:45:00 AM 2.69 36.842 0.28 7.71 5.26 11.78
3/9/2021 3:00:00 AM 2.72 36.896 0.279 7.7 4.27 11.68
3/9/2021 3:15:00 AM 2.61 36.698 0.277 7.7 4.21 11.75
3/9/2021 3:30:00 AM 2.55 36.59 0.273 7.7 3.16 11.81
3/9/2021 3:45:00 AM 2.5 36.5 0.272 7.71 4.87 11.85
3/9/2021 4:00:00 AM 2.49 36.482 0.271 7.7 4.47 11.72
3/9/2021 4:15:00 AM 2.43 36.374 0.273 7.7 3.17 11.75
3/9/2021 4:30:00 AM 2.52 36.536 0.287 7.7 3.06 11.73
3/9/2021 4:45:00 AM 2.41 36.338 0.276 7.69 3.35 11.8
3/9/2021 5:00:00 AM 2.35 36.23 0.276 7.68 3.31 11.77
3/9/2021 5:15:00 AM 2.4 36.32 0.272 7.69 3.36 11.66
3/9/2021 5:30:00 AM 2.25 36.05 0.274 7.69 8.72 11.84
3/9/2021 5:45:00 AM 2.27 36.086 0.277 7.69 3.52 11.8
3/9/2021 6:00:00 AM 2.19 35.942 0.271 7.69 3.86 11.87
3/9/2021 6:15:00 AM 2.12 35.816 0.27 7.69 3.61 11.9
3/9/2021 6:30:00 AM 2.15 35.87 0.277 7.68 3.51 11.88
3/9/2021 6:45:00 AM 2.19 35.942 0.273 7.68 3.63 11.83
3/9/2021 7:00:00 AM 2.09 35.762 0.271 7.69 3.64 11.9
3/9/2021 7:15:00 AM 2.08 35.744 0.277 7.7 3.75 11.98
3/9/2021 7:30:00 AM 2.09 35.762 0.275 7.7 3.92 12.02
3/9/2021 7:45:00 AM 2.12 35.816 0.273 7.7 3.6 12.05
3/9/2021 8:00:00 AM 2.19 35.942 0.278 7.71 3.79 12.05
3/9/2021 8:15:00 AM 2.22 35.996 0.278 7.71 3.73 12.14
3/9/2021 8:30:00 AM 2.21 35.978 0.278 7.72 3.57 12.27
3/9/2021 8:45:00 AM 2.3 36.14 0.281 7.73 3.51 12.35
3/9/2021 9:00:00 AM 2.39 36.302 0.276 7.74 3.25 12.36
3/9/2021 9:15:00 AM 2.41 36.338 0.274 7.75 3.34 12.66
3/9/2021 9:30:00 AM 2.58 36.644 0.282 7.76 3.37 12.6
3/9/2021 9:45:00 AM 2.73 36.914 0.28 7.76 3.87 12.65
3/9/2021 10:00:00 AM 2.97 37.346 0.285 7.77 3.44 12.46
3/9/2021 10:15:00 AM 3.04 37.472 0.279 7.77 3.77 12.72
3/9/2021 10:30:00 AM 3.24 37.832 0.29 7.78 3.37 12.76
3/9/2021 10:45:00 AM 3.41 38.138 0.28 7.79 3.13 12.78
3/9/2021 11:00:00 AM 3.61 38.498 0.283 7.8 3.2 12.85
3/9/2021 11:15:00 AM 3.72 38.696 0.281 7.78 3.32 12.88
3/9/2021 11:30:00 AM 3.88 38.984 0.287 7.81 3.17 12.87
3/9/2021 11:45:00 AM 4.08 39.344 0.284 7.82 3.41 12.9
3/9/2021 12:00:00 PM 4.22 39.596 0.285 7.81 3.13 12.89
3/9/2021 12:15:00 PM 4.37 39.866 0.285 7.83 3.4 12.93
3/9/2021 12:30:00 PM 4.57 40.226 0.286 7.83 3.28 12.98
3/9/2021 12:45:00 PM 4.81 40.658 0.284 7.83 3.47 12.9
3/9/2021 1:00:00 PM 4.98 40.964 0.287 7.84 3.27 12.96
3/9/2021 1:15:00 PM 5.19 41.342 0.287 7.85 3.51 12.96
3/9/2021 1:30:00 PM 5.39 41.702 0.29 7.86 3.74 12.98
3/9/2021 1:45:00 PM 5.54 41.972 0.279 7.85 4.48 13.07
3/9/2021 2:00:00 PM 5.76 42.368 0.289 7.85 7.91 12.83
3/9/2021 2:15:00 PM 5.89 42.602 0.291 7.86 3.36 12.83
3/9/2021 2:30:00 PM 6.05 42.89 0.294 7.86 3.51 12.77
3/9/2021 2:45:00 PM 6.22 43.196 0.299 7.84 3.07 12.7
3/9/2021 3:00:00 PM 6.31 43.358 0.301 7.87 3.48 12.69
3/9/2021 3:15:00 PM 6.4 43.52 0.295 7.87 3.37 12.67
3/9/2021 3:30:00 PM 6.49 43.682 0.293 7.87 3.81 12.64
3/9/2021 3:45:00 PM 6.56 43.808 0.294 7.88 3.21 12.66
3/9/2021 4:00:00 PM 6.62 43.916 0.302 7.87 3.39 12.59
3/9/2021 4:15:00 PM 6.67 44.006 0.295 7.87 3.46 12.48
3/9/2021 4:30:00 PM 6.7 44.06 0.295 7.87 3.46 12.45
3/9/2021 4:45:00 PM 6.74 44.132 0.299 7.86 3.64 12.3
3/9/2021 5:00:00 PM 6.72 44.096 0.295 7.86 3.67 12.24
3/9/2021 5:15:00 PM 6.73 44.114 0.297 7.85 3.5 12.13
3/9/2021 5:30:00 PM 6.7 44.06 0.295 7.85 3.49 12.06
3/9/2021 5:45:00 PM 6.66 43.988 0.296 7.85 3.73 11.98
3/9/2021 6:00:00 PM 6.62 43.916 0.297 7.84 3.61 11.88
3/9/2021 6:15:00 PM 6.57 43.826 0.297 7.83 4.85 11.78
3/9/2021 6:30:00 PM 6.52 43.736 0.3 7.82 3.63 11.69
3/9/2021 6:45:00 PM 6.44 43.592 0.3 7.8 3.41 11.52
3/9/2021 7:00:00 PM 6.34 43.412 0.298 7.8 3.59 11.49
3/9/2021 7:15:00 PM 6.25 43.25 0.3 7.79 3.28 11.41
3/9/2021 7:30:00 PM 6.16 43.088 0.301 7.78 3.48 11.36
3/9/2021 7:45:00 PM 6.07 42.926 0.3 7.77 3.49 11.31
3/9/2021 8:00:00 PM 5.94 42.692 0.298 7.76 3.67 11.27
3/9/2021 8:15:00 PM 5.82 42.476 0.297 7.76 3.53 11.23
3/9/2021 8:30:00 PM 5.7 42.26 0.298 7.75 3.58 11.21
3/9/2021 8:45:00 PM 5.57 42.026 0.299 7.74 4.79 11.18
3/9/2021 9:00:00 PM 5.44 41.792 0.296 7.73 4.39 11.19
3/9/2021 9:15:00 PM 5.31 41.558 0.292 7.73 4.26 11.12
3/9/2021 9:30:00 PM 5.16 41.288 0.292 7.72 4.51 11.16
3/9/2021 9:45:00 PM 5.01 41.018 0.286 7.72 4.33 11.15
3/9/2021 10:00:00 PM 4.87 40.766 0.287 7.72 4.18 11.19
3/9/2021 10:15:00 PM 4.69 40.442 0.281 7.72 4.77 11.25
3/9/2021 10:30:00 PM 4.54 40.172 0.277 7.72 5.25 11.29
3/9/2021 10:45:00 PM 4.4 39.92 0.277 7.71 4.83 11.32
3/9/2021 11:00:00 PM 4.23 39.614 0.273 7.71 4.61 11.34
3/9/2021 11:15:00 PM 4.09 39.362 0.27 7.71 4.69 11.39
3/9/2021 11:30:00 PM 3.93 39.074 0.268 7.71 4.61 11.47
3/9/2021 11:45:00 PM 3.82 38.876 0.27 7.71 4.81 11.44
3/10/2021 12:00:00 AM 3.68 38.624 0.266 7.71 4.94 11.51
3/10/2021 12:15:00 AM 3.55 38.39 0.264 7.69 5.04 11.53
3/10/2021 12:30:00 AM 3.42 38.156 0.262 7.71 5.05 11.6
3/10/2021 12:45:00 AM 3.33 37.994 0.261 7.69 5.08 11.65
3/10/2021 1:00:00 AM 3.19 37.742 0.259 7.7 5 11.67
3/10/2021 1:15:00 AM 3.07 37.526 0.257 7.7 4.76 11.75
3/10/2021 1:30:00 AM 3.01 37.418 0.264 7.7 4.72 11.7
3/10/2021 1:45:00 AM 2.89 37.202 0.256 7.69 4.46 11.78
3/10/2021 2:00:00 AM 2.81 37.058 0.26 7.69 4.77 11.89
3/10/2021 2:15:00 AM 2.7 36.86 0.254 7.69 4.98 11.91
3/10/2021 2:30:00 AM 2.59 36.662 0.256 7.69 7.49 11.96
3/10/2021 2:45:00 AM 2.52 36.536 0.259 7.68 4.85 11.97
3/10/2021 3:00:00 AM 2.41 36.338 0.25 7.69 4.98 11.97
3/10/2021 3:15:00 AM 2.34 36.212 0.253 7.68 4.49 11.99
3/10/2021 3:30:00 AM 2.25 36.05 0.252 7.69 4.34 12.01
3/10/2021 3:45:00 AM 2.18 35.924 0.252 7.68 4.54 11.98
3/10/2021 4:00:00 AM 2.16 35.888 0.254 7.68 4.84 12.02
3/10/2021 4:15:00 AM 2.04 35.672 0.259 7.68 4.38 12.03
3/10/2021 4:30:00 AM 1.97 35.546 0.258 7.68 4.28 12.12
3/10/2021 4:45:00 AM 1.92 35.456 0.255 7.68 4.17 12.18
3/10/2021 5:00:00 AM 1.84 35.312 0.255 7.68 4.31 12.21
3/10/2021 5:15:00 AM 1.83 35.294 0.25 7.67 4.44 12.13
3/10/2021 5:30:00 AM 1.71 35.078 0.254 7.67 4.31 12.24
3/10/2021 5:45:00 AM 1.7 35.06 0.254 7.67 4.4 12.22
3/10/2021 6:00:00 AM 1.63 34.934 0.251 7.67 5.77 12.3
3/10/2021 6:15:00 AM 1.66 34.988 0.258 7.67 4.4 12.25
3/10/2021 6:30:00 AM 1.54 34.772 0.254 7.67 4.89 12.36
3/10/2021 6:45:00 AM 1.54 34.772 0.251 7.67 4.09 12.32
3/10/2021 7:00:00 AM 1.48 34.664 0.248 7.68 4.22 12.45
3/10/2021 7:15:00 AM 1.47 34.646 0.248 7.68 5.45 12.41
3/10/2021 7:30:00 AM 1.51 34.718 0.253 7.68 4.52 12.4
3/10/2021 7:45:00 AM 1.43 34.574 0.25 7.68 4.16 12.54
3/10/2021 8:00:00 AM 1.52 34.736 0.249 7.68 4.49 12.55
3/10/2021 8:15:00 AM 1.58 34.844 0.253 7.69 4.57 12.62
3/10/2021 8:30:00 AM 1.52 34.736 0.25 7.7 4.3 12.76
3/10/2021 8:45:00 AM 1.62 34.916 0.255 7.71 4.23 12.75
3/10/2021 9:00:00 AM 1.73 35.114 0.254 7.7 4.59 12.89
3/10/2021 9:15:00 AM 1.78 35.204 0.249 7.72 4.07 12.94
3/10/2021 9:30:00 AM 1.9 35.42 0.248 7.72 3.93 12.97
3/10/2021 9:45:00 AM 2.05 35.69 0.248 7.72 3.88 13.04
3/10/2021 10:00:00 AM 2.16 35.888 0.248 7.72 4.46 13.07
3/10/2021 10:15:00 AM 2.33 36.194 0.245 7.73 4.19 13.11
3/10/2021 10:30:00 AM 2.48 36.464 0.246 7.74 4.19 13.16
3/10/2021 10:45:00 AM 2.7 36.86 0.25 7.74 3.92 13.1
3/10/2021 11:00:00 AM 2.87 37.166 0.249 7.75 3.88 13.21
3/10/2021 11:15:00 AM 3.09 37.562 0.247 7.76 3.88 13.2
3/10/2021 11:30:00 AM 3.28 37.904 0.244 7.77 3.96 13.28
3/10/2021 11:45:00 AM 3.53 38.354 0.249 7.77 3.83 13.24
3/10/2021 12:00:00 PM 3.79 38.822 0.246 7.77 4.22 13.25
3/10/2021 12:15:00 PM 4.07 39.326 0.253 7.77 4.63 13.21
3/10/2021 12:30:00 PM 4.35 39.83 0.25 7.77 3.94 13.15
3/10/2021 12:45:00 PM 4.59 40.262 0.251 7.77 3.86 13.15
3/10/2021 1:00:00 PM 4.83 40.694 0.26 7.78 3.93 13.01
3/10/2021 1:15:00 PM 5.06 41.108 0.25 7.79 3.64 13.07
3/10/2021 1:30:00 PM 5.31 41.558 0.253 7.79 3.76 13.03
3/10/2021 1:45:00 PM 5.49 41.882 0.247 7.79 3.67 13.05
3/10/2021 2:00:00 PM 5.7 42.26 0.252 7.8 3.58 13.07
3/10/2021 2:15:00 PM 5.88 42.584 0.245 7.8 14.23 13
3/10/2021 2:30:00 PM 6.05 42.89 0.249 7.8 3.67 12.98
3/10/2021 2:45:00 PM 6.21 43.178 0.25 7.8 3.84 12.98
3/10/2021 3:00:00 PM 6.32 43.376 0.25 7.81 3.71 12.9
3/10/2021 3:15:00 PM 6.45 43.61 0.25 7.8 3.94 12.9
3/10/2021 3:30:00 PM 6.55 43.79 0.249 7.82 4.08 12.9
3/10/2021 3:45:00 PM 6.63 43.934 0.249 7.81 4.24 12.8
3/10/2021 4:00:00 PM 6.69 44.042 0.252 7.81 4.27 12.74
3/10/2021 4:15:00 PM 6.73 44.114 0.252 7.81 3.96 12.65
3/10/2021 4:30:00 PM 6.75 44.15 0.249 7.81 4.23 12.63
3/10/2021 4:45:00 PM 6.78 44.204 0.251 7.79 4.79 12.48
3/10/2021 5:00:00 PM 6.77 44.186 0.249 7.8 3.83 12.43
3/10/2021 5:15:00 PM 6.78 44.204 0.254 7.79 4.29 12.35
3/10/2021 5:30:00 PM 6.75 44.15 0.249 7.78 4.16 12.27
3/10/2021 5:45:00 PM 6.7 44.06 0.251 7.77 3.81 12.2
3/10/2021 6:00:00 PM 6.63 43.934 0.247 7.76 4.31 12.05
3/10/2021 6:15:00 PM 6.56 43.808 0.251 7.74 5.01 11.89
3/10/2021 6:30:00 PM 6.4 43.52 0.246 7.74 5.28 11.89
3/10/2021 6:45:00 PM 6.25 43.25 0.24 7.72 5.72 11.79
3/10/2021 7:00:00 PM 6.05 42.89 0.236 7.72 9.01 11.77
3/10/2021 7:15:00 PM 5.82 42.476 0.228 7.71 10.55 11.73
3/10/2021 7:30:00 PM 5.6 42.08 0.228 7.7 13.25 11.69
3/10/2021 7:45:00 PM 5.4 41.72 0.225 7.7 14.87 11.71
3/10/2021 8:00:00 PM 5.17 41.306 0.218 7.69 15.69 11.79
3/10/2021 8:15:00 PM 4.96 40.928 0.21 7.68 17.99 11.82
3/10/2021 8:30:00 PM 4.74 40.532 0.21 7.68 17.5 11.89
3/10/2021 8:45:00 PM 4.55 40.19 0.203 7.68 18.52 11.91
3/10/2021 9:00:00 PM 4.38 39.884 0.199 7.67 18.38 11.92
3/10/2021 9:15:00 PM 4.21 39.578 0.198 7.66 23.48 11.99
3/10/2021 9:30:00 PM 4.05 39.29 0.197 7.66 18.75 12.01
3/10/2021 9:45:00 PM 3.87 38.966 0.189 7.65 20.18 12.07
3/10/2021 10:00:00 PM 3.69 38.642 0.187 7.64 19.67 12.13
3/10/2021 10:15:00 PM 3.54 38.372 0.186 7.64 18.92 12.14
3/10/2021 10:30:00 PM 3.4 38.12 0.18 7.63 17.72 12.19
3/10/2021 10:45:00 PM 3.3 37.94 0.181 7.61 16.03 12.1
3/10/2021 11:00:00 PM 3.11 37.598 0.174 7.62 16.12 12.33
3/10/2021 11:15:00 PM 2.95 37.31 0.178 7.61 16.73 12.35
3/10/2021 11:30:00 PM 2.82 37.076 0.174 7.6 16.77 12.4
3/10/2021 11:45:00 PM 2.67 36.806 0.168 7.59 16.95 12.4
3/11/2021 12:00:00 AM 2.6 36.68 0.175 7.58 17.59 12.45
3/11/2021 12:15:00 AM 2.51 36.518 0.178 7.59 17.54 12.51
3/11/2021 12:30:00 AM 2.31 36.158 0.168 7.58 12.54 12.54
3/11/2021 12:45:00 AM 2.27 36.086 0.177 7.57 16.55 12.54
3/11/2021 1:00:00 AM 2.21 35.978 0.169 7.55 15.62 12.43
3/11/2021 1:15:00 AM 2.1 35.78 0.169 7.57 15.83 12.57
3/11/2021 1:30:00 AM 1.96 35.528 0.162 7.56 15.99 12.57
3/11/2021 1:45:00 AM 2.03 35.654 0.171 7.55 18.22 12.6
3/11/2021 2:00:00 AM 1.94 35.492 0.168 7.56 17.64 12.62
3/11/2021 2:15:00 AM 2.01 35.618 0.182 7.56 13.93 12.56
3/11/2021 2:30:00 AM 1.84 35.312 0.167 7.55 16.29 12.68
3/11/2021 2:45:00 AM 1.77 35.186 0.168 7.54 17.17 12.69
3/11/2021 3:00:00 AM 1.79 35.222 0.166 7.55 13.41 12.67
3/11/2021 3:15:00 AM 1.74 35.132 0.17 7.56 13.79 12.76
3/11/2021 3:30:00 AM 1.7 35.06 0.167 7.56 14.94 12.68
3/11/2021 3:45:00 AM 1.66 34.988 0.164 7.55 14.49 12.62
3/11/2021 4:00:00 AM 1.73 35.114 0.169 7.54 14.96 12.64
3/11/2021 4:15:00 AM 1.65 34.97 0.161 7.55 14.22 12.77
3/11/2021 4:30:00 AM 1.78 35.204 0.174 7.53 12.69 12.73
3/11/2021 4:45:00 AM 1.73 35.114 0.175 7.54 15.47 12.82
3/11/2021 5:00:00 AM 1.8 35.24 0.171 7.52 13.39 12.75
3/11/2021 5:15:00 AM 1.67 35.006 0.163 7.54 14.07 12.81
3/11/2021 5:30:00 AM 1.72 35.096 0.165 7.52 12.89 12.79
3/11/2021 5:45:00 AM 1.72 35.096 0.164 7.53 11.87 12.81
3/11/2021 6:00:00 AM 1.72 35.096 0.165 7.52 13.29 12.76
3/11/2021 6:15:00 AM 1.66 34.988 0.159 7.52 15.48 12.83
3/11/2021 6:30:00 AM 1.68 35.024 0.159 7.52 13.82 12.79
3/11/2021 6:45:00 AM 1.69 35.042 0.16 7.52 13.53 12.77
3/11/2021 7:00:00 AM 1.71 35.078 0.161 7.52 12.74 12.72
3/11/2021 7:15:00 AM 1.77 35.186 0.164 7.51 11.92 12.79
3/11/2021 7:30:00 AM 1.74 35.132 0.159 7.51 12.97 12.75
3/11/2021 7:45:00 AM 1.77 35.186 0.159 7.52 13.38 12.85
3/11/2021 8:00:00 AM 1.8 35.24 0.167 7.52 12.4 12.88
3/11/2021 8:15:00 AM 1.96 35.528 0.176 7.52 10.92 12.83
3/11/2021 8:30:00 AM 1.91 35.438 0.164 7.53 11.08 12.83
3/11/2021 8:45:00 AM 1.89 35.402 0.163 7.54 12.25 12.95
3/11/2021 9:00:00 AM 2.01 35.618 0.16 7.53 10.75 12.94
3/11/2021 9:15:00 AM 2.08 35.744 0.159 7.55 10.79 12.94
3/11/2021 9:30:00 AM 2.16 35.888 0.159 7.54 10.48 13
3/11/2021 9:45:00 AM 2.3 36.14 0.162 7.55 9.98 13.04
3/11/2021 10:00:00 AM 2.49 36.482 0.169 7.55 11.01 13.07
3/11/2021 10:15:00 AM 2.56 36.608 0.162 7.56 9.7 13.07
3/11/2021 10:30:00 AM 2.68 36.824 0.162 7.57 11.2 13.09
3/11/2021 10:45:00 AM 2.89 37.202 0.166 7.56 10.17 13.07
3/11/2021 11:00:00 AM 3.02 37.436 0.16 7.56 9.74 13.16
3/11/2021 11:15:00 AM 3.21 37.778 0.165 7.58 10.83 13.09
3/11/2021 11:30:00 AM 3.41 38.138 0.17 7.57 9.2 13.07
3/11/2021 11:45:00 AM 3.58 38.444 0.157 7.59 10.71 13.08
3/11/2021 12:00:00 PM 3.81 38.858 0.163 7.58 8.93 13.09
3/11/2021 12:15:00 PM 4.01 39.218 0.163 7.6 9.5 13.04
3/11/2021 12:30:00 PM 4.2 39.56 0.161 7.59 10.9 13.07
3/11/2021 12:45:00 PM 4.4 39.92 0.168 7.6 9.13 13.03
3/11/2021 1:00:00 PM 4.5 40.1 0.159 7.6 9.76 13.03
3/11/2021 1:15:00 PM 4.62 40.316 0.161 7.6 9.14 13.04
3/11/2021 1:30:00 PM 4.79 40.622 0.16 7.6 9.71 12.98
3/11/2021 1:45:00 PM 4.93 40.874 0.156 7.59 9.14 12.94
3/11/2021 2:00:00 PM 5.1 41.18 0.163 7.59 9.46 12.9
3/11/2021 2:15:00 PM 5.18 41.324 0.156 7.6 10.28 12.87
3/11/2021 2:30:00 PM 5.24 41.432 0.164 7.6 11.32 12.8
3/11/2021 2:45:00 PM 5.24 41.432 0.155 7.6 12.03 12.81
3/11/2021 3:00:00 PM 5.25 41.45 0.152 7.58 13.81 12.75
3/11/2021 3:15:00 PM 5.25 41.45 0.149 7.57 13.31 12.69
3/11/2021 3:30:00 PM 5.26 41.468 0.147 7.58 18.2 12.63
3/11/2021 3:45:00 PM 5.23 41.414 0.142 7.57 14.8 12.67
3/11/2021 4:00:00 PM 5.23 41.414 0.141 7.56 21.59 12.58
3/11/2021 4:15:00 PM 5.11 41.198 0.133 7.54 28.72 12.48
3/11/2021 4:30:00 PM 4.96 40.928 0.127 7.52 44.89 12.5
3/11/2021 4:45:00 PM 4.75 40.55 0.125 7.52 47.43 12.46
3/11/2021 5:00:00 PM 4.55 40.19 0.119 7.49 51.53 12.45
3/11/2021 5:15:00 PM 4.39 39.902 0.12 7.46 54.56 12.47
3/11/2021 5:30:00 PM 4.2 39.56 0.114 7.46 57.52 12.44
3/11/2021 5:45:00 PM 4.03 39.254 0.111 7.45 62.84 12.47
3/11/2021 6:00:00 PM 3.8 38.84 0.107 7.42 74.15 12.59
3/11/2021 6:15:00 PM 3.57 38.426 0.104 7.42 61.9 12.67
3/11/2021 6:30:00 PM 3.33 37.994 0.097 7.41 91.17 12.71
3/11/2021 6:45:00 PM 3.13 37.634 0.095 7.4 100.81 12.72
3/11/2021 7:00:00 PM 2.92 37.256 0.091 7.39 120.64 12.85
3/11/2021 7:15:00 PM 2.77 36.986 0.11 7.37 111.41 12.88
3/11/2021 7:30:00 PM 2.62 36.716 0.084 7.34 103.66 12.96
3/11/2021 7:45:00 PM 2.48 36.464 0.116 7.29 97.08 13.01
3/11/2021 8:00:00 PM 2.33 36.194 0.083 7.28 119.95 13.08
3/11/2021 8:15:00 PM 2.24 36.032 0.083 7.23 75.58 13.12
3/11/2021 8:30:00 PM 2.14 35.852 0.081 7.17 118.19 13.17
3/11/2021 8:45:00 PM 2.06 35.708 0.08 7.14 110.8 13.2
3/11/2021 9:00:00 PM 2 35.6 0.079 7.12 89.79 13.21
3/11/2021 9:15:00 PM 1.93 35.474 0.078 7.11 90.93 13.23
3/11/2021 9:30:00 PM 1.88 35.384 0.077 7.11 104.02 13.25
3/11/2021 9:45:00 PM 1.83 35.294 0.077 7.11 100.84 13.26
3/11/2021 10:00:00 PM 1.79 35.222 0.076 7.1 116.14 13.27
3/11/2021 10:15:00 PM 1.75 35.15 0.075 7.1 122.99 13.29
3/11/2021 10:30:00 PM 1.72 35.096 0.075 7.1 71.86 13.3
3/11/2021 10:45:00 PM 1.69 35.042 0.074 7.1 70 13.31
3/11/2021 11:00:00 PM 1.66 34.988 0.073 7.09 91.01 13.31
3/11/2021 11:15:00 PM 1.64 34.952 0.073 7.09 69.76 13.33
3/11/2021 11:30:00 PM 1.62 34.916 0.072 7.09 69.42 13.33
3/11/2021 11:45:00 PM 1.61 34.898 0.072 7.09 81.5 13.33
3/12/2021 12:00:00 AM 1.6 34.88 0.072 7.09 120.63 13.32
3/12/2021 12:15:00 AM 1.58 34.844 0.072 7.08 60.64 13.33
3/12/2021 12:30:00 AM 1.57 34.826 0.072 7.08 78.56 13.34
3/12/2021 12:45:00 AM 1.55 34.79 0.072 7.08 78.03 13.34
3/12/2021 1:00:00 AM 1.55 34.79 0.072 7.09 129.05 13.35
3/12/2021 1:15:00 AM 1.58 34.844 0.072 7.08 52.58 13.34
3/12/2021 1:30:00 AM 1.58 34.844 0.072 7.08 65.84 13.34
3/12/2021 1:45:00 AM 1.58 34.844 0.072 7.09 51.58 13.35
3/12/2021 2:00:00 AM 1.59 34.862 0.073 7.08 72.42 13.34
3/12/2021 2:15:00 AM 1.6 34.88 0.073 7.09 47.54 13.34
3/12/2021 2:30:00 AM 1.6 34.88 0.073 7.09 44.75 13.34
3/12/2021 2:45:00 AM 1.6 34.88 0.074 7.09 69.7 13.34
3/12/2021 3:00:00 AM 1.61 34.898 0.074 7.09 50.07 13.34
3/12/2021 3:15:00 AM 1.61 34.898 0.074 7.09 52.1 13.34
3/12/2021 3:30:00 AM 1.62 34.916 0.074 7.09 78.91 13.33
3/12/2021 3:45:00 AM 1.63 34.934 0.075 7.1 41.07 13.32
3/12/2021 4:00:00 AM 1.64 34.952 0.075 7.1 44.3 13.32
3/12/2021 4:15:00 AM 1.65 34.97 0.076 7.09 86.67 13.31
3/12/2021 4:30:00 AM 1.65 34.97 0.076 7.11 39.97 13.3
3/12/2021 4:45:00 AM 1.66 34.988 0.076 7.11 45.23 13.3
3/12/2021 5:00:00 AM 1.65 34.97 0.077 7.11 37.8 13.3
3/12/2021 5:15:00 AM 1.65 34.97 0.077 7.11 45.86 13.29
3/12/2021 5:30:00 AM 1.64 34.952 0.077 7.12 40.72 13.28
3/12/2021 5:45:00 AM 1.63 34.934 0.078 7.12 42.23 13.28
3/12/2021 6:00:00 AM 1.61 34.898 0.078 7.12 44.09 13.28
3/12/2021 6:15:00 AM 1.59 34.862 0.078 7.13 45.74 13.28
3/12/2021 6:30:00 AM 1.57 34.826 0.079 7.12 37.26 13.28
3/12/2021 6:45:00 AM 1.55 34.79 0.079 7.12 29.8 13.28
3/12/2021 7:00:00 AM 1.53 34.754 0.08 7.12 38.13 13.28
3/12/2021 7:15:00 AM 1.52 34.736 0.08 7.12 39.74 13.28
3/12/2021 7:30:00 AM 1.51 34.718 0.08 7.12 32.49 13.29
3/12/2021 7:45:00 AM 1.51 34.718 0.081 7.13 39.7 13.28
3/12/2021 8:00:00 AM 1.51 34.718 0.081 7.14 31.17 13.3
3/12/2021 8:15:00 AM 1.53 34.754 0.082 7.14 26.27 13.29
3/12/2021 8:30:00 AM 1.55 34.79 0.082 7.14 35.38 13.29
3/12/2021 8:45:00 AM 1.58 34.844 0.082 7.15 32.66 13.3
3/12/2021 9:00:00 AM 1.63 34.934 0.083 7.15 31.31 13.3
3/12/2021 9:15:00 AM 1.7 35.06 0.083 7.15 34.88 13.3
3/12/2021 9:30:00 AM 1.79 35.222 0.084 7.16 23.12 13.29
3/12/2021 9:45:00 AM 1.88 35.384 0.084 7.18 33.37 13.29
3/12/2021 10:00:00 AM 1.99 35.582 0.085 7.17 34.95 13.29
3/12/2021 10:15:00 AM 2.1 35.78 0.085 7.18 25.07 13.27
3/12/2021 10:30:00 AM 2.22 35.996 0.085 7.19 27.45 13.28
3/12/2021 10:45:00 AM 2.36 36.248 0.086 7.19 26.23 13.26
3/12/2021 11:00:00 AM 2.51 36.518 0.087 7.2 32.24 13.24
3/12/2021 11:15:00 AM 2.66 36.788 0.088 7.2 31.38 13.22
3/12/2021 11:30:00 AM 2.82 37.076 0.088 7.21 28.53 13.21
3/12/2021 11:45:00 AM 2.99 37.382 0.089 7.21 34.51 13.19
3/12/2021 12:00:00 PM 3.16 37.688 0.089 7.22 22.18 13.14
3/12/2021 12:15:00 PM 3.34 38.012 0.089 7.22 25.05 13.12
3/12/2021 12:30:00 PM 3.52 38.336 0.09 7.23 26.99 13.09
3/12/2021 12:45:00 PM 3.7 38.66 0.091 7.23 22.97 13.04
3/12/2021 1:00:00 PM 3.88 38.984 0.092 7.23 19.42 13.01
3/12/2021 1:15:00 PM 4.05 39.29 0.091 7.24 29.23 12.98
3/12/2021 1:30:00 PM 4.23 39.614 0.092 7.25 24.21 12.93
3/12/2021 1:45:00 PM 4.39 39.902 0.092 7.26 17.48 12.89
3/12/2021 2:00:00 PM 4.56 40.208 0.093 7.26 24.48 12.83
3/12/2021 2:15:00 PM 4.73 40.514 0.094 7.26 19.68 12.78
3/12/2021 2:30:00 PM 4.87 40.766 0.093 7.27 22.42 12.74
3/12/2021 2:45:00 PM 5 41 0.093 7.26 14.15 12.69
3/12/2021 3:00:00 PM 5.13 41.234 0.093 7.27 21.17 12.64
3/12/2021 3:15:00 PM 5.23 41.414 0.093 7.27 21.57 12.59
3/12/2021 3:30:00 PM 5.31 41.558 0.092 7.26 23.85 12.55
3/12/2021 3:45:00 PM 5.39 41.702 0.092 7.26 22.34 12.51
3/12/2021 4:00:00 PM 5.44 41.792 0.091 7.26 22.95 12.47
3/12/2021 4:15:00 PM 5.45 41.81 0.09 7.26 21.93 12.44
3/12/2021 4:30:00 PM 5.46 41.828 0.088 7.25 28.6 12.41
3/12/2021 4:45:00 PM 5.44 41.792 0.087 7.25 19.93 12.38
3/12/2021 5:00:00 PM 5.42 41.756 0.086 7.24 31.07 12.35
3/12/2021 5:15:00 PM 5.37 41.666 0.085 7.23 18.71 12.33
3/12/2021 5:30:00 PM 5.32 41.576 0.084 7.23 18.27 12.32
3/12/2021 5:45:00 PM 5.24 41.432 0.083 7.23 22.64 12.3
3/12/2021 6:00:00 PM 5.16 41.288 0.082 7.22 22.93 12.3
3/12/2021 6:15:00 PM 5.06 41.108 0.081 7.21 66.76 12.3
3/12/2021 6:30:00 PM 4.96 40.928 0.077 7.2 32.26 12.29
3/12/2021 6:45:00 PM 4.84 40.712 0.079 7.19 34.81 12.3
3/12/2021 7:00:00 PM 4.72 40.496 0.079 7.19 28.36 12.32
3/12/2021 7:15:00 PM 4.61 40.298 0.077 7.18 33.3 12.32
3/12/2021 7:30:00 PM 4.56 40.208 0.079 7.18 25.23 12.31
3/12/2021 7:45:00 PM 4.45 40.01 0.078 7.18 33 12.31
3/12/2021 8:00:00 PM 4.33 39.794 0.078 7.17 28.74 12.34
3/12/2021 8:15:00 PM 4.21 39.578 0.078 7.17 27.22 12.36
3/12/2021 8:30:00 PM 4.1 39.38 0.078 7.17 42.89 12.39
3/12/2021 8:45:00 PM 3.99 39.182 0.078 7.17 33.04 12.42
3/12/2021 9:00:00 PM 3.89 39.002 0.078 7.17 31.22 12.44
3/12/2021 9:15:00 PM 3.79 38.822 0.079 7.18 30.64 12.47
3/12/2021 9:30:00 PM 3.69 38.642 0.08 7.18 27.39 12.48
3/12/2021 9:45:00 PM 3.59 38.462 0.08 7.18 29.23 12.5
3/12/2021 10:00:00 PM 3.49 38.282 0.081 7.18 31.53 12.5
3/12/2021 10:15:00 PM 3.4 38.12 0.081 7.19 31.31 12.53
3/12/2021 10:30:00 PM 3.3 37.94 0.081 7.19 20.02 12.57
3/12/2021 10:45:00 PM 3.21 37.778 0.082 7.18 25.15 12.59
3/12/2021 11:00:00 PM 3.12 37.616 0.082 7.19 27.66 12.61
3/12/2021 11:15:00 PM 3.02 37.436 0.082 7.19 33.41 12.63
3/12/2021 11:30:00 PM 2.93 37.274 0.083 7.19 28.34 12.66
3/12/2021 11:45:00 PM 2.84 37.112 0.084 7.2 32.98 12.68
3/13/2021 12:00:00 AM 2.74 36.932 0.084 7.2 26.23 12.71
3/13/2021 12:15:00 AM 2.65 36.77 0.084 7.21 29.1 12.74
3/13/2021 12:30:00 AM 2.56 36.608 0.086 7.21 21.19 12.76
3/13/2021 12:45:00 AM 2.47 36.446 0.086 7.21 17.9 12.79
3/13/2021 1:00:00 AM 2.39 36.302 0.088 7.22 26.35 12.82
3/13/2021 1:15:00 AM 2.3 36.14 0.089 7.22 18.87 12.85
3/13/2021 1:30:00 AM 2.21 35.978 0.09 7.23 25.76 12.87
3/13/2021 1:45:00 AM 2.12 35.816 0.09 7.24 21.46 12.9
3/13/2021 2:00:00 AM 2.04 35.672 0.091 7.25 17.16 12.93
3/13/2021 2:15:00 AM 1.97 35.546 0.092 7.25 21.69 12.94
3/13/2021 2:30:00 AM 1.9 35.42 0.093 7.26 17.33 12.97
3/13/2021 2:45:00 AM 1.82 35.276 0.093 7.27 24.17 13
3/13/2021 3:00:00 AM 1.75 35.15 0.095 7.27 21.23 13.02
3/13/2021 3:15:00 AM 1.67 35.006 0.094 7.27 21.43 13.06
3/13/2021 3:30:00 AM 1.61 34.898 0.095 7.28 14.14 13.08
3/13/2021 3:45:00 AM 1.54 34.772 0.095 7.28 17.86 13.11
3/13/2021 4:00:00 AM 1.47 34.646 0.095 7.28 17.25 13.13
3/13/2021 4:15:00 AM 1.41 34.538 0.096 7.28 16.02 13.17
3/13/2021 4:30:00 AM 1.36 34.448 0.097 7.28 19.93 13.18
3/13/2021 4:45:00 AM 1.29 34.322 0.097 7.29 19.8 13.2
3/13/2021 5:00:00 AM 1.25 34.25 0.099 7.3 22.98 13.22
3/13/2021 5:15:00 AM 1.21 34.178 0.1 7.31 16.16 13.22
3/13/2021 5:30:00 AM 1.19 34.142 0.103 7.31 16.7 13.23
3/13/2021 5:45:00 AM 1.14 34.052 0.104 7.33 16.3 13.24
3/13/2021 6:00:00 AM 1.12 34.016 0.107 7.34 16.39 13.25
3/13/2021 6:15:00 AM 1.09 33.962 0.106 7.34 15.94 13.26
3/13/2021 6:30:00 AM 1.08 33.944 0.108 7.34 13.78 13.25
3/13/2021 6:45:00 AM 1.03 33.854 0.107 7.35 16.21 13.27
3/13/2021 7:00:00 AM 1.02 33.836 0.111 7.36 18.22 13.3
3/13/2021 7:15:00 AM 1 33.8 0.111 7.36 15.61 13.31
3/13/2021 7:30:00 AM 0.97 33.746 0.11 7.36 16.66 13.32
3/13/2021 7:45:00 AM 0.96 33.728 0.11 7.37 15.4 13.34
3/13/2021 8:00:00 AM 0.93 33.674 0.11 7.38 16.97 13.37
3/13/2021 8:15:00 AM 0.92 33.656 0.11 7.38 15.33 13.41
3/13/2021 8:30:00 AM 0.93 33.674 0.111 7.38 14.62 13.42
3/13/2021 8:45:00 AM 0.97 33.746 0.113 7.38 14.74 13.45
3/13/2021 9:00:00 AM 0.98 33.764 0.111 7.39 14.96 13.46
3/13/2021 9:15:00 AM 1.03 33.854 0.111 7.4 14.77 13.47
3/13/2021 9:30:00 AM 1.11 33.998 0.114 7.41 13.9 13.5
3/13/2021 9:45:00 AM 1.16 34.088 0.111 7.42 13.72 13.52
3/13/2021 10:00:00 AM 1.28 34.304 0.114 7.42 13.95 13.52
3/13/2021 10:15:00 AM 1.38 34.484 0.115 7.43 13.17 13.52
3/13/2021 10:30:00 AM 1.47 34.646 0.117 7.43 12.46 13.55
3/13/2021 10:45:00 AM 1.63 34.934 0.115 7.44 13.32 13.51
3/13/2021 11:00:00 AM 1.7 35.06 0.113 7.45 12.65 13.53
3/13/2021 11:15:00 AM 1.88 35.384 0.117 7.45 12.93 13.53
3/13/2021 11:30:00 AM 2.04 35.672 0.119 7.46 11.84 13.47
3/13/2021 11:45:00 AM 2.16 35.888 0.117 7.46 12.41 13.49
3/13/2021 12:00:00 PM 2.33 36.194 0.117 7.46 12.28 13.44
3/13/2021 12:15:00 PM 2.5 36.5 0.12 7.46 12.57 13.43
3/13/2021 12:30:00 PM 2.67 36.806 0.121 7.47 11.76 13.4
3/13/2021 12:45:00 PM 2.84 37.112 0.123 7.47 12.05 13.36
3/13/2021 1:00:00 PM 3.02 37.436 0.121 7.47 11.45 13.3
3/13/2021 1:15:00 PM 3.21 37.778 0.125 7.47 11.35 13.3
3/13/2021 1:30:00 PM 3.36 38.048 0.125 7.47 10.95 13.25
3/13/2021 1:45:00 PM 3.54 38.372 0.126 7.47 10.53 13.19
3/13/2021 2:00:00 PM 3.66 38.588 0.126 7.47 10.67 13.18
3/13/2021 2:15:00 PM 3.8 38.84 0.124 7.47 10.28 13.12
3/13/2021 2:30:00 PM 3.96 39.128 0.127 7.47 10.32 13.08
3/13/2021 2:45:00 PM 4.1 39.38 0.127 7.47 10.08 13.01
3/13/2021 3:00:00 PM 4.23 39.614 0.127 7.47 11.24 12.96
3/13/2021 3:15:00 PM 4.35 39.83 0.13 7.47 10.43 12.91
3/13/2021 3:30:00 PM 4.44 39.992 0.128 7.47 10.9 12.85
3/13/2021 3:45:00 PM 4.55 40.19 0.132 7.47 10.31 12.78
3/13/2021 4:00:00 PM 4.61 40.298 0.13 7.48 9.95 12.75
3/13/2021 4:15:00 PM 4.65 40.37 0.13 7.48 10.76 12.72
3/13/2021 4:30:00 PM 4.7 40.46 0.13 7.47 10.48 12.62
3/13/2021 4:45:00 PM 4.68 40.424 0.128 7.47 10.26 12.65
3/13/2021 5:00:00 PM 4.69 40.442 0.129 7.46 10.11 12.58
3/13/2021 5:15:00 PM 4.66 40.388 0.127 7.46 11.18 12.56
3/13/2021 5:30:00 PM 4.64 40.352 0.126 7.45 10.72 12.51
3/13/2021 5:45:00 PM 4.6 40.28 0.125 7.46 10.9 12.48
3/13/2021 6:00:00 PM 4.56 40.208 0.13 7.45 10.21 12.41
3/13/2021 6:15:00 PM 4.5 40.1 0.13 7.45 10.01 12.39
3/13/2021 6:30:00 PM 4.46 40.028 0.132 7.45 10.93 12.32
3/13/2021 6:45:00 PM 4.36 39.848 0.13 7.45 10.26 12.32
3/13/2021 7:00:00 PM 4.28 39.704 0.131 7.45 10.37 12.29
3/13/2021 7:15:00 PM 4.21 39.578 0.134 7.44 10.46 12.29
3/13/2021 7:30:00 PM 4.11 39.398 0.13 7.44 10.02 12.25
3/13/2021 7:45:00 PM 4.02 39.236 0.131 7.43 9.78 12.28
3/13/2021 8:00:00 PM 3.94 39.092 0.13 7.43 9.9 12.28
3/13/2021 8:15:00 PM 3.84 38.912 0.13 7.43 10.78 12.29
3/13/2021 8:30:00 PM 3.73 38.714 0.127 7.43 11.12 12.3
3/13/2021 8:45:00 PM 3.65 38.57 0.13 7.42 11.12 12.3
3/13/2021 9:00:00 PM 3.55 38.39 0.128 7.43 10.17 12.29
3/13/2021 9:15:00 PM 3.44 38.192 0.127 7.43 10.94 12.33
3/13/2021 9:30:00 PM 3.35 38.03 0.128 7.42 10.69 12.35
3/13/2021 9:45:00 PM 3.26 37.868 0.128 7.42 10.97 12.36
3/13/2021 10:00:00 PM 3.19 37.742 0.129 7.42 10.51 12.34
3/13/2021 10:15:00 PM 3.11 37.598 0.129 7.42 11.2 12.37
3/13/2021 10:30:00 PM 3.02 37.436 0.13 7.42 10.24 12.39
3/13/2021 10:45:00 PM 2.95 37.31 0.131 7.42 10.44 12.39
3/13/2021 11:00:00 PM 2.88 37.184 0.132 7.43 10.84 12.4
3/13/2021 11:15:00 PM 2.81 37.058 0.132 7.43 11.02 12.42
3/13/2021 11:30:00 PM 2.76 36.968 0.135 7.43 10.5 12.44
3/13/2021 11:45:00 PM 2.7 36.86 0.136 7.44 10.09 12.46
3/14/2021 12:00:00 AM 2.64 36.752 0.135 7.44 10.16 12.47
3/14/2021 12:15:00 AM 2.57 36.626 0.135 7.45 10.84 12.49
3/14/2021 12:30:00 AM 2.52 36.536 0.135 7.45 9.67 12.5
3/14/2021 12:45:00 AM 2.49 36.482 0.139 7.45 10.05 12.49
3/14/2021 1:00:00 AM 2.41 36.338 0.135 7.45 10.2 12.53
3/14/2021 1:15:00 AM 2.39 36.302 0.136 7.45 10.69 12.54
3/14/2021 1:30:00 AM 2.35 36.23 0.136 7.45 10.77 12.55
3/14/2021 1:45:00 AM 2.33 36.194 0.137 7.45 10.03 12.55
3/14/2021 3:00:00 AM 2.21 35.978 0.137 7.45 10.67 12.62
3/14/2021 3:15:00 AM 2.2 35.96 0.137 7.45 10.06 12.62
3/14/2021 3:30:00 AM 2.17 35.906 0.138 7.45 9.2 12.64
3/14/2021 3:45:00 AM 2.14 35.852 0.137 7.45 9.47 12.65
3/14/2021 4:00:00 AM 2.11 35.798 0.137 7.45 10.21 12.66
3/14/2021 4:15:00 AM 2.12 35.816 0.137 7.45 9.14 12.65
3/14/2021 4:30:00 AM 2.1 35.78 0.137 7.45 10.25 12.66
3/14/2021 4:45:00 AM 2.14 35.852 0.139 7.44 9.02 12.64
3/14/2021 5:00:00 AM 2.07 35.726 0.137 7.45 9.37 12.67
3/14/2021 5:15:00 AM 2.08 35.744 0.14 7.45 9.55 12.65
3/14/2021 5:30:00 AM 2.05 35.69 0.139 7.45 10.03 12.69
3/14/2021 5:45:00 AM 2.05 35.69 0.14 7.45 9.11 12.65
3/14/2021 6:00:00 AM 2.05 35.69 0.143 7.45 9.08 12.66
3/14/2021 6:15:00 AM 2.03 35.654 0.14 7.45 10.43 12.66
3/14/2021 6:30:00 AM 2.01 35.618 0.14 7.46 8.76 12.66
3/14/2021 6:45:00 AM 1.99 35.582 0.14 7.46 9.02 12.69
3/14/2021 7:00:00 AM 2.01 35.618 0.143 7.45 9.49 12.66
3/14/2021 7:15:00 AM 1.99 35.582 0.143 7.46 8.91 12.67
3/14/2021 7:30:00 AM 1.99 35.582 0.142 7.46 9.38 12.7
3/14/2021 7:45:00 AM 2.03 35.654 0.145 7.46 8.44 12.69
3/14/2021 8:00:00 AM 2.03 35.654 0.142 7.47 8.57 12.74
3/14/2021 8:15:00 AM 2.05 35.69 0.143 7.47 8.95 12.75
3/14/2021 8:30:00 AM 2.08 35.744 0.143 7.47 8.84 12.77
3/14/2021 8:45:00 AM 2.09 35.762 0.144 7.48 8.12 12.82
3/14/2021 9:00:00 AM 2.13 35.834 0.146 7.48 8.19 12.81
3/14/2021 9:15:00 AM 2.16 35.888 0.146 7.49 9.18 12.83
3/14/2021 9:30:00 AM 2.24 36.032 0.15 7.5 8.36 12.84
3/14/2021 9:45:00 AM 2.31 36.158 0.15 7.51 7.66 12.87
3/14/2021 10:00:00 AM 2.37 36.266 0.15 7.51 7.57 12.88
3/14/2021 10:15:00 AM 2.42 36.356 0.15 7.52 8.47 12.9
3/14/2021 10:30:00 AM 2.52 36.536 0.151 7.52 7.83 12.92
3/14/2021 10:45:00 AM 2.61 36.698 0.149 7.52 7.94 12.89
3/14/2021 11:00:00 AM 2.66 36.788 0.149 7.53 7.85 12.92
3/14/2021 11:15:00 AM 2.75 36.95 0.15 7.53 8.23 12.94
3/14/2021 11:30:00 AM 2.82 37.076 0.152 7.53 7.45 12.95
3/14/2021 11:45:00 AM 2.86 37.148 0.15 7.54 7.44 12.93
3/14/2021 12:00:00 PM 2.88 37.184 0.15 7.54 7.67 12.92
3/14/2021 12:15:00 PM 2.99 37.382 0.154 7.54 7.49 12.88
3/14/2021 12:30:00 PM 3.09 37.562 0.153 7.55 8.64 12.88
3/14/2021 12:45:00 PM 3.16 37.688 0.152 7.55 7.33 12.9
3/14/2021 1:00:00 PM 3.23 37.814 0.155 7.56 7.56 12.9
3/14/2021 1:15:00 PM 3.31 37.958 0.154 7.56 6.7 12.9
3/14/2021 1:30:00 PM 3.37 38.066 0.157 7.57 7.08 12.88
3/14/2021 1:45:00 PM 3.52 38.336 0.158 7.58 6.96 12.86
3/14/2021 2:00:00 PM 3.63 38.534 0.158 7.59 7.2 12.85
3/14/2021 2:15:00 PM 3.73 38.714 0.158 7.59 6.99 12.81
3/14/2021 2:30:00 PM 3.86 38.948 0.159 7.59 7.25 12.8
3/14/2021 2:45:00 PM 3.88 38.984 0.158 7.59 7.31 12.78
3/14/2021 3:00:00 PM 3.92 39.056 0.159 7.59 7.02 12.75
3/14/2021 3:15:00 PM 3.96 39.128 0.16 7.59 6.98 12.75
3/14/2021 3:30:00 PM 3.97 39.146 0.16 7.6 7.39 12.73
3/14/2021 3:45:00 PM 3.98 39.164 0.16 7.6 7.31 12.72
3/14/2021 4:00:00 PM 4.01 39.218 0.162 7.6 7.43 12.69
3/14/2021 4:15:00 PM 4.01 39.218 0.164 7.61 7.07 12.72
3/14/2021 4:30:00 PM 4 39.2 0.162 7.61 6.87 12.67
3/14/2021 4:45:00 PM 3.99 39.182 0.163 7.61 7.14 12.66
3/14/2021 5:00:00 PM 3.98 39.164 0.162 7.61 6.95 12.66
3/14/2021 5:15:00 PM 3.94 39.092 0.161 7.61 7.02 12.64
3/14/2021 5:30:00 PM 3.9 39.02 0.162 7.6 7.16 12.61
3/14/2021 5:45:00 PM 3.84 38.912 0.161 7.6 7.52 12.59
3/14/2021 6:00:00 PM 3.76 38.768 0.159 7.6 7.59 12.57
3/14/2021 6:15:00 PM 3.68 38.624 0.161 7.59 6.89 12.55
3/14/2021 6:30:00 PM 3.61 38.498 0.162 7.59 6.72 12.52
3/14/2021 6:45:00 PM 3.53 38.354 0.164 7.59 7.23 12.51
3/14/2021 7:00:00 PM 3.45 38.21 0.164 7.59 7.3 12.49
3/14/2021 7:15:00 PM 3.36 38.048 0.164 7.59 7.56 12.49
3/14/2021 7:30:00 PM 3.27 37.886 0.163 7.58 7.89 12.45
3/14/2021 7:45:00 PM 3.17 37.706 0.162 7.58 7.29 12.48
3/14/2021 8:00:00 PM 3.06 37.508 0.162 7.57 7.19 12.49
3/14/2021 8:15:00 PM 2.98 37.364 0.162 7.57 7.59 12.48
3/14/2021 8:30:00 PM 2.89 37.202 0.163 7.57 7.9 12.48
3/14/2021 8:45:00 PM 2.82 37.076 0.163 7.57 7.16 12.47
3/14/2021 9:00:00 PM 2.73 36.914 0.164 7.57 7.3 12.47
3/14/2021 9:15:00 PM 2.66 36.788 0.165 7.57 6.67 12.49
3/14/2021 9:30:00 PM 2.56 36.608 0.164 7.56 7.17 12.49
3/14/2021 9:45:00 PM 2.45 36.41 0.164 7.56 7.55 12.53
3/14/2021 10:00:00 PM 2.32 36.176 0.163 7.57 7.9 12.58
3/14/2021 10:15:00 PM 2.25 36.05 0.166 7.56 8.47 12.58
3/14/2021 10:30:00 PM 2.12 35.816 0.165 7.57 7.39 12.61
3/14/2021 10:45:00 PM 2.01 35.618 0.165 7.57 7.26 12.62
3/14/2021 11:00:00 PM 1.92 35.456 0.167 7.57 6.88 12.66
3/14/2021 11:15:00 PM 1.84 35.312 0.167 7.57 6.61 12.68
3/14/2021 11:30:00 PM 1.75 35.15 0.166 7.57 6.85 12.72
3/14/2021 11:45:00 PM 1.69 35.042 0.166 7.56 6.65 12.7
3/15/2021 12:00:00 AM 1.59 34.862 0.167 7.57 6.89 12.77
3/15/2021 12:15:00 AM 1.51 34.718 0.167 7.57 6.93 12.78
3/15/2021 12:30:00 AM 1.44 34.592 0.169 7.56 6.77 12.79
3/15/2021 12:45:00 AM 1.37 34.466 0.17 7.57 6.99 12.82
3/15/2021 1:00:00 AM 1.25 34.25 0.171 7.57 6.71 12.89
3/15/2021 1:15:00 AM 1.16 34.088 0.171 7.57 7.05 12.89
3/15/2021 1:30:00 AM 1.1 33.98 0.171 7.57 6.84 12.91
3/15/2021 1:45:00 AM 1.03 33.854 0.175 7.57 6.51 12.93
3/15/2021 2:00:00 AM 0.95 33.71 0.174 7.57 6.38 12.93
3/15/2021 2:15:00 AM 0.87 33.566 0.174 7.58 6.75 13
3/15/2021 2:30:00 AM 0.81 33.458 0.176 7.58 6.67 13
3/15/2021 2:45:00 AM 0.77 33.386 0.178 7.58 7.16 13
3/15/2021 3:00:00 AM 0.71 33.278 0.179 7.59 6.38 13.02
3/15/2021 3:15:00 AM 0.65 33.17 0.178 7.59 6.7 13.05
3/15/2021 3:30:00 AM 0.56 33.008 0.18 7.59 6.34 13.08
3/15/2021 3:45:00 AM 0.49 32.882 0.18 7.59 6.46 13.12
3/15/2021 4:00:00 AM 0.49 32.882 0.182 7.58 6.27 13.1
3/15/2021 4:15:00 AM 0.43 32.774 0.182 7.58 7.01 13.12
3/15/2021 4:30:00 AM 0.37 32.666 0.182 7.59 8.54 13.15
3/15/2021 4:45:00 AM 0.35 32.63 0.185 7.58 9.79 13.15
3/15/2021 5:00:00 AM 0.34 32.612 0.187 7.59 7.43 13.14
3/15/2021 5:15:00 AM 0.36 32.648 0.189 7.58 6.91 13.11
3/15/2021 5:30:00 AM 0.25 32.45 0.189 7.59 6.63 13.17
3/15/2021 5:45:00 AM 0.24 32.432 0.19 7.59 6.07 13.17
3/15/2021 6:00:00 AM 0.26 32.468 0.193 7.59 6.31 13.15
3/15/2021 6:15:00 AM 0.25 32.45 0.194 7.59 6.13 13.17
3/15/2021 6:30:00 AM 0.25 32.45 0.195 7.59 6.17 13.16
3/15/2021 6:45:00 AM 0.26 32.468 0.198 7.59 6.37 13.17
3/15/2021 7:00:00 AM 0.28 32.504 0.199 7.59 6.17 13.17
3/15/2021 7:15:00 AM 0.28 32.504 0.204 7.6 5.98 13.17
3/15/2021 7:30:00 AM 0.32 32.576 0.211 7.61 5.79 13.16
3/15/2021 7:45:00 AM 0.36 32.648 0.218 7.62 6.06 13.15
3/15/2021 8:00:00 AM 0.38 32.684 0.225 7.64 5.78 13.17
3/15/2021 8:15:00 AM 0.41 32.738 0.23 7.65 5.46 13.16
3/15/2021 9:30:00 AM 0.47 32.846 0.235 7.66 5.66 13.17
3/15/2021 9:45:00 AM 0.57 33.026 0.24 7.67 5.54 13.17
3/15/2021 10:00:00 AM 0.63 33.134 0.243 7.69 5.86 13.2
3/15/2021 10:15:00 AM 0.72 33.296 0.246 7.7 5.64 13.22
3/15/2021 10:30:00 AM 0.82 33.476 0.248 7.71 5.72 13.26
3/15/2021 10:45:00 AM 0.92 33.656 0.248 7.71 5.7 13.29
3/15/2021 11:00:00 AM 1.03 33.854 0.247 7.72 5.4 13.33
3/15/2021 11:15:00 AM 1.15 34.07 0.246 7.73 5.35 13.36
3/15/2021 11:30:00 AM 1.26 34.268 0.243 7.73 5.41 13.4
3/15/2021 11:45:00 AM 1.37 34.466 0.239 7.73 5.46 13.43
3/15/2021 12:00:00 PM 1.49 34.682 0.236 7.73 5.65 13.45
3/15/2021 12:15:00 PM 1.59 34.862 0.233 7.73 5.71 13.48
3/15/2021 12:30:00 PM 1.7 35.06 0.231 7.73 5.33 13.49
3/15/2021 12:45:00 PM 1.79 35.222 0.226 7.73 5.77 13.51
3/15/2021 1:00:00 PM 1.95 35.51 0.226 7.73 5.63 13.47
3/15/2021 1:15:00 PM 2.1 35.78 0.223 7.73 5.55 13.46
3/15/2021 1:30:00 PM 2.29 36.122 0.222 7.73 5.2 13.45
3/15/2021 1:45:00 PM 2.47 36.446 0.22 7.73 5.18 13.44
3/15/2021 2:00:00 PM 2.66 36.788 0.218 7.72 5.15 13.41
3/15/2021 2:15:00 PM 2.82 37.076 0.218 7.73 5.1 13.39
3/15/2021 2:30:00 PM 2.97 37.346 0.219 7.73 5.11 13.36
3/15/2021 2:45:00 PM 3.08 37.544 0.216 7.73 5.27 13.34
3/15/2021 3:00:00 PM 3.18 37.724 0.213 7.72 5.76 13.32
3/15/2021 3:15:00 PM 3.27 37.886 0.209 7.72 6.13 13.33
3/15/2021 3:30:00 PM 3.35 38.03 0.205 7.72 5.73 13.31
3/15/2021 3:45:00 PM 3.44 38.192 0.2 7.71 6.25 13.28
3/15/2021 4:00:00 PM 3.48 38.264 0.192 7.7 6.34 13.26
3/15/2021 4:15:00 PM 3.53 38.354 0.187 7.68 5.92 13.25
3/15/2021 4:30:00 PM 3.54 38.372 0.182 7.67 6.62 13.25
3/15/2021 4:45:00 PM 3.55 38.39 0.179 7.66 6.29 13.24
3/15/2021 5:00:00 PM 3.56 38.408 0.18 7.66 6.59 13.14
3/15/2021 5:15:00 PM 3.54 38.372 0.181 7.67 6.55 13.17
3/15/2021 5:30:00 PM 3.52 38.336 0.183 7.67 6.45 13.15
3/15/2021 5:45:00 PM 3.5 38.3 0.184 7.67 6.66 13.11
3/15/2021 6:00:00 PM 3.45 38.21 0.184 7.67 6.56 13.08
3/15/2021 6:15:00 PM 3.41 38.138 0.184 7.67 6.05 13.06
3/15/2021 6:30:00 PM 3.36 38.048 0.182 7.66 5.75 13.01
3/15/2021 6:45:00 PM 3.24 37.832 0.179 7.66 5.86 13.02
3/15/2021 7:00:00 PM 3.14 37.652 0.178 7.65 5.74 13
3/15/2021 7:15:00 PM 3.04 37.472 0.177 7.64 6.23 12.98
3/15/2021 7:30:00 PM 2.95 37.31 0.176 7.64 6.26 12.95
3/15/2021 7:45:00 PM 2.85 37.13 0.177 7.63 6.15 12.92
3/15/2021 8:00:00 PM 2.75 36.95 0.176 7.63 5.77 12.89
3/15/2021 8:15:00 PM 2.66 36.788 0.178 7.62 5.75 12.88
3/15/2021 8:30:00 PM 2.57 36.626 0.178 7.62 5.62 12.86
3/15/2021 8:45:00 PM 2.5 36.5 0.179 7.61 5.72 12.82
3/15/2021 9:00:00 PM 2.42 36.356 0.178 7.6 5.81 12.82
3/15/2021 9:15:00 PM 2.34 36.212 0.178 7.6 6.07 12.8
3/15/2021 9:30:00 PM 2.28 36.104 0.181 7.6 5.71 12.78
3/15/2021 9:45:00 PM 2.23 36.014 0.181 7.6 5.92 12.75
3/15/2021 10:00:00 PM 2.17 35.906 0.182 7.6 5.77 12.74
3/15/2021 10:15:00 PM 2.11 35.798 0.184 7.6 5.74 12.74
3/15/2021 10:30:00 PM 2.06 35.708 0.185 7.6 6.31 12.74
3/15/2021 10:45:00 PM 2.01 35.618 0.188 7.6 5.88 12.72
3/15/2021 11:00:00 PM 1.96 35.528 0.189 7.61 5.8 12.73
3/15/2021 11:15:00 PM 1.93 35.474 0.193 7.61 5.72 12.72
3/15/2021 11:30:00 PM 1.87 35.366 0.195 7.61 6.88 12.72
3/15/2021 11:45:00 PM 1.8 35.24 0.195 7.62 5.68 12.73
3/16/2021 12:00:00 AM 1.74 35.132 0.197 7.62 5.7 12.73
3/16/2021 12:15:00 AM 1.67 35.006 0.198 7.62 5.48 12.75
3/16/2021 12:30:00 AM 1.6 34.88 0.199 7.62 5.52 12.77
3/16/2021 12:45:00 AM 1.56 34.808 0.201 7.62 5.51 12.77
3/16/2021 1:00:00 AM 1.47 34.646 0.2 7.62 5.52 12.8
3/16/2021 1:15:00 AM 1.41 34.538 0.201 7.62 5.69 12.81
3/16/2021 1:30:00 AM 1.36 34.448 0.202 7.62 5.47 12.82
3/16/2021 1:45:00 AM 1.32 34.376 0.203 7.62 5.98 12.83
3/16/2021 2:00:00 AM 1.28 34.304 0.204 7.62 6.05 12.83
3/16/2021 2:15:00 AM 1.23 34.214 0.205 7.62 5.78 12.83
3/16/2021 2:30:00 AM 1.18 34.124 0.205 7.62 5.73 12.85
3/16/2021 2:45:00 AM 1.14 34.052 0.206 7.63 5.73 12.86
3/16/2021 3:00:00 AM 1.12 34.016 0.208 7.62 7.08 12.88
3/16/2021 3:15:00 AM 1.08 33.944 0.207 7.63 5.71 12.89
3/16/2021 3:30:00 AM 1.07 33.926 0.208 7.62 5.91 12.88
3/16/2021 3:45:00 AM 1.04 33.872 0.208 7.63 6 12.88
3/16/2021 4:00:00 AM 1.05 33.89 0.21 7.62 5.42 12.87
3/16/2021 4:15:00 AM 1.01 33.818 0.209 7.62 6.52 12.89
3/16/2021 4:30:00 AM 0.98 33.764 0.209 7.62 5.29 12.89
3/16/2021 4:45:00 AM 0.98 33.764 0.214 7.62 5.25 12.88
3/16/2021 5:00:00 AM 0.94 33.692 0.211 7.63 6.01 12.9
3/16/2021 5:15:00 AM 0.95 33.71 0.213 7.63 5.95 12.89
3/16/2021 5:30:00 AM 0.95 33.71 0.214 7.63 5.32 12.87
3/16/2021 5:45:00 AM 0.95 33.71 0.216 7.63 5.78 12.87
3/16/2021 6:00:00 AM 0.98 33.764 0.218 7.63 5.7 12.86
3/16/2021 6:15:00 AM 0.96 33.728 0.219 7.63 5.58 12.85
3/16/2021 6:30:00 AM 0.96 33.728 0.219 7.63 5.32 12.84
3/16/2021 6:45:00 AM 0.97 33.746 0.22 7.63 5.13 12.83
3/16/2021 7:00:00 AM 0.98 33.764 0.224 7.63 5.54 12.82
3/16/2021 7:15:00 AM 0.98 33.764 0.223 7.63 5.02 12.81
3/16/2021 7:30:00 AM 0.99 33.782 0.224 7.63 5.14 12.81
3/16/2021 7:45:00 AM 1.03 33.854 0.225 7.63 5.04 12.77
3/16/2021 8:00:00 AM 1.01 33.818 0.227 7.63 5.14 12.78
3/16/2021 8:15:00 AM 1.02 33.836 0.232 7.63 5.04 12.78
3/16/2021 8:30:00 AM 1.01 33.818 0.226 7.64 5.55 12.8
3/16/2021 8:45:00 AM 1.04 33.872 0.228 7.64 5.47 12.79
3/16/2021 9:00:00 AM 1.05 33.89 0.229 7.64 5.23 12.81
3/16/2021 9:15:00 AM 1.09 33.962 0.231 7.64 5.4 12.8
3/16/2021 9:30:00 AM 1.14 34.052 0.231 7.65 5.33 12.85
3/16/2021 9:45:00 AM 1.22 34.196 0.234 7.65 6.89 12.84
3/16/2021 10:00:00 AM 1.23 34.214 0.235 7.65 5.76 12.89
3/16/2021 10:15:00 AM 1.29 34.322 0.235 7.66 5.16 12.92
3/16/2021 10:30:00 AM 1.35 34.43 0.237 7.67 5.49 12.94
3/16/2021 10:45:00 AM 1.41 34.538 0.237 7.67 5.47 12.95
3/16/2021 11:00:00 AM 1.45 34.61 0.239 7.68 4.93 12.97
3/16/2021 11:15:00 AM 1.52 34.736 0.239 7.68 4.78 12.99
3/16/2021 11:30:00 AM 1.55 34.79 0.24 7.69 4.35 13.03
3/16/2021 11:45:00 AM 1.6 34.88 0.241 7.69 5.06 13.03
3/16/2021 12:00:00 PM 1.67 35.006 0.241 7.7 4.65 13.06
3/16/2021 12:15:00 PM 1.72 35.096 0.241 7.69 4.97 13.07
3/16/2021 12:30:00 PM 1.77 35.186 0.24 7.71 4.68 13.1
3/16/2021 12:45:00 PM 1.84 35.312 0.24 7.71 4.73 13.11
3/16/2021 1:00:00 PM 1.9 35.42 0.24 7.72 4.88 13.14
3/16/2021 1:15:00 PM 2.02 35.636 0.241 7.72 6.63 13.14
3/16/2021 1:30:00 PM 2.08 35.744 0.238 7.73 5.03 13.14
3/16/2021 1:45:00 PM 2.13 35.834 0.237 7.73 5.07 13.19
3/16/2021 2:00:00 PM 2.16 35.888 0.235 7.73 7.13 13.21
3/16/2021 2:15:00 PM 2.19 35.942 0.234 7.74 4.78 13.21
3/16/2021 2:30:00 PM 2.22 35.996 0.233 7.75 4.66 13.25
3/16/2021 2:45:00 PM 2.27 36.086 0.232 7.75 4.74 13.24
3/16/2021 3:00:00 PM 2.29 36.122 0.231 7.75 4.42 13.24
3/16/2021 3:15:00 PM 2.31 36.158 0.23 7.75 4.52 13.22
3/16/2021 3:30:00 PM 2.34 36.212 0.229 7.75 4.59 13.21
3/16/2021 3:45:00 PM 2.38 36.284 0.229 7.74 4.84 13.16
3/16/2021 4:00:00 PM 2.36 36.248 0.224 7.74 5.04 13.16
3/16/2021 4:15:00 PM 2.33 36.194 0.222 7.74 5.38 13.15
3/16/2021 4:30:00 PM 2.35 36.23 0.22 7.73 5.41 13.16
3/16/2021 4:45:00 PM 2.33 36.194 0.218 7.73 5.31 13.14
3/16/2021 5:00:00 PM 2.31 36.158 0.215 7.72 4.43 13.14
3/16/2021 5:15:00 PM 2.28 36.104 0.214 7.72 4.61 13.12
3/16/2021 5:30:00 PM 2.22 35.996 0.214 7.71 4.5 13.1
3/16/2021 5:45:00 PM 2.19 35.942 0.212 7.71 4.8 13.08
3/16/2021 6:00:00 PM 2.18 35.924 0.21 7.71 4.78 13.07
3/16/2021 6:15:00 PM 2.17 35.906 0.211 7.7 4.37 13.02
3/16/2021 6:30:00 PM 2.14 35.852 0.21 7.7 4.45 13.03
3/16/2021 6:45:00 PM 2.14 35.852 0.208 7.7 5.12 12.99
3/16/2021 7:00:00 PM 2.17 35.906 0.208 7.68 4.92 12.95
3/16/2021 7:15:00 PM 2.14 35.852 0.208 7.68 4.36 12.91
3/16/2021 7:30:00 PM 2.12 35.816 0.207 7.67 4.88 12.89
3/16/2021 7:45:00 PM 2.12 35.816 0.211 7.67 4.82 12.86
3/16/2021 8:00:00 PM 2.1 35.78 0.209 7.67 4.31 12.81
3/16/2021 8:15:00 PM 2.05 35.69 0.207 7.66 4.93 12.83
3/16/2021 8:30:00 PM 2.04 35.672 0.207 7.66 4.74 12.78
3/16/2021 8:45:00 PM 2.06 35.708 0.209 7.65 4.6 12.74
3/16/2021 9:00:00 PM 2.03 35.654 0.207 7.65 4.95 12.71
3/16/2021 9:15:00 PM 2.02 35.636 0.209 7.65 5.02 12.7
3/16/2021 9:30:00 PM 2.05 35.69 0.209 7.64 5.18 12.65
3/16/2021 9:45:00 PM 2.05 35.69 0.21 7.64 6.32 12.64
3/16/2021 10:00:00 PM 2.08 35.744 0.22 7.63 5.43 12.6
3/16/2021 10:15:00 PM 2.05 35.69 0.215 7.63 6.23 12.57
3/16/2021 10:30:00 PM 2.01 35.618 0.212 7.63 5.24 12.6
3/16/2021 10:45:00 PM 1.99 35.582 0.21 7.63 5.35 12.6
3/16/2021 11:00:00 PM 2.02 35.636 0.213 7.63 4.89 12.57
3/16/2021 11:15:00 PM 2.03 35.654 0.216 7.63 5.21 12.56
3/16/2021 11:30:00 PM 2 35.6 0.214 7.63 5.36 12.57
3/16/2021 11:45:00 PM 2.01 35.618 0.215 7.63 4.92 12.54
3/17/2021 12:00:00 AM 2.08 35.744 0.221 7.62 5.13 12.46
3/17/2021 12:15:00 AM 2.05 35.69 0.217 7.63 4.3 12.46
3/17/2021 12:30:00 AM 2.06 35.708 0.22 7.63 4.69 12.49
3/17/2021 12:45:00 AM 2.06 35.708 0.218 7.63 4.62 12.48
3/17/2021 1:00:00 AM 2.07 35.726 0.22 7.63 4.53 12.46
3/17/2021 1:15:00 AM 2.08 35.744 0.221 7.63 4.74 12.45
3/17/2021 1:30:00 AM 2.09 35.762 0.221 7.63 5.05 12.44
3/17/2021 1:45:00 AM 2.09 35.762 0.221 7.63 4.6 12.42
3/17/2021 2:00:00 AM 2.09 35.762 0.222 7.63 4.77 12.42
3/17/2021 2:15:00 AM 2.11 35.798 0.222 7.63 4.51 12.41
3/17/2021 2:30:00 AM 2.11 35.798 0.224 7.63 4.38 12.4
3/17/2021 2:45:00 AM 2.1 35.78 0.223 7.63 7.11 12.42
3/17/2021 3:00:00 AM 2.11 35.798 0.224 7.63 4.92 12.39
3/17/2021 3:15:00 AM 2.13 35.834 0.224 7.63 4.71 12.38
3/17/2021 3:30:00 AM 2.14 35.852 0.225 7.63 4.83 12.35
3/17/2021 3:45:00 AM 2.14 35.852 0.225 7.63 4.54 12.36
3/17/2021 4:00:00 AM 2.14 35.852 0.225 7.63 5.28 12.35
3/17/2021 4:15:00 AM 2.15 35.87 0.227 7.63 4.61 12.32
3/17/2021 4:30:00 AM 2.15 35.87 0.226 7.63 4.56 12.34
3/17/2021 4:45:00 AM 2.16 35.888 0.227 7.63 5.08 12.35
3/17/2021 5:00:00 AM 2.15 35.87 0.227 7.63 4.81 12.34
3/17/2021 5:15:00 AM 2.15 35.87 0.227 7.63 5.01 12.33
3/17/2021 5:30:00 AM 2.15 35.87 0.226 7.63 5.1 12.34
3/17/2021 5:45:00 AM 2.17 35.906 0.228 7.63 5.12 12.33
3/17/2021 6:00:00 AM 2.16 35.888 0.228 7.63 4.38 12.34
3/17/2021 6:15:00 AM 2.17 35.906 0.228 7.63 4.44 12.31
3/17/2021 6:30:00 AM 2.18 35.924 0.23 7.63 4.68 12.32
3/17/2021 6:45:00 AM 2.21 35.978 0.231 7.63 6.06 12.31
3/17/2021 7:00:00 AM 2.2 35.96 0.23 7.63 4.63 12.29
3/17/2021 7:15:00 AM 2.21 35.978 0.23 7.63 5.02 12.29
3/17/2021 7:30:00 AM 2.22 35.996 0.23 7.63 5.13 12.27
3/17/2021 7:45:00 AM 2.26 36.068 0.231 7.63 4.47 12.26
3/17/2021 8:00:00 AM 2.23 36.014 0.231 7.63 4.92 12.27
3/17/2021 8:15:00 AM 2.25 36.05 0.23 7.63 4.79 12.29
3/17/2021 8:30:00 AM 2.28 36.104 0.231 7.63 4.43 12.3
3/17/2021 8:45:00 AM 2.29 36.122 0.232 7.64 4.41 12.32
3/17/2021 9:00:00 AM 2.32 36.176 0.231 7.64 4.32 12.37
3/17/2021 9:15:00 AM 2.35 36.23 0.231 7.64 4.42 12.4
3/17/2021 9:30:00 AM 2.4 36.32 0.232 7.65 3.94 12.43
3/17/2021 9:45:00 AM 2.45 36.41 0.232 7.65 4.47 12.45
3/17/2021 10:00:00 AM 2.5 36.5 0.231 7.66 4 12.51
3/17/2021 10:15:00 AM 2.54 36.572 0.231 7.66 4.04 12.54
3/17/2021 10:30:00 AM 2.62 36.716 0.231 7.67 4.67 12.57
3/17/2021 10:45:00 AM 2.7 36.86 0.231 7.67 4.67 12.61
3/17/2021 11:00:00 AM 2.76 36.968 0.231 7.68 4.29 12.65
3/17/2021 11:15:00 AM 2.89 37.202 0.233 7.68 4.15 12.68
3/17/2021 11:30:00 AM 2.96 37.328 0.231 7.69 3.93 12.77
3/17/2021 11:45:00 AM 3.07 37.526 0.229 7.7 4 12.79
3/17/2021 12:00:00 PM 3.2 37.76 0.23 7.7 3.95 12.83
3/17/2021 12:15:00 PM 3.32 37.976 0.23 7.71 3.97 12.86
3/17/2021 12:30:00 PM 3.5 38.3 0.232 7.71 4.42 12.86
3/17/2021 12:45:00 PM 3.69 38.642 0.235 7.72 4.18 12.83
3/17/2021 1:00:00 PM 3.83 38.894 0.232 7.72 4.27 12.85
3/17/2021 1:15:00 PM 4.03 39.254 0.235 7.73 3.8 12.8
3/17/2021 1:30:00 PM 4.25 39.65 0.231 7.73 4.39 12.87
3/17/2021 1:45:00 PM 4.5 40.1 0.231 7.73 3.84 12.85
3/17/2021 2:00:00 PM 4.72 40.496 0.231 7.74 3.98 12.85
3/17/2021 2:15:00 PM 4.91 40.838 0.23 7.74 4.73 12.83
3/17/2021 2:30:00 PM 5.11 41.198 0.231 7.74 4.61 12.78
3/17/2021 2:45:00 PM 5.29 41.522 0.233 7.74 4.7 12.74
3/17/2021 3:00:00 PM 5.45 41.81 0.234 7.74 4.51 12.72
3/17/2021 3:15:00 PM 5.59 42.062 0.23 7.74 4.07 12.71
3/17/2021 3:30:00 PM 5.74 42.332 0.231 7.74 5.33 12.67
3/17/2021 3:45:00 PM 5.88 42.584 0.23 7.74 9.87 12.59
3/17/2021 4:00:00 PM 5.99 42.782 0.229 7.74 4.6 12.6
3/17/2021 4:15:00 PM 6.09 42.962 0.229 7.75 3.71 12.57
3/17/2021 4:30:00 PM 6.18 43.124 0.23 7.75 4.29 12.53
3/17/2021 4:45:00 PM 6.27 43.286 0.233 7.74 3.73 12.45
3/17/2021 5:00:00 PM 6.33 43.394 0.231 7.74 3.84 12.41
3/17/2021 5:15:00 PM 6.37 43.466 0.231 7.74 3.72 12.38
3/17/2021 5:30:00 PM 6.4 43.52 0.229 7.75 3.62 12.34
3/17/2021 5:45:00 PM 6.43 43.574 0.23 7.75 3.68 12.28
3/17/2021 6:00:00 PM 6.44 43.592 0.231 7.74 4.6 12.23
3/17/2021 6:15:00 PM 6.45 43.61 0.231 7.74 4.05 12.17
3/17/2021 6:30:00 PM 6.42 43.556 0.23 7.74 3.86 12.11
3/17/2021 6:45:00 PM 6.39 43.502 0.228 7.73 3.85 12.06
3/17/2021 7:00:00 PM 6.36 43.448 0.23 7.73 3.9 11.98
3/17/2021 7:15:00 PM 6.31 43.358 0.228 7.72 3.95 11.92
3/17/2021 7:30:00 PM 6.26 43.268 0.229 7.71 4.76 11.83
3/17/2021 7:45:00 PM 6.2 43.16 0.228 7.7 4.11 11.77
3/17/2021 8:00:00 PM 6.14 43.052 0.227 7.69 4.17 11.7
3/17/2021 8:15:00 PM 6.09 42.962 0.226 7.68 4.56 11.63
3/17/2021 8:30:00 PM 6.03 42.854 0.225 7.68 4.53 11.57
3/17/2021 8:45:00 PM 5.97 42.746 0.225 7.67 4.61 11.53
3/17/2021 9:00:00 PM 5.9 42.62 0.223 7.66 5.37 11.5
3/17/2021 9:15:00 PM 5.83 42.494 0.222 7.66 4.87 11.47
3/17/2021 9:30:00 PM 5.76 42.368 0.222 7.65 4.91 11.43
3/17/2021 9:45:00 PM 5.68 42.224 0.22 7.64 5.05 11.41
3/17/2021 10:00:00 PM 5.61 42.098 0.22 7.64 4.96 11.39
3/17/2021 10:15:00 PM 5.53 41.954 0.219 7.64 5.15 11.38
3/17/2021 10:30:00 PM 5.46 41.828 0.218 7.63 5.5 11.37
3/17/2021 10:45:00 PM 5.4 41.72 0.218 7.62 6.67 11.34
3/17/2021 11:00:00 PM 5.33 41.594 0.217 7.62 5.26 11.33
3/17/2021 11:15:00 PM 5.27 41.486 0.215 7.62 5.71 11.34
3/17/2021 11:30:00 PM 5.21 41.378 0.215 7.61 5.08 11.34
3/17/2021 11:45:00 PM 5.15 41.27 0.214 7.61 5.52 11.34
3/18/2021 12:00:00 AM 5.09 41.162 0.213 7.61 5.86 11.34
3/18/2021 12:15:00 AM 5.02 41.036 0.213 7.61 5.22 11.35
3/18/2021 12:30:00 AM 4.94 40.892 0.212 7.61 5.3 11.38
3/18/2021 12:45:00 AM 4.87 40.766 0.21 7.61 5.93 11.41
3/18/2021 1:00:00 AM 4.8 40.64 0.21 7.6 5.22 11.43
3/18/2021 1:15:00 AM 4.74 40.532 0.21 7.6 5.49 11.44
3/18/2021 1:30:00 AM 4.68 40.424 0.21 7.6 5.12 11.45
3/18/2021 1:45:00 AM 4.61 40.298 0.21 7.6 5.08 11.48
3/18/2021 2:00:00 AM 4.54 40.172 0.209 7.6 5.66 11.51
3/18/2021 2:15:00 AM 4.49 40.082 0.209 7.6 5.68 11.53
3/18/2021 2:30:00 AM 4.44 39.992 0.209 7.6 5.7 11.53
3/18/2021 2:45:00 AM 4.38 39.884 0.209 7.6 5.55 11.55
3/18/2021 3:00:00 AM 4.32 39.776 0.209 7.6 5.43 11.57
3/18/2021 3:15:00 AM 4.26 39.668 0.209 7.6 5.4 11.6
3/18/2021 3:30:00 AM 4.22 39.596 0.208 7.6 5.46 11.61
3/18/2021 3:45:00 AM 4.17 39.506 0.207 7.6 5.62 11.62
3/18/2021 4:00:00 AM 4.12 39.416 0.208 7.6 5.27 11.65
3/18/2021 4:15:00 AM 4.09 39.362 0.207 7.6 5.28 11.66
3/18/2021 4:30:00 AM 4.05 39.29 0.206 7.6 5.54 11.67
3/18/2021 4:45:00 AM 4.02 39.236 0.207 7.6 5.29 11.69
3/18/2021 5:00:00 AM 3.98 39.164 0.206 7.59 5.42 11.7
3/18/2021 5:15:00 AM 3.95 39.11 0.207 7.59 5.14 11.7
3/18/2021 5:30:00 AM 3.92 39.056 0.206 7.59 5.7 11.72
3/18/2021 5:45:00 AM 3.89 39.002 0.206 7.59 5.3 11.72
3/18/2021 6:00:00 AM 3.87 38.966 0.207 7.59 5.67 11.72
3/18/2021 6:15:00 AM 3.84 38.912 0.207 7.59 5 11.74
3/18/2021 6:30:00 AM 3.82 38.876 0.208 7.59 5 11.73
3/18/2021 6:45:00 AM 3.8 38.84 0.208 7.59 5.23 11.74
3/18/2021 7:00:00 AM 3.78 38.804 0.207 7.59 5.48 11.74
3/18/2021 7:15:00 AM 3.78 38.804 0.206 7.59 6.17 11.73
3/18/2021 7:30:00 AM 3.77 38.786 0.207 7.59 5.47 11.73
3/18/2021 7:45:00 AM 3.76 38.768 0.206 7.59 5.67 11.74
3/18/2021 8:00:00 AM 3.75 38.75 0.207 7.59 5.56 11.74
3/18/2021 8:15:00 AM 3.75 38.75 0.207 7.59 5.06 11.75
3/18/2021 8:30:00 AM 3.76 38.768 0.21 7.59 4.98 11.72
3/18/2021 8:45:00 AM 3.77 38.786 0.21 7.59 5.65 11.72
3/18/2021 9:00:00 AM 3.76 38.768 0.211 7.6 4.71 11.77
3/18/2021 9:15:00 AM 3.76 38.768 0.213 7.6 5.31 11.8
3/18/2021 9:30:00 AM 3.76 38.768 0.212 7.6 8.29 11.8
3/18/2021 9:45:00 AM 3.76 38.768 0.212 7.6 4.98 11.82
3/18/2021 10:00:00 AM 3.76 38.768 0.211 7.6 4.56 11.84
3/18/2021 10:15:00 AM 3.76 38.768 0.211 7.61 4.78 11.86
3/18/2021 10:30:00 AM 3.76 38.768 0.211 7.61 4.74 11.87
3/18/2021 10:45:00 AM 3.77 38.786 0.211 7.61 5.08 11.91
3/18/2021 11:00:00 AM 3.78 38.804 0.216 7.61 5.13 11.94
3/18/2021 11:15:00 AM 3.78 38.804 0.22 7.62 5.63 12
3/18/2021 11:30:00 AM 3.8 38.84 0.228 7.62 7.05 11.98
3/18/2021 11:45:00 AM 3.8 38.84 0.229 7.62 8.69 12.02
3/18/2021 12:00:00 PM 3.81 38.858 0.228 7.62 9.62 12.03
3/18/2021 12:15:00 PM 3.82 38.876 0.226 7.63 9.08 12.06
3/18/2021 12:30:00 PM 3.83 38.894 0.224 7.63 9.12 12.09
3/18/2021 12:45:00 PM 3.83 38.894 0.223 7.63 9.51 12.1
3/18/2021 1:00:00 PM 3.83 38.894 0.221 7.63 9.34 12.12
3/18/2021 1:15:00 PM 3.85 38.93 0.219 7.63 7.77 12.15
3/18/2021 1:30:00 PM 3.83 38.894 0.213 7.63 7.38 12.21
3/18/2021 1:45:00 PM 3.84 38.912 0.209 7.64 6.74 12.24
3/18/2021 2:00:00 PM 3.84 38.912 0.205 7.64 6.76 12.3
3/18/2021 2:15:00 PM 3.85 38.93 0.205 7.64 6.37 12.34
3/18/2021 2:30:00 PM 3.86 38.948 0.203 7.64 7.21 12.38
3/18/2021 2:45:00 PM 3.86 38.948 0.203 7.65 6.94 12.4
3/18/2021 3:00:00 PM 3.85 38.93 0.202 7.65 7.54 12.45
3/18/2021 3:15:00 PM 3.86 38.948 0.202 7.66 7.69 12.48
3/18/2021 3:30:00 PM 3.85 38.93 0.203 7.65 8.28 12.53
3/18/2021 3:45:00 PM 3.85 38.93 0.203 7.66 8.6 12.57
3/18/2021 4:00:00 PM 3.85 38.93 0.2 7.65 8.58 12.6
3/18/2021 4:15:00 PM 3.83 38.894 0.195 7.65 8.99 12.62
3/18/2021 4:30:00 PM 3.79 38.822 0.187 7.64 10.88 12.66
3/18/2021 4:45:00 PM 3.77 38.786 0.179 7.63 11.81 12.67
3/18/2021 5:00:00 PM 3.7 38.66 0.17 7.62 13.83 12.69
3/18/2021 5:15:00 PM 3.66 38.588 0.163 7.6 14.36 12.7
3/18/2021 5:30:00 PM 3.59 38.462 0.154 7.59 17.83 12.71
3/18/2021 5:45:00 PM 3.53 38.354 0.147 7.57 16.85 12.71
3/18/2021 6:00:00 PM 3.46 38.228 0.141 7.55 57.2 12.71
3/18/2021 6:15:00 PM 3.36 38.048 0.135 7.54 26.43 12.72
3/18/2021 6:30:00 PM 3.3 37.94 0.133 7.52 38.54 12.73
3/18/2021 6:45:00 PM 3.22 37.796 0.13 7.5 37.35 12.75
3/18/2021 7:00:00 PM 3.13 37.634 0.122 7.49 90.18 12.78
3/18/2021 7:15:00 PM 3.04 37.472 0.12 7.46 48.52 12.85
3/18/2021 7:30:00 PM 2.97 37.346 0.116 7.44 42.88 12.87
3/18/2021 7:45:00 PM 2.86 37.148 0.111 7.43 44.3 12.93
3/18/2021 8:00:00 PM 2.8 37.04 0.109 7.42 84.48 12.94
3/18/2021 8:15:00 PM 2.76 36.968 0.111 7.4 38.18 12.94
3/18/2021 8:30:00 PM 2.73 36.914 0.115 7.4 38.57 12.95
3/18/2021 8:45:00 PM 2.69 36.842 0.118 7.4 48.23 12.96
3/18/2021 9:00:00 PM 2.65 36.77 0.119 7.4 37.54 12.96
3/18/2021 9:15:00 PM 2.61 36.698 0.119 7.4 43.66 12.96
3/18/2021 9:30:00 PM 2.58 36.644 0.12 7.4 33.46 12.95
3/18/2021 9:45:00 PM 2.55 36.59 0.121 7.39 37.25 12.96
3/18/2021 10:00:00 PM 2.51 36.518 0.121 7.38 25.88 12.96
3/18/2021 10:15:00 PM 2.49 36.482 0.121 7.37 36.75 12.96
3/18/2021 10:30:00 PM 2.45 36.41 0.121 7.36 51.94 12.96
3/18/2021 10:45:00 PM 2.42 36.356 0.12 7.36 38.72 12.95
3/18/2021 11:00:00 PM 2.38 36.284 0.12 7.36 27.4 12.95
3/18/2021 11:15:00 PM 2.35 36.23 0.12 7.36 33.13 12.96
3/18/2021 11:30:00 PM 2.3 36.14 0.119 7.36 36.81 12.96
3/18/2021 11:45:00 PM 2.27 36.086 0.12 7.36 38 12.95
3/19/2021 12:00:00 AM 2.24 36.032 0.122 7.36 29.09 12.94
3/19/2021 12:15:00 AM 2.21 35.978 0.123 7.36 30.17 12.95
3/19/2021 12:30:00 AM 2.18 35.924 0.123 7.37 43.09 12.93
3/19/2021 12:45:00 AM 2.14 35.852 0.125 7.38 25.46 12.94
3/19/2021 1:00:00 AM 2.1 35.78 0.126 7.39 20.5 12.94
3/19/2021 1:15:00 AM 2.08 35.744 0.127 7.4 27.05 12.93
3/19/2021 1:30:00 AM 2.07 35.726 0.132 7.4 24.99 12.92
3/19/2021 1:45:00 AM 2.01 35.618 0.13 7.41 20.84 12.91
3/19/2021 2:00:00 AM 1.99 35.582 0.133 7.42 22.32 12.92
3/19/2021 2:15:00 AM 1.95 35.51 0.133 7.43 23.5 12.91
3/19/2021 2:30:00 AM 1.92 35.456 0.134 7.44 20.16 12.91
3/19/2021 2:45:00 AM 1.86 35.348 0.134 7.44 21.93 12.92
3/19/2021 3:00:00 AM 1.85 35.33 0.137 7.45 17.49 12.91
3/19/2021 3:15:00 AM 1.79 35.222 0.135 7.45 18.58 12.92
3/19/2021 3:30:00 AM 1.71 35.078 0.135 7.46 18.34 12.93
3/19/2021 3:45:00 AM 1.68 35.024 0.137 7.45 18.39 12.93
3/19/2021 4:00:00 AM 1.63 34.934 0.137 7.45 18.77 12.93
3/19/2021 4:15:00 AM 1.6 34.88 0.141 7.45 18.49 12.94
3/19/2021 4:30:00 AM 1.53 34.754 0.137 7.45 18.01 12.96
3/19/2021 4:45:00 AM 1.46 34.628 0.138 7.45 17.56 12.98
3/19/2021 5:00:00 AM 1.43 34.574 0.142 7.46 15.65 12.97
3/19/2021 5:15:00 AM 1.33 34.394 0.139 7.46 17.85 13.03
3/19/2021 5:30:00 AM 1.27 34.286 0.14 7.46 16.28 13.04
3/19/2021 5:45:00 AM 1.2 34.16 0.14 7.45 15.97 13.07
3/19/2021 6:00:00 AM 1.17 34.106 0.143 7.45 14.53 13.09
3/19/2021 6:15:00 AM 1.09 33.962 0.141 7.46 15.72 13.12
3/19/2021 6:30:00 AM 1.04 33.872 0.141 7.47 15.85 13.14
3/19/2021 6:45:00 AM 0.97 33.746 0.142 7.47 15.17 13.17
3/19/2021 7:00:00 AM 0.92 33.656 0.142 7.47 15.19 13.17
3/19/2021 7:15:00 AM 0.87 33.566 0.142 7.46 14.01 13.2
3/19/2021 7:30:00 AM 0.81 33.458 0.142 7.47 13.84 13.21
3/19/2021 7:45:00 AM 0.77 33.386 0.143 7.47 13.83 13.24
3/19/2021 8:00:00 AM 0.77 33.386 0.148 7.47 13.01 13.24
3/19/2021 8:15:00 AM 0.69 33.242 0.144 7.47 12.89 13.29
3/19/2021 8:30:00 AM 0.66 33.188 0.144 7.48 15.05 13.31
3/19/2021 8:45:00 AM 0.62 33.116 0.144 7.48 13.29 13.37
3/19/2021 9:00:00 AM 0.64 33.152 0.148 7.48 13 13.38
3/19/2021 9:15:00 AM 0.67 33.206 0.152 7.49 11.88 13.39
3/19/2021 9:30:00 AM 0.63 33.134 0.149 7.5 12.53 13.46
3/19/2021 9:45:00 AM 0.64 33.152 0.148 7.5 11.52 13.49
3/19/2021 10:00:00 AM 0.67 33.206 0.149 7.51 10.53 13.55
3/19/2021 10:15:00 AM 0.71 33.278 0.148 7.52 10.6 13.59
3/19/2021 10:30:00 AM 0.82 33.476 0.15 7.52 10.68 13.61
3/19/2021 10:45:00 AM 0.9 33.62 0.151 7.53 10.59 13.65
3/19/2021 11:00:00 AM 1 33.8 0.151 7.54 11.21 13.69
3/19/2021 11:15:00 AM 1.13 34.034 0.153 7.55 11.07 13.67
3/19/2021 11:30:00 AM 1.25 34.25 0.156 7.56 10.15 13.71
3/19/2021 11:45:00 AM 1.37 34.466 0.156 7.57 10.12 13.73
3/19/2021 12:00:00 PM 1.53 34.754 0.158 7.57 9.33 13.73
3/19/2021 12:15:00 PM 1.68 35.024 0.16 7.58 9.73 13.73
3/19/2021 12:30:00 PM 1.84 35.312 0.161 7.6 9.42 13.74
3/19/2021 12:45:00 PM 2.05 35.69 0.164 7.6 9.04 13.69
3/19/2021 1:00:00 PM 2.26 36.068 0.168 7.62 8.72 13.69
3/19/2021 1:15:00 PM 2.43 36.374 0.171 7.63 8.1 13.68
3/19/2021 1:30:00 PM 2.64 36.752 0.175 7.64 11.08 13.65
3/19/2021 1:45:00 PM 2.8 37.04 0.177 7.66 8.11 13.63
3/19/2021 2:00:00 PM 3 37.4 0.18 7.67 8.46 13.62
3/19/2021 2:15:00 PM 3.18 37.724 0.181 7.68 7.37 13.57
3/19/2021 2:30:00 PM 3.36 38.048 0.182 7.68 7.78 13.55
3/19/2021 2:45:00 PM 3.51 38.318 0.182 7.69 7.67 13.52
3/19/2021 3:00:00 PM 3.64 38.552 0.178 7.69 9.3 13.5
3/19/2021 3:15:00 PM 3.79 38.822 0.178 7.69 7.76 13.47
3/19/2021 3:30:00 PM 3.88 38.984 0.175 7.69 7.87 13.46
3/19/2021 3:45:00 PM 3.97 39.146 0.173 7.68 8.78 13.43
3/19/2021 4:00:00 PM 4.08 39.344 0.172 7.68 7.9 13.39
3/19/2021 4:15:00 PM 4.18 39.524 0.173 7.69 7.65 13.34
3/19/2021 4:30:00 PM 4.24 39.632 0.171 7.68 7.94 13.31
3/19/2021 4:45:00 PM 4.3 39.74 0.171 7.68 7.23 13.27
3/19/2021 5:00:00 PM 4.35 39.83 0.171 7.68 7.95 13.22
3/19/2021 5:15:00 PM 4.4 39.92 0.172 7.68 8.19 13.17
3/19/2021 5:30:00 PM 4.4 39.92 0.172 7.68 7.63 13.14
3/19/2021 5:45:00 PM 4.4 39.92 0.171 7.68 8.49 13.09
3/19/2021 6:00:00 PM 4.39 39.902 0.171 7.68 7.97 13.05
3/19/2021 6:15:00 PM 4.36 39.848 0.169 7.68 7.82 13.01
3/19/2021 6:30:00 PM 4.33 39.794 0.169 7.67 7.35 12.96
3/19/2021 6:45:00 PM 4.29 39.722 0.169 7.66 7.5 12.9
3/19/2021 7:00:00 PM 4.22 39.596 0.167 7.66 7.57 12.87
3/19/2021 7:15:00 PM 4.17 39.506 0.169 7.65 7.51 12.83
3/19/2021 7:30:00 PM 4.08 39.344 0.166 7.65 7.67 12.78
3/19/2021 7:45:00 PM 4.01 39.218 0.165 7.63 7.27 12.74
3/19/2021 8:00:00 PM 3.93 39.074 0.163 7.62 8.39 12.71
3/19/2021 8:15:00 PM 3.85 38.93 0.162 7.61 7.51 12.68
3/19/2021 8:30:00 PM 3.78 38.804 0.161 7.6 7.2 12.64
3/19/2021 8:45:00 PM 3.68 38.624 0.161 7.6 6.79 12.61
3/19/2021 9:00:00 PM 3.59 38.462 0.161 7.59 7.27 12.6
3/19/2021 9:15:00 PM 3.51 38.318 0.161 7.59 7.98 12.58
3/19/2021 9:30:00 PM 3.43 38.174 0.162 7.58 7.53 12.56
3/19/2021 9:45:00 PM 3.35 38.03 0.162 7.58 7.58 12.54
3/19/2021 10:00:00 PM 3.28 37.904 0.165 7.57 7.7 12.54
3/19/2021 10:15:00 PM 3.18 37.724 0.164 7.58 7.12 12.56
3/19/2021 10:30:00 PM 3.1 37.58 0.165 7.58 7.51 12.55
3/19/2021 10:45:00 PM 3 37.4 0.164 7.58 7.15 12.57
3/19/2021 11:00:00 PM 2.92 37.256 0.165 7.58 7.07 12.57
3/19/2021 11:15:00 PM 2.81 37.058 0.166 7.58 7.17 12.61
3/19/2021 11:30:00 PM 2.73 36.914 0.167 7.57 7.08 12.62
3/19/2021 11:45:00 PM 2.62 36.716 0.167 7.57 7.15 12.64
3/20/2021 12:00:00 AM 2.52 36.536 0.166 7.57 7.11 12.67
3/20/2021 12:15:00 AM 2.44 36.392 0.169 7.57 7.02 12.67
3/20/2021 12:30:00 AM 2.33 36.194 0.167 7.57 7.39 12.71
3/20/2021 12:45:00 AM 2.24 36.032 0.168 7.57 7.01 12.74
3/20/2021 1:00:00 AM 2.15 35.87 0.168 7.57 7.28 12.77
3/20/2021 1:15:00 AM 2.06 35.708 0.168 7.57 7.1 12.8
3/20/2021 1:30:00 AM 1.98 35.564 0.169 7.57 6.63 12.81
3/20/2021 1:45:00 AM 1.9 35.42 0.17 7.57 6.91 12.84
3/20/2021 2:00:00 AM 1.83 35.294 0.171 7.57 7.97 12.86
3/20/2021 2:15:00 AM 1.75 35.15 0.172 7.58 7.22 12.88
3/20/2021 2:30:00 AM 1.67 35.006 0.172 7.58 6.82 12.9
3/20/2021 2:45:00 AM 1.61 34.898 0.174 7.58 6.86 12.93
3/20/2021 3:00:00 AM 1.54 34.772 0.172 7.58 6.39 12.95
3/20/2021 3:15:00 AM 1.5 34.7 0.175 7.58 8.57 12.97
3/20/2021 3:30:00 AM 1.42 34.556 0.175 7.58 7.06 12.99
3/20/2021 3:45:00 AM 1.36 34.448 0.174 7.59 6.25 13
3/20/2021 4:00:00 AM 1.32 34.376 0.176 7.59 6.55 13.01
3/20/2021 4:15:00 AM 1.26 34.268 0.176 7.59 7.63 13.04
3/20/2021 4:30:00 AM 1.2 34.16 0.177 7.59 7.13 13.06
3/20/2021 4:45:00 AM 1.15 34.07 0.178 7.59 8.41 13.08
3/20/2021 5:00:00 AM 1.1 33.98 0.178 7.6 6.39 13.11
3/20/2021 5:15:00 AM 1.05 33.89 0.179 7.6 6.92 13.12
3/20/2021 5:30:00 AM 1.01 33.818 0.18 7.6 6.64 13.13
3/20/2021 5:45:00 AM 0.97 33.746 0.18 7.6 6.62 13.14
3/20/2021 6:00:00 AM 0.93 33.674 0.18 7.6 6.39 13.16
3/20/2021 6:15:00 AM 0.9 33.62 0.182 7.6 7.37 13.15
3/20/2021 6:30:00 AM 0.86 33.548 0.181 7.6 6.25 13.18
3/20/2021 6:45:00 AM 0.83 33.494 0.182 7.6 6.08 13.19
3/20/2021 7:00:00 AM 0.81 33.458 0.183 7.59 6.48 13.19
3/20/2021 7:15:00 AM 0.78 33.404 0.184 7.6 6.5 13.19
3/20/2021 7:30:00 AM 0.75 33.35 0.185 7.6 6.66 13.22
3/20/2021 7:45:00 AM 0.73 33.314 0.185 7.6 6.56 13.23
3/20/2021 8:00:00 AM 0.71 33.278 0.185 7.6 6.41 13.26
3/20/2021 8:15:00 AM 0.7 33.26 0.187 7.6 6.37 13.28
3/20/2021 8:30:00 AM 0.7 33.26 0.186 7.61 6.56 13.3
3/20/2021 8:45:00 AM 0.71 33.278 0.187 7.61 6.29 13.36
3/20/2021 9:00:00 AM 0.74 33.332 0.187 7.61 6.66 13.38
3/20/2021 9:15:00 AM 0.78 33.404 0.189 7.62 6.5 13.4
3/20/2021 9:30:00 AM 0.83 33.494 0.19 7.63 6.74 13.45
3/20/2021 9:45:00 AM 0.9 33.62 0.19 7.63 6.62 13.49
3/20/2021 10:00:00 AM 0.99 33.782 0.191 7.64 6.87 13.52
3/20/2021 10:15:00 AM 1.09 33.962 0.191 7.64 6.41 13.56
3/20/2021 10:30:00 AM 1.22 34.196 0.191 7.65 5.99 13.59
3/20/2021 10:45:00 AM 1.37 34.466 0.192 7.65 6.1 13.6
3/20/2021 11:00:00 AM 1.53 34.754 0.193 7.66 5.67 13.63
3/20/2021 11:15:00 AM 1.73 35.114 0.193 7.66 5.24 13.64
3/20/2021 11:30:00 AM 1.93 35.474 0.195 7.67 6.18 13.64
3/20/2021 11:45:00 AM 2.13 35.834 0.196 7.67 5.72 13.64
3/20/2021 12:00:00 PM 2.36 36.248 0.198 7.68 5.17 13.63
3/20/2021 12:15:00 PM 2.59 36.662 0.199 7.69 5.08 13.61
3/20/2021 12:30:00 PM 2.83 37.094 0.201 7.7 5.4 13.6
3/20/2021 12:45:00 PM 3.06 37.508 0.202 7.7 5.36 13.58
3/20/2021 1:00:00 PM 3.3 37.94 0.203 7.71 5.17 13.57
3/20/2021 1:15:00 PM 3.54 38.372 0.204 7.72 5.31 13.57
3/20/2021 1:30:00 PM 3.78 38.804 0.204 7.73 5.15 13.53
3/20/2021 1:45:00 PM 4.03 39.254 0.205 7.73 4.98 13.5
3/20/2021 2:00:00 PM 4.25 39.65 0.203 7.73 4.93 13.47
3/20/2021 2:15:00 PM 4.48 40.064 0.202 7.74 4.98 13.44
3/20/2021 2:30:00 PM 4.68 40.424 0.2 7.74 5.24 13.4
3/20/2021 2:45:00 PM 4.87 40.766 0.198 7.73 4.74 13.35
3/20/2021 3:00:00 PM 5.05 41.09 0.195 7.73 5.06 13.32
3/20/2021 3:15:00 PM 5.19 41.342 0.192 7.73 5.11 13.27
3/20/2021 3:30:00 PM 5.35 41.63 0.19 7.72 6.38 13.23
3/20/2021 3:45:00 PM 5.49 41.882 0.188 7.72 5.08 13.18
3/20/2021 4:00:00 PM 5.6 42.08 0.182 7.72 5.51 13.17
3/20/2021 4:15:00 PM 5.72 42.296 0.184 7.72 5.23 13.12
3/20/2021 4:30:00 PM 5.82 42.476 0.182 7.71 5.61 13.07
3/20/2021 4:45:00 PM 5.91 42.638 0.181 7.71 5.19 13.01
3/20/2021 5:00:00 PM 5.98 42.764 0.18 7.71 5.31 12.96
3/20/2021 5:15:00 PM 6.04 42.872 0.181 7.7 4.8 12.9
3/20/2021 5:30:00 PM 6.08 42.944 0.179 7.7 4.87 12.84
3/20/2021 5:45:00 PM 6.1 42.98 0.177 7.69 4.96 12.79
3/20/2021 6:00:00 PM 6.12 43.016 0.177 7.69 4.96 12.73
3/20/2021 6:15:00 PM 6.12 43.016 0.176 7.69 5.2 12.66
3/20/2021 6:30:00 PM 6.11 42.998 0.177 7.68 4.85 12.6
3/20/2021 6:45:00 PM 6.09 42.962 0.176 7.67 5.35 12.51
3/20/2021 7:00:00 PM 6.07 42.926 0.177 7.67 5.13 12.44
3/20/2021 7:15:00 PM 6.04 42.872 0.178 7.66 4.86 12.38
3/20/2021 7:30:00 PM 5.99 42.782 0.177 7.65 5.02 12.3
3/20/2021 7:45:00 PM 5.93 42.674 0.179 7.64 5.24 12.23
3/20/2021 8:00:00 PM 5.86 42.548 0.178 7.64 4.92 12.17
3/20/2021 8:15:00 PM 5.8 42.44 0.179 7.63 5.82 12.11
3/20/2021 8:30:00 PM 5.73 42.314 0.178 7.62 5.74 12.05
3/20/2021 8:45:00 PM 5.67 42.206 0.18 7.61 5.25 12.01
3/20/2021 9:00:00 PM 5.59 42.062 0.179 7.61 5.59 11.97
3/20/2021 9:15:00 PM 5.51 41.918 0.178 7.6 5.8 11.93
3/20/2021 9:30:00 PM 5.42 41.756 0.177 7.6 6.08 11.9
3/20/2021 9:45:00 PM 5.33 41.594 0.178 7.59 5.6 11.88
3/20/2021 10:00:00 PM 5.25 41.45 0.178 7.59 5.48 11.86
3/20/2021 10:15:00 PM 5.16 41.288 0.177 7.58 5.57 11.85
3/20/2021 10:30:00 PM 5.08 41.144 0.177 7.58 5.81 11.84
3/20/2021 10:45:00 PM 4.98 40.964 0.176 7.57 5.46 11.86
3/20/2021 11:00:00 PM 4.89 40.802 0.176 7.57 5.66 11.86
3/20/2021 11:15:00 PM 4.78 40.604 0.176 7.57 5.98 11.87
3/20/2021 11:30:00 PM 4.67 40.406 0.174 7.56 5.56 11.89
3/20/2021 11:45:00 PM 4.56 40.208 0.174 7.56 5.9 11.92
3/21/2021 12:00:00 AM 4.45 40.01 0.174 7.56 5.86 11.94
3/21/2021 12:15:00 AM 4.33 39.794 0.173 7.56 5.87 11.97
3/21/2021 12:30:00 AM 4.23 39.614 0.174 7.56 5.76 11.99
3/21/2021 12:45:00 AM 4.1 39.38 0.174 7.56 6.03 12.04
3/21/2021 1:00:00 AM 3.99 39.182 0.175 7.56 6.08 12.07
3/21/2021 1:15:00 AM 3.87 38.966 0.175 7.56 6.18 12.09
3/21/2021 1:30:00 AM 3.76 38.768 0.175 7.56 5.96 12.13
3/21/2021 1:45:00 AM 3.65 38.57 0.175 7.56 5.96 12.16
3/21/2021 2:00:00 AM 3.55 38.39 0.175 7.56 5.74 12.19
3/21/2021 2:15:00 AM 3.44 38.192 0.175 7.56 5.97 12.21
3/21/2021 2:30:00 AM 3.34 38.012 0.175 7.56 6.9 12.24
3/21/2021 2:45:00 AM 3.25 37.85 0.175 7.56 6.25 12.28
3/21/2021 3:00:00 AM 3.15 37.67 0.175 7.56 5.72 12.3
3/21/2021 3:15:00 AM 3.07 37.526 0.176 7.56 5.86 12.32
3/21/2021 3:30:00 AM 2.99 37.382 0.177 7.56 6.01 12.34
3/21/2021 3:45:00 AM 2.9 37.22 0.175 7.56 5.9 12.38
3/21/2021 4:00:00 AM 2.83 37.094 0.176 7.56 5.83 12.4
3/21/2021 4:15:00 AM 2.75 36.95 0.177 7.56 5.77 12.42
3/21/2021 4:30:00 AM 2.69 36.842 0.177 7.57 5.96 12.43
3/21/2021 4:45:00 AM 2.62 36.716 0.178 7.57 5.8 12.46
3/21/2021 5:00:00 AM 2.56 36.608 0.178 7.57 5.72 12.49
3/21/2021 5:15:00 AM 2.5 36.5 0.178 7.57 5.65 12.5
3/21/2021 5:30:00 AM 2.44 36.392 0.178 7.57 5.6 12.52
3/21/2021 5:45:00 AM 2.39 36.302 0.179 7.57 6.02 12.53
3/21/2021 6:00:00 AM 2.34 36.212 0.18 7.57 5.83 12.56
3/21/2021 6:15:00 AM 2.28 36.104 0.18 7.57 6.12 12.57
3/21/2021 6:30:00 AM 2.23 36.014 0.181 7.58 6.26 12.58
3/21/2021 6:45:00 AM 2.18 35.924 0.181 7.57 6.36 12.6
3/21/2021 7:00:00 AM 2.13 35.834 0.182 7.58 6.59 12.63
3/21/2021 7:15:00 AM 2.09 35.762 0.182 7.58 6.2 12.64
3/21/2021 7:30:00 AM 2.03 35.654 0.182 7.58 6.02 12.67
3/21/2021 7:45:00 AM 2 35.6 0.182 7.58 5.97 12.7
3/21/2021 8:00:00 AM 1.96 35.528 0.182 7.59 6.37 12.72
3/21/2021 8:15:00 AM 1.94 35.492 0.182 7.59 6.51 12.76
3/21/2021 8:30:00 AM 1.92 35.456 0.182 7.59 6.12 12.81
3/21/2021 8:45:00 AM 1.92 35.456 0.183 7.6 6.04 12.87
3/21/2021 9:00:00 AM 1.94 35.492 0.184 7.6 5.91 12.91
3/21/2021 9:15:00 AM 1.97 35.546 0.184 7.61 5.96 12.95
3/21/2021 9:30:00 AM 2 35.6 0.184 7.62 5.89 13.02
3/21/2021 9:45:00 AM 2.05 35.69 0.185 7.62 5.55 13.08
3/21/2021 10:00:00 AM 2.12 35.816 0.185 7.63 6.17 13.13
3/21/2021 10:15:00 AM 2.21 35.978 0.186 7.64 5.37 13.19
3/21/2021 10:30:00 AM 2.32 36.176 0.186 7.64 5.26 13.25
3/21/2021 10:45:00 AM 2.45 36.41 0.186 7.65 5.22 13.29
3/21/2021 11:00:00 AM 2.62 36.716 0.186 7.66 5.24 13.33
3/21/2021 11:15:00 AM 2.8 37.04 0.186 7.67 5.29 13.36
3/21/2021 11:30:00 AM 3 37.4 0.186 7.67 5.18 13.36
3/21/2021 11:45:00 AM 3.2 37.76 0.186 7.68 4.95 13.37
3/21/2021 12:00:00 PM 3.41 38.138 0.187 7.68 5.35 13.38
3/21/2021 12:15:00 PM 3.63 38.534 0.187 7.69 5.02 13.38
3/21/2021 12:30:00 PM 3.85 38.93 0.187 7.69 4.86 13.38
3/21/2021 12:45:00 PM 4.08 39.344 0.187 7.7 4.82 13.38
3/21/2021 1:00:00 PM 4.32 39.776 0.188 7.7 5.43 13.36
3/21/2021 1:15:00 PM 4.55 40.19 0.188 7.7 6.04 13.35
3/21/2021 1:30:00 PM 4.78 40.604 0.187 7.71 4.8 13.32
3/21/2021 1:45:00 PM 5.02 41.036 0.188 7.71 4.84 13.29
3/21/2021 2:00:00 PM 5.24 41.432 0.188 7.72 4.78 13.27
3/21/2021 2:15:00 PM 5.47 41.846 0.188 7.72 4.48 13.22
3/21/2021 2:30:00 PM 5.68 42.224 0.188 7.72 4.73 13.17
3/21/2021 2:45:00 PM 5.89 42.602 0.189 7.72 4.6 13.14
3/21/2021 3:00:00 PM 6.08 42.944 0.188 7.72 4.64 13.09
3/21/2021 3:15:00 PM 6.27 43.286 0.188 7.73 4.69 13.04
3/21/2021 3:30:00 PM 6.45 43.61 0.19 7.73 4.46 13
3/21/2021 3:45:00 PM 6.61 43.898 0.189 7.74 4.13 12.95
3/21/2021 4:00:00 PM 6.76 44.168 0.188 7.74 4.12 12.89
3/21/2021 4:15:00 PM 6.91 44.438 0.19 7.74 4.26 12.84
3/21/2021 4:30:00 PM 7.04 44.672 0.19 7.74 4.28 12.79
3/21/2021 4:45:00 PM 7.15 44.87 0.19 7.74 4.45 12.72
3/21/2021 5:00:00 PM 7.27 45.086 0.191 7.74 4.31 12.64
3/21/2021 5:15:00 PM 7.36 45.248 0.191 7.74 4.28 12.57
3/21/2021 5:30:00 PM 7.43 45.374 0.191 7.75 4.27 12.51
3/21/2021 5:45:00 PM 7.5 45.5 0.191 7.74 4.5 12.43
3/21/2021 6:00:00 PM 7.54 45.572 0.191 7.74 4.54 12.35
3/21/2021 6:15:00 PM 7.57 45.626 0.191 7.73 4.61 12.28
3/21/2021 6:30:00 PM 7.59 45.662 0.191 7.73 5.2 12.2
3/21/2021 6:45:00 PM 7.58 45.644 0.191 7.72 4.66 12.11
3/21/2021 7:00:00 PM 7.56 45.608 0.191 7.71 5.99 12.01
3/21/2021 7:15:00 PM 7.53 45.554 0.191 7.7 4.74 11.93
3/21/2021 7:30:00 PM 7.49 45.482 0.19 7.69 4.8 11.85
3/21/2021 7:45:00 PM 7.44 45.392 0.19 7.68 5.37 11.76
3/21/2021 8:00:00 PM 7.38 45.284 0.19 7.67 5.44 11.69
3/21/2021 8:15:00 PM 7.32 45.176 0.19 7.66 5.46 11.61
3/21/2021 8:30:00 PM 7.25 45.05 0.189 7.65 5.2 11.55
3/21/2021 8:45:00 PM 7.18 44.924 0.189 7.64 5.88 11.49
3/21/2021 9:00:00 PM 7.1 44.78 0.188 7.63 5.14 11.43
3/21/2021 9:15:00 PM 7 44.6 0.188 7.62 5.24 11.4
3/21/2021 9:30:00 PM 6.9 44.42 0.187 7.61 5.29 11.38
3/21/2021 9:45:00 PM 6.8 44.24 0.185 7.6 5.72 11.35
3/21/2021 10:00:00 PM 6.69 44.042 0.184 7.59 5.69 11.34
3/21/2021 10:15:00 PM 6.59 43.862 0.183 7.59 5.36 11.33
3/21/2021 10:30:00 PM 6.48 43.664 0.182 7.58 5.53 11.32
3/21/2021 10:45:00 PM 6.37 43.466 0.182 7.57 5.57 11.32
3/21/2021 11:00:00 PM 6.26 43.268 0.181 7.57 6.23 11.34
3/21/2021 11:15:00 PM 6.14 43.052 0.18 7.57 5.33 11.36
3/21/2021 11:30:00 PM 6.01 42.818 0.18 7.56 5.72 11.38
3/21/2021 11:45:00 PM 5.88 42.584 0.179 7.56 5.75 11.42
3/22/2021 12:00:00 AM 5.74 42.332 0.178 7.56 5.7 11.46
3/22/2021 12:15:00 AM 5.6 42.08 0.177 7.56 5.61 11.48
3/22/2021 12:30:00 AM 5.47 41.846 0.177 7.56 5.65 11.52
3/22/2021 12:45:00 AM 5.32 41.576 0.176 7.56 5.57 11.55
3/22/2021 1:00:00 AM 5.18 41.324 0.175 7.56 5.73 11.6
3/22/2021 1:15:00 AM 5.04 41.072 0.174 7.55 5.84 11.63
3/22/2021 1:30:00 AM 4.91 40.838 0.174 7.55 6.18 11.66
3/22/2021 1:45:00 AM 4.78 40.604 0.173 7.55 6.39 11.71
3/22/2021 2:00:00 AM 4.65 40.37 0.173 7.55 6.39 11.74
3/22/2021 2:15:00 AM 4.53 40.154 0.174 7.55 5.57 11.77
3/22/2021 2:30:00 AM 4.41 39.938 0.173 7.55 6.03 11.82
3/22/2021 2:45:00 AM 4.3 39.74 0.173 7.55 5.97 11.84
3/22/2021 3:00:00 AM 4.2 39.56 0.174 7.55 5.92 11.86
3/22/2021 3:15:00 AM 4.09 39.362 0.174 7.55 6.16 11.9
3/22/2021 3:30:00 AM 3.99 39.182 0.172 7.55 6.76 11.94
3/22/2021 3:45:00 AM 3.9 39.02 0.173 7.55 5.71 11.95
3/22/2021 4:00:00 AM 3.82 38.876 0.172 7.55 6.69 11.97
3/22/2021 4:15:00 AM 3.73 38.714 0.173 7.55 6.13 12.01
3/22/2021 4:30:00 AM 3.66 38.588 0.173 7.55 6.04 12.02
3/22/2021 4:45:00 AM 3.58 38.444 0.173 7.55 5.69 12.05
3/22/2021 5:00:00 AM 3.52 38.336 0.174 7.55 5.91 12.06
3/22/2021 5:15:00 AM 3.45 38.21 0.174 7.55 5.87 12.09
3/22/2021 5:30:00 AM 3.38 38.084 0.174 7.55 5.83 12.11
3/22/2021 5:45:00 AM 3.32 37.976 0.174 7.56 5.65 12.12
3/22/2021 6:00:00 AM 3.26 37.868 0.175 7.55 6.44 12.15
3/22/2021 6:15:00 AM 3.21 37.778 0.175 7.55 6.3 12.15
3/22/2021 6:30:00 AM 3.13 37.634 0.175 7.55 5.91 12.19
3/22/2021 6:45:00 AM 3.08 37.544 0.175 7.55 6.43 12.19
3/22/2021 7:00:00 AM 3.02 37.436 0.174 7.55 6.43 12.21
3/22/2021 7:15:00 AM 2.96 37.328 0.175 7.55 6.97 12.24
3/22/2021 7:30:00 AM 2.91 37.238 0.176 7.56 7.58 12.26
3/22/2021 7:45:00 AM 2.85 37.13 0.175 7.56 6.84 12.3
3/22/2021 8:00:00 AM 2.8 37.04 0.175 7.56 6.55 12.35
3/22/2021 8:15:00 AM 2.78 37.004 0.176 7.56 8.22 12.38
3/22/2021 8:30:00 AM 2.77 36.986 0.177 7.57 7.01 12.43
3/22/2021 8:45:00 AM 2.75 36.95 0.176 7.58 7.49 12.5
3/22/2021 9:00:00 AM 2.76 36.968 0.176 7.58 7.02 12.54
3/22/2021 9:15:00 AM 2.77 36.986 0.176 7.59 6.91 12.64
3/22/2021 9:30:00 AM 2.8 37.04 0.176 7.6 6.01 12.7
3/22/2021 9:45:00 AM 2.85 37.13 0.176 7.61 5.86 12.77
3/22/2021 10:00:00 AM 2.92 37.256 0.178 7.61 5.83 12.82
3/22/2021 10:15:00 AM 3 37.4 0.177 7.62 6.04 12.88
3/22/2021 10:30:00 AM 3.11 37.598 0.178 7.63 6.11 12.94
3/22/2021 10:45:00 AM 3.24 37.832 0.178 7.64 5.57 13
3/22/2021 11:00:00 AM 3.41 38.138 0.179 7.65 5.36 13.03
3/22/2021 11:15:00 AM 3.59 38.462 0.179 7.66 5.58 13.08
3/22/2021 11:30:00 AM 3.79 38.822 0.179 7.67 5.48 13.1
3/22/2021 11:45:00 AM 3.99 39.182 0.18 7.68 5.32 13.12
3/22/2021 12:00:00 PM 4.2 39.56 0.18 7.68 5.2 13.15
3/22/2021 12:15:00 PM 4.41 39.938 0.18 7.69 5.5 13.15
3/22/2021 12:30:00 PM 4.63 40.334 0.18 7.7 5.03 13.17
3/22/2021 12:45:00 PM 4.86 40.748 0.181 7.7 5.31 13.15
3/22/2021 1:00:00 PM 5.09 41.162 0.181 7.71 5.11 13.15
3/22/2021 1:15:00 PM 5.32 41.576 0.181 7.71 4.66 13.14
3/22/2021 1:30:00 PM 5.55 41.99 0.182 7.72 4.71 13.12
3/22/2021 1:45:00 PM 5.79 42.422 0.182 7.72 4.65 13.1
3/22/2021 2:00:00 PM 6.01 42.818 0.183 7.73 5.04 13.07
3/22/2021 2:15:00 PM 6.23 43.214 0.183 7.73 4.64 13.02
3/22/2021 2:30:00 PM 6.44 43.592 0.182 7.74 4.74 12.98
3/22/2021 2:45:00 PM 6.65 43.97 0.182 7.74 4.66 12.97
3/22/2021 3:00:00 PM 6.85 44.33 0.183 7.75 4.39 12.88
3/22/2021 3:15:00 PM 7.04 44.672 0.184 7.75 4.54 12.86
3/22/2021 3:30:00 PM 7.22 44.996 0.184 7.75 4.5 12.82
3/22/2021 3:45:00 PM 7.38 45.284 0.184 7.76 4.67 12.78
3/22/2021 4:00:00 PM 7.53 45.554 0.185 7.76 4.27 12.72
3/22/2021 4:15:00 PM 7.67 45.806 0.186 7.77 4.38 12.67
3/22/2021 4:30:00 PM 7.8 46.04 0.185 7.77 4.31 12.6
3/22/2021 4:45:00 PM 7.91 46.238 0.186 7.77 4.53 12.54
3/22/2021 5:00:00 PM 8.03 46.454 0.187 7.77 4.06 12.48
3/22/2021 5:15:00 PM 8.11 46.598 0.187 7.78 4.81 12.42
3/22/2021 5:30:00 PM 8.19 46.742 0.188 7.77 4.36 12.34
3/22/2021 5:45:00 PM 8.25 46.85 0.188 7.77 4.12 12.26
3/22/2021 6:00:00 PM 8.29 46.922 0.188 7.77 4.17 12.18
3/22/2021 6:15:00 PM 8.32 46.976 0.188 7.76 4.83 12.1
3/22/2021 6:30:00 PM 8.33 46.994 0.188 7.75 4.63 12.01
3/22/2021 6:45:00 PM 8.33 46.994 0.188 7.75 4.47 11.92
3/22/2021 7:00:00 PM 8.31 46.958 0.188 7.73 4.7 11.82
3/22/2021 7:15:00 PM 8.28 46.904 0.187 7.72 4.43 11.73
3/22/2021 7:30:00 PM 8.24 46.832 0.187 7.71 4.5 11.64
3/22/2021 7:45:00 PM 8.2 46.76 0.187 7.7 4.83 11.56
3/22/2021 8:00:00 PM 8.14 46.652 0.187 7.69 4.52 11.47
3/22/2021 8:15:00 PM 8.07 46.526 0.187 7.67 4.68 11.39
3/22/2021 8:30:00 PM 8 46.4 0.187 7.66 4.69 11.32
3/22/2021 8:45:00 PM 7.93 46.274 0.186 7.65 4.65 11.27
3/22/2021 9:00:00 PM 7.85 46.13 0.187 7.64 4.78 11.22
3/22/2021 9:15:00 PM 7.76 45.968 0.185 7.63 5.02 11.17
3/22/2021 9:30:00 PM 7.66 45.788 0.184 7.62 4.98 11.12
3/22/2021 9:45:00 PM 7.56 45.608 0.184 7.61 4.87 11.1
3/22/2021 10:00:00 PM 7.46 45.428 0.184 7.6 4.83 11.07
3/22/2021 10:15:00 PM 7.34 45.212 0.182 7.59 5.03 11.06
3/22/2021 10:30:00 PM 7.23 45.014 0.18 7.59 5.44 11.07
3/22/2021 10:45:00 PM 7.12 44.816 0.179 7.58 5.41 11.06
3/22/2021 11:00:00 PM 7 44.6 0.178 7.58 5.02 11.08
3/22/2021 11:15:00 PM 6.88 44.384 0.177 7.57 5.36 11.08
3/22/2021 11:30:00 PM 6.75 44.15 0.176 7.57 13.38 11.11
3/22/2021 11:45:00 PM 6.62 43.916 0.176 7.56 6.27 11.12
3/23/2021 12:00:00 AM 6.48 43.664 0.175 7.56 5.8 11.15
3/23/2021 12:15:00 AM 6.33 43.394 0.174 7.55 5.48 11.2
3/23/2021 12:30:00 AM 6.19 43.142 0.174 7.55 5.46 11.22
3/23/2021 12:45:00 AM 6.05 42.89 0.173 7.55 5.36 11.26
3/23/2021 1:00:00 AM 5.91 42.638 0.172 7.55 5.8 11.31
3/23/2021 1:15:00 AM 5.78 42.404 0.172 7.55 5.73 11.34
3/23/2021 1:30:00 AM 5.65 42.17 0.172 7.55 5.88 11.37
3/23/2021 1:45:00 AM 5.52 41.936 0.172 7.54 5.6 11.41
3/23/2021 2:00:00 AM 5.4 41.72 0.171 7.55 5.88 11.44
3/23/2021 2:15:00 AM 5.28 41.504 0.172 7.54 5.84 11.47
3/23/2021 2:30:00 AM 5.16 41.288 0.171 7.55 6.02 11.5
3/23/2021 2:45:00 AM 5.05 41.09 0.171 7.55 6.52 11.54
3/23/2021 3:00:00 AM 4.94 40.892 0.171 7.54 5.98 11.56
3/23/2021 3:15:00 AM 4.84 40.712 0.171 7.54 6.06 11.59
3/23/2021 3:30:00 AM 4.74 40.532 0.171 7.55 6.43 11.63
3/23/2021 3:45:00 AM 4.65 40.37 0.171 7.55 6.14 11.65
3/23/2021 4:00:00 AM 4.57 40.226 0.172 7.55 6.25 11.66
3/23/2021 4:15:00 AM 4.49 40.082 0.171 7.55 6.88 11.69
3/23/2021 4:30:00 AM 4.41 39.938 0.171 7.55 7.02 11.71
3/23/2021 4:45:00 AM 4.34 39.812 0.172 7.54 7.01 11.73
3/23/2021 5:00:00 AM 4.28 39.704 0.172 7.55 6.09 11.74
3/23/2021 5:15:00 AM 4.2 39.56 0.172 7.55 5.79 11.77
3/23/2021 5:30:00 AM 4.13 39.434 0.171 7.55 5.87 11.8
3/23/2021 5:45:00 AM 4.07 39.326 0.171 7.55 5.98 11.81
3/23/2021 6:00:00 AM 4 39.2 0.172 7.55 5.8 11.83
3/23/2021 6:15:00 AM 3.94 39.092 0.171 7.55 6.5 11.85
3/23/2021 6:30:00 AM 3.88 38.984 0.171 7.55 6.24 11.87
3/23/2021 6:45:00 AM 3.81 38.858 0.171 7.55 6.47 11.88
3/23/2021 7:00:00 AM 3.74 38.732 0.171 7.55 6.88 11.9
3/23/2021 7:15:00 AM 3.68 38.624 0.172 7.55 6.73 11.92
3/23/2021 7:30:00 AM 3.63 38.534 0.171 7.55 6.47 11.96
3/23/2021 7:45:00 AM 3.58 38.444 0.173 7.55 6.45 11.98
3/23/2021 8:00:00 AM 3.54 38.372 0.173 7.56 6.33 12.02
3/23/2021 8:15:00 AM 3.5 38.3 0.173 7.56 6.39 12.07
3/23/2021 8:30:00 AM 3.47 38.246 0.173 7.57 5.88 12.14
3/23/2021 8:45:00 AM 3.47 38.246 0.174 7.57 5.72 12.21
3/23/2021 9:00:00 AM 3.47 38.246 0.174 7.58 6.21 12.27
3/23/2021 9:15:00 AM 3.49 38.282 0.174 7.59 5.69 12.33
3/23/2021 9:30:00 AM 3.52 38.336 0.174 7.6 5.35 12.41
3/23/2021 9:45:00 AM 3.58 38.444 0.175 7.61 5.42 12.48
3/23/2021 10:00:00 AM 3.65 38.57 0.175 7.62 5.56 12.56
3/23/2021 10:15:00 AM 3.75 38.75 0.176 7.63 5.31 12.62
3/23/2021 10:30:00 AM 3.86 38.948 0.177 7.64 5.06 12.69
3/23/2021 10:45:00 AM 3.99 39.182 0.177 7.65 5.27 12.76
3/23/2021 11:00:00 AM 4.16 39.488 0.178 7.67 5.35 12.82
3/23/2021 11:15:00 AM 4.34 39.812 0.178 7.68 5.43 12.86
3/23/2021 11:30:00 AM 4.53 40.154 0.179 7.69 4.82 12.9
3/23/2021 11:45:00 AM 4.73 40.514 0.179 7.7 4.78 12.93
3/23/2021 12:00:00 PM 4.94 40.892 0.18 7.71 4.92 12.95
3/23/2021 12:15:00 PM 5.15 41.27 0.18 7.72 4.77 12.97
3/23/2021 12:30:00 PM 5.37 41.666 0.179 7.72 5.01 12.96
3/23/2021 12:45:00 PM 5.59 42.062 0.181 7.73 4.7 12.97
3/23/2021 1:00:00 PM 5.81 42.458 0.18 7.74 5.32 12.99
3/23/2021 1:15:00 PM 6.04 42.872 0.181 7.74 4.4 12.97
3/23/2021 1:30:00 PM 6.26 43.268 0.181 7.76 4.61 12.98
3/23/2021 1:45:00 PM 6.47 43.646 0.182 7.76 4.5 12.97
3/23/2021 2:00:00 PM 6.67 44.006 0.182 7.77 4.52 12.95
3/23/2021 2:15:00 PM 6.88 44.384 0.183 7.78 4.36 12.92
3/23/2021 2:30:00 PM 7.07 44.726 0.183 7.78 4.26 12.9
3/23/2021 2:45:00 PM 7.25 45.05 0.183 7.79 4.73 12.87
3/23/2021 3:00:00 PM 7.4 45.32 0.183 7.8 4.25 12.84
3/23/2021 3:15:00 PM 7.56 45.608 0.183 7.8 4.37 12.8
3/23/2021 3:30:00 PM 7.7 45.86 0.184 7.81 4.45 12.76
3/23/2021 3:45:00 PM 7.84 46.112 0.184 7.81 4.3 12.72
3/23/2021 4:00:00 PM 7.94 46.292 0.183 7.81 4.27 12.66
3/23/2021 4:15:00 PM 8.06 46.508 0.183 7.82 4.38 12.62
3/23/2021 4:30:00 PM 8.15 46.67 0.183 7.82 4.2 12.57
3/23/2021 4:45:00 PM 8.24 46.832 0.183 7.82 4.26 12.52
3/23/2021 5:00:00 PM 8.3 46.94 0.183 7.82 4.19 12.48
3/23/2021 5:15:00 PM 8.35 47.03 0.183 7.82 4.34 12.4
3/23/2021 5:30:00 PM 8.4 47.12 0.183 7.82 4.26 12.34
3/23/2021 5:45:00 PM 8.43 47.174 0.183 7.81 4.1 12.26
3/23/2021 6:00:00 PM 8.46 47.228 0.183 7.81 4.32 12.17
3/23/2021 6:15:00 PM 8.48 47.264 0.184 7.8 4.47 12.07
3/23/2021 6:30:00 PM 8.5 47.3 0.184 7.78 4.65 11.98
3/23/2021 6:45:00 PM 8.53 47.354 0.185 7.78 4.59 11.9
3/23/2021 7:00:00 PM 8.52 47.336 0.185 7.76 4.79 11.79
3/23/2021 7:15:00 PM 8.52 47.336 0.185 7.75 4.39 11.68
3/23/2021 7:30:00 PM 8.5 47.3 0.186 7.74 4.25 11.6
3/23/2021 7:45:00 PM 8.47 47.246 0.185 7.72 4.55 11.51
3/23/2021 8:00:00 PM 8.44 47.192 0.186 7.71 4.83 11.42
3/23/2021 8:15:00 PM 8.39 47.102 0.185 7.7 4.85 11.33
3/23/2021 8:30:00 PM 8.34 47.012 0.185 7.68 4.61 11.25
3/23/2021 8:45:00 PM 8.29 46.922 0.184 7.67 4.75 11.18
3/23/2021 9:00:00 PM 8.23 46.814 0.184 7.66 4.54 11.13
3/23/2021 9:15:00 PM 8.17 46.706 0.184 7.65 4.82 11.08
3/23/2021 9:30:00 PM 8.11 46.598 0.182 7.64 5.84 11.03
3/23/2021 9:45:00 PM 8.05 46.49 0.182 7.63 5.22 10.99
3/23/2021 10:00:00 PM 7.96 46.328 0.182 7.62 5.35 10.95
3/23/2021 10:15:00 PM 7.88 46.184 0.181 7.61 5.5 10.93
3/23/2021 10:30:00 PM 7.79 46.022 0.179 7.6 5.16 10.91
3/23/2021 10:45:00 PM 7.69 45.842 0.179 7.6 5.09 10.9
3/23/2021 11:00:00 PM 7.6 45.68 0.179 7.59 4.98 10.9
3/23/2021 11:15:00 PM 7.49 45.482 0.178 7.58 4.97 10.91
3/23/2021 11:30:00 PM 7.39 45.302 0.178 7.58 5.28 10.91
3/23/2021 11:45:00 PM 7.28 45.104 0.177 7.57 5.27 10.92
3/24/2021 12:00:00 AM 7.16 44.888 0.176 7.57 5.41 10.95
3/24/2021 12:15:00 AM 7.06 44.708 0.177 7.57 5.44 10.96
3/24/2021 12:30:00 AM 6.94 44.492 0.176 7.57 5.26 10.99
3/24/2021 12:45:00 AM 6.84 44.312 0.176 7.56 5.71 11
3/24/2021 1:00:00 AM 6.73 44.114 0.176 7.56 5.8 11.01
3/24/2021 1:15:00 AM 6.62 43.916 0.177 7.56 5.36 11.04
3/24/2021 1:30:00 AM 6.52 43.736 0.176 7.56 5.53 11.06
3/24/2021 1:45:00 AM 6.42 43.556 0.176 7.55 5.57 11.08
3/24/2021 2:00:00 AM 6.33 43.394 0.175 7.55 5.34 11.1
3/24/2021 2:15:00 AM 6.25 43.25 0.176 7.55 5.21 11.12
3/24/2021 2:30:00 AM 6.17 43.106 0.175 7.55 5.25 11.14
3/24/2021 2:45:00 AM 6.1 42.98 0.175 7.55 5.36 11.16
3/24/2021 3:00:00 AM 6.03 42.854 0.174 7.54 5.61 11.17
3/24/2021 3:15:00 AM 5.96 42.728 0.174 7.54 5.3 11.19
3/24/2021 3:30:00 AM 5.9 42.62 0.173 7.54 5.68 11.21
3/24/2021 3:45:00 AM 5.83 42.494 0.172 7.54 5.69 11.23
3/24/2021 4:00:00 AM 5.78 42.404 0.172 7.53 5.79 11.23
3/24/2021 4:15:00 AM 5.74 42.332 0.172 7.53 5.39 11.24
3/24/2021 4:30:00 AM 5.7 42.26 0.171 7.53 5.85 11.25
3/24/2021 4:45:00 AM 5.67 42.206 0.17 7.53 5.44 11.27
3/24/2021 5:00:00 AM 5.66 42.188 0.17 7.53 5.62 11.27
3/24/2021 5:15:00 AM 5.64 42.152 0.17 7.53 5.59 11.27
3/24/2021 5:30:00 AM 5.62 42.116 0.17 7.53 5.65 11.28
3/24/2021 5:45:00 AM 5.61 42.098 0.17 7.53 6.91 11.28
3/24/2021 6:00:00 AM 5.6 42.08 0.17 7.53 5.7 11.28
3/24/2021 6:15:00 AM 5.59 42.062 0.171 7.53 5.32 11.29
3/24/2021 6:30:00 AM 5.58 42.044 0.171 7.53 5.91 11.29
3/24/2021 6:45:00 AM 5.58 42.044 0.171 7.53 5.5 11.28
3/24/2021 7:00:00 AM 5.58 42.044 0.171 7.53 5.88 11.29
3/24/2021 7:15:00 AM 5.58 42.044 0.171 7.53 5.88 11.3
3/24/2021 7:30:00 AM 5.59 42.062 0.172 7.53 5.22 11.3
3/24/2021 7:45:00 AM 5.6 42.08 0.172 7.53 5.19 11.31
3/24/2021 8:00:00 AM 5.61 42.098 0.173 7.53 5.61 11.31
3/24/2021 8:15:00 AM 5.61 42.098 0.173 7.54 5.14 11.33
3/24/2021 8:30:00 AM 5.62 42.116 0.173 7.54 5.53 11.34
3/24/2021 8:45:00 AM 5.63 42.134 0.174 7.54 5.16 11.36
3/24/2021 9:00:00 AM 5.64 42.152 0.175 7.55 5.12 11.38
3/24/2021 9:15:00 AM 5.66 42.188 0.176 7.55 5.46 11.42
3/24/2021 9:30:00 AM 5.68 42.224 0.177 7.56 5.23 11.45
3/24/2021 9:45:00 AM 5.71 42.278 0.178 7.57 4.88 11.5
3/24/2021 10:00:00 AM 5.74 42.332 0.179 7.57 5.1 11.54
3/24/2021 10:15:00 AM 5.77 42.386 0.18 7.58 5.36 11.58
3/24/2021 10:30:00 AM 5.81 42.458 0.181 7.59 5.58 11.64
3/24/2021 10:45:00 AM 5.85 42.53 0.181 7.6 5.21 11.67
3/24/2021 11:00:00 AM 5.88 42.584 0.18 7.61 5.69 11.73
3/24/2021 11:15:00 AM 5.93 42.674 0.181 7.61 5.32 11.77
3/24/2021 11:30:00 AM 5.96 42.728 0.18 7.62 5.74 11.81
3/24/2021 11:45:00 AM 5.98 42.764 0.179 7.63 5.26 11.87
3/24/2021 12:00:00 PM 6.02 42.836 0.178 7.63 5.1 11.89
3/24/2021 12:15:00 PM 6.06 42.908 0.179 7.64 5.86 11.92
3/24/2021 12:30:00 PM 6.11 42.998 0.179 7.65 5.86 11.95
3/24/2021 12:45:00 PM 6.15 43.07 0.179 7.65 6.07 11.99
3/24/2021 1:00:00 PM 6.2 43.16 0.178 7.66 5.98 12
3/24/2021 1:15:00 PM 6.26 43.268 0.178 7.67 6.21 12.05
3/24/2021 1:30:00 PM 6.29 43.322 0.177 7.67 5.45 12.07
3/24/2021 1:45:00 PM 6.34 43.412 0.176 7.68 5.98 12.1
3/24/2021 2:00:00 PM 6.39 43.502 0.175 7.68 5.89 12.12
3/24/2021 2:15:00 PM 6.43 43.574 0.175 7.68 6.01 12.12
3/24/2021 2:30:00 PM 6.5 43.7 0.176 7.69 5.97 12.16
3/24/2021 2:45:00 PM 6.56 43.808 0.173 7.69 5.42 12.19
3/24/2021 3:00:00 PM 6.62 43.916 0.173 7.7 5.76 12.22
3/24/2021 3:15:00 PM 6.68 44.024 0.172 7.7 5.72 12.24
3/24/2021 3:30:00 PM 6.73 44.114 0.172 7.71 6.14 12.26
3/24/2021 3:45:00 PM 6.77 44.186 0.173 7.71 5.62 12.26
3/24/2021 4:00:00 PM 6.8 44.24 0.171 7.71 5.76 12.28
3/24/2021 4:15:00 PM 6.83 44.294 0.17 7.71 5.97 12.29
3/24/2021 4:30:00 PM 6.85 44.33 0.167 7.71 6.02 12.28
3/24/2021 4:45:00 PM 6.89 44.402 0.167 7.71 6.79 12.27
3/24/2021 5:00:00 PM 6.9 44.42 0.163 7.71 7.01 12.25
3/24/2021 5:15:00 PM 6.91 44.438 0.16 7.7 7.5 12.21
3/24/2021 5:30:00 PM 6.9 44.42 0.158 7.69 8.2 12.16
3/24/2021 5:45:00 PM 6.89 44.402 0.155 7.67 8.5 12.13
3/24/2021 6:00:00 PM 6.88 44.384 0.153 7.66 9.13 12.07
3/24/2021 6:15:00 PM 6.87 44.366 0.151 7.65 9.23 12.03
3/24/2021 6:30:00 PM 6.85 44.33 0.148 7.63 10.45 11.99
3/24/2021 6:45:00 PM 6.83 44.294 0.146 7.62 10.38 11.94
3/24/2021 7:00:00 PM 6.81 44.258 0.144 7.6 10.86 11.88
3/24/2021 7:15:00 PM 6.79 44.222 0.142 7.59 11.09 11.83
3/24/2021 7:30:00 PM 6.76 44.168 0.14 7.57 11.7 11.78
3/24/2021 7:45:00 PM 6.75 44.15 0.139 7.56 10.95 11.74
3/24/2021 8:00:00 PM 6.72 44.096 0.139 7.55 11.66 11.7
3/24/2021 8:15:00 PM 6.7 44.06 0.137 7.53 11.33 11.66
3/24/2021 8:30:00 PM 6.68 44.024 0.136 7.52 11.84 11.63
3/24/2021 8:45:00 PM 6.68 44.024 0.136 7.52 11.38 11.58
3/24/2021 9:00:00 PM 6.68 44.024 0.136 7.51 11.33 11.53
3/24/2021 9:15:00 PM 6.67 44.006 0.136 7.5 10.96 11.51
3/24/2021 9:30:00 PM 6.67 44.006 0.136 7.5 11.2 11.47
3/24/2021 9:45:00 PM 6.68 44.024 0.138 7.5 12.28 11.44
3/24/2021 10:00:00 PM 6.68 44.024 0.138 7.49 10.52 11.41
3/24/2021 10:15:00 PM 6.68 44.024 0.14 7.49 10.79 11.38
3/24/2021 10:30:00 PM 6.68 44.024 0.14 7.49 10.56 11.36
3/24/2021 10:45:00 PM 6.68 44.024 0.14 7.48 9.82 11.35
3/24/2021 11:00:00 PM 6.68 44.024 0.141 7.48 11.07 11.31
3/24/2021 11:15:00 PM 6.69 44.042 0.143 7.48 9.9 11.29
3/24/2021 11:30:00 PM 6.69 44.042 0.144 7.47 10.13 11.26
3/24/2021 11:45:00 PM 6.69 44.042 0.145 7.47 10.92 11.25
3/25/2021 12:00:00 AM 6.7 44.06 0.145 7.47 9.79 11.23
3/25/2021 12:15:00 AM 6.7 44.06 0.146 7.47 10.62 11.22
3/25/2021 12:30:00 AM 6.7 44.06 0.146 7.47 10.02 11.21
3/25/2021 12:45:00 AM 6.69 44.042 0.146 7.47 9.16 11.2
3/25/2021 1:00:00 AM 6.69 44.042 0.147 7.47 9.88 11.19
3/25/2021 1:15:00 AM 6.67 44.006 0.146 7.47 9.53 11.19
3/25/2021 1:30:00 AM 6.67 44.006 0.147 7.46 10.04 11.18
3/25/2021 1:45:00 AM 6.67 44.006 0.147 7.46 9.57 11.17
3/25/2021 2:00:00 AM 6.68 44.024 0.149 7.46 9.62 11.16
3/25/2021 2:15:00 AM 6.68 44.024 0.15 7.46 9.55 11.15
3/25/2021 2:30:00 AM 6.67 44.006 0.15 7.46 9.34 11.15
3/25/2021 2:45:00 AM 6.67 44.006 0.15 7.46 9.36 11.13
3/25/2021 3:00:00 AM 6.66 43.988 0.15 7.46 9.91 11.13
3/25/2021 3:15:00 AM 6.66 43.988 0.149 7.46 8.09 11.13
3/25/2021 3:30:00 AM 6.67 44.006 0.153 7.46 8.77 11.12
3/25/2021 3:45:00 AM 6.66 43.988 0.151 7.46 8.59 11.12
3/25/2021 4:00:00 AM 6.65 43.97 0.151 7.46 8.87 11.1
3/25/2021 4:15:00 AM 6.66 43.988 0.151 7.46 8.78 11.1
3/25/2021 4:30:00 AM 6.65 43.97 0.15 7.46 9.02 11.1
3/25/2021 4:45:00 AM 6.65 43.97 0.15 7.46 8.49 11.09
3/25/2021 5:00:00 AM 6.65 43.97 0.15 7.46 8.46 11.08
3/25/2021 5:15:00 AM 6.64 43.952 0.15 7.46 8.46 11.09
3/25/2021 5:30:00 AM 6.64 43.952 0.15 7.46 7.6 11.08
3/25/2021 5:45:00 AM 6.64 43.952 0.151 7.46 8.28 11.07
3/25/2021 6:00:00 AM 6.63 43.934 0.154 7.46 8.72 11.07
3/25/2021 6:15:00 AM 6.63 43.934 0.156 7.46 7.73 11.08
3/25/2021 6:30:00 AM 6.61 43.898 0.152 7.46 8.25 11.07
3/25/2021 6:45:00 AM 6.61 43.898 0.153 7.46 7.83 11.06
3/25/2021 7:00:00 AM 6.6 43.88 0.153 7.46 8 11.06
3/25/2021 7:15:00 AM 6.6 43.88 0.153 7.46 8.14 11.07
3/25/2021 7:30:00 AM 6.59 43.862 0.153 7.46 8.13 11.08
3/25/2021 7:45:00 AM 6.6 43.88 0.154 7.46 7.8 11.08
3/25/2021 8:00:00 AM 6.61 43.898 0.154 7.47 7.45 11.12
3/25/2021 8:15:00 AM 6.62 43.916 0.154 7.47 7.5 11.12
3/25/2021 8:30:00 AM 6.64 43.952 0.156 7.48 6.94 11.19
3/25/2021 8:45:00 AM 6.67 44.006 0.156 7.49 6.85 11.24
3/25/2021 9:00:00 AM 6.7 44.06 0.158 7.5 6.84 11.27
3/25/2021 9:15:00 AM 6.75 44.15 0.155 7.51 7.32 11.34
3/25/2021 9:30:00 AM 6.81 44.258 0.157 7.53 7.02 11.41
3/25/2021 9:45:00 AM 6.86 44.348 0.157 7.54 7.18 11.48
3/25/2021 10:00:00 AM 6.97 44.546 0.158 7.55 6.12 11.57
3/25/2021 10:15:00 AM 7.05 44.69 0.158 7.57 6.17 11.63
3/25/2021 10:30:00 AM 7.12 44.816 0.158 7.58 6.22 11.7
3/25/2021 10:45:00 AM 7.25 45.05 0.16 7.59 6.41 11.73
3/25/2021 11:00:00 AM 7.45 45.41 0.159 7.61 6.13 11.83
3/25/2021 11:15:00 AM 7.61 45.698 0.16 7.62 6.15 11.88
3/25/2021 11:30:00 AM 7.74 45.932 0.16 7.64 5.6 11.95
3/25/2021 11:45:00 AM 7.89 46.202 0.161 7.65 6.01 11.97
3/25/2021 12:00:00 PM 8.11 46.598 0.161 7.66 6.07 12.02
3/25/2021 12:15:00 PM 8.32 46.976 0.16 7.68 6.14 12.04
3/25/2021 12:30:00 PM 8.54 47.372 0.16 7.69 6.15 12.08
3/25/2021 12:45:00 PM 8.77 47.786 0.161 7.71 5.66 12.1
3/25/2021 1:00:00 PM 8.98 48.164 0.16 7.72 5.73 12.11
3/25/2021 1:15:00 PM 9.2 48.56 0.161 7.73 5.66 12.13
3/25/2021 1:30:00 PM 9.4 48.92 0.161 7.74 5.72 12.13
3/25/2021 1:45:00 PM 9.6 49.28 0.161 7.75 5.4 12.12
3/25/2021 2:00:00 PM 9.79 49.622 0.162 7.76 8.33 12.1
3/25/2021 2:15:00 PM 9.96 49.928 0.162 7.77 6.18 12.09
3/25/2021 2:30:00 PM 10.14 50.252 0.163 7.78 5.78 12.06
3/25/2021 2:45:00 PM 10.33 50.594 0.162 7.79 5.65 12.04
3/25/2021 3:00:00 PM 10.54 50.972 0.162 7.8 5.5 12.01
3/25/2021 3:15:00 PM 10.7 51.26 0.162 7.81 5.41 11.99
3/25/2021 3:30:00 PM 10.87 51.566 0.163 7.82 5.54 11.97
3/25/2021 3:45:00 PM 11.01 51.818 0.163 7.83 5.97 11.92
3/25/2021 4:00:00 PM 11.11 51.998 0.164 7.83 5.54 11.88
3/25/2021 4:15:00 PM 11.21 52.178 0.163 7.84 5.26 11.84
3/25/2021 4:30:00 PM 11.28 52.304 0.164 7.83 6.83 11.75
3/25/2021 4:45:00 PM 11.36 52.448 0.164 7.84 5.56 11.72
3/25/2021 5:00:00 PM 11.43 52.574 0.165 7.84 4.93 11.64
3/25/2021 5:15:00 PM 11.49 52.682 0.164 7.84 5.77 11.58
3/25/2021 5:30:00 PM 11.53 52.754 0.166 7.83 6.02 11.51
3/25/2021 5:45:00 PM 11.55 52.79 0.165 7.82 5.4 11.41
3/25/2021 6:00:00 PM 11.56 52.808 0.166 7.8 5.53 11.32
3/25/2021 6:15:00 PM 11.55 52.79 0.167 7.79 5.08 11.24
3/25/2021 6:30:00 PM 11.55 52.79 0.167 7.78 5.42 11.14
3/25/2021 6:45:00 PM 11.53 52.754 0.167 7.76 5.58 11.03
3/25/2021 7:00:00 PM 11.52 52.736 0.167 7.74 5.9 10.92
3/25/2021 7:15:00 PM 11.49 52.682 0.167 7.72 5.13 10.81
3/25/2021 7:30:00 PM 11.46 52.628 0.166 7.7 6.2 10.71
3/25/2021 7:45:00 PM 11.42 52.556 0.167 7.69 6.39 10.6
3/25/2021 8:00:00 PM 11.38 52.484 0.166 7.67 5.74 10.51
3/25/2021 8:15:00 PM 11.33 52.394 0.166 7.65 5.93 10.42
3/25/2021 8:30:00 PM 11.28 52.304 0.165 7.63 6 10.33
3/25/2021 8:45:00 PM 11.24 52.232 0.166 7.62 6.05 10.27
3/25/2021 9:00:00 PM 11.19 52.142 0.165 7.6 6.12 10.2
3/25/2021 9:15:00 PM 11.14 52.052 0.166 7.59 6.22 10.14
3/25/2021 9:30:00 PM 11.09 51.962 0.167 7.58 6.9 10.09
3/25/2021 9:45:00 PM 11.02 51.836 0.167 7.57 6.21 10.06
3/25/2021 10:00:00 PM 10.96 51.728 0.167 7.56 6.2 10.03
3/25/2021 10:15:00 PM 10.9 51.62 0.168 7.56 5.85 9.99
3/25/2021 10:30:00 PM 10.85 51.53 0.168 7.56 6.44 9.98
3/25/2021 10:45:00 PM 10.77 51.386 0.169 7.55 6.33 9.97
3/25/2021 11:00:00 PM 10.7 51.26 0.17 7.55 5.92 9.96
3/25/2021 11:15:00 PM 10.63 51.134 0.171 7.55 6.03 9.94
3/25/2021 11:30:00 PM 10.57 51.026 0.171 7.55 5.77 9.95
3/25/2021 11:45:00 PM 10.51 50.918 0.172 7.54 5.88 9.92
3/26/2021 12:00:00 AM 10.45 50.81 0.173 7.54 5.95 9.93
3/26/2021 12:15:00 AM 10.4 50.72 0.172 7.54 5.62 9.93
3/26/2021 12:30:00 AM 10.35 50.63 0.173 7.54 5.64 9.93
3/26/2021 12:45:00 AM 10.3 50.54 0.173 7.54 5.79 9.93
3/26/2021 1:00:00 AM 10.26 50.468 0.173 7.54 5.91 9.91
3/26/2021 1:15:00 AM 10.21 50.378 0.174 7.53 5.86 9.92
3/26/2021 1:30:00 AM 10.18 50.324 0.173 7.53 6.98 9.92
3/26/2021 1:45:00 AM 10.14 50.252 0.174 7.53 6.65 9.91
3/26/2021 2:00:00 AM 10.1 50.18 0.174 7.53 5.67 9.91
3/26/2021 2:15:00 AM 10.07 50.126 0.174 7.52 5.84 9.9
3/26/2021 2:30:00 AM 10.04 50.072 0.174 7.52 5.74 9.9
3/26/2021 2:45:00 AM 10.02 50.036 0.174 7.52 6.34 9.91
3/26/2021 3:00:00 AM 9.99 49.982 0.175 7.52 5.8 9.9
3/26/2021 3:15:00 AM 9.97 49.946 0.174 7.52 6.27 9.9
3/26/2021 3:30:00 AM 9.95 49.91 0.174 7.52 6.22 9.89
3/26/2021 3:45:00 AM 9.93 49.874 0.176 7.52 5.77 9.9
3/26/2021 4:00:00 AM 9.91 49.838 0.175 7.52 6.53 9.89
3/26/2021 4:15:00 AM 9.9 49.82 0.176 7.52 6.04 9.88
3/26/2021 4:30:00 AM 9.89 49.802 0.177 7.52 5.72 9.88
3/26/2021 4:45:00 AM 9.88 49.784 0.177 7.52 6.21 9.87
3/26/2021 5:00:00 AM 9.86 49.748 0.177 7.52 6.31 9.88
3/26/2021 5:15:00 AM 9.84 49.712 0.178 7.52 5.89 9.87
3/26/2021 5:30:00 AM 9.81 49.658 0.179 7.52 5.64 9.87
3/26/2021 5:45:00 AM 9.78 49.604 0.179 7.52 6.2 9.87
3/26/2021 6:00:00 AM 9.75 49.55 0.18 7.52 5.94 9.87
3/26/2021 6:15:00 AM 9.73 49.514 0.181 7.52 5.81 9.85
3/26/2021 6:30:00 AM 9.71 49.478 0.181 7.53 7.37 9.85
3/26/2021 6:45:00 AM 9.71 49.478 0.182 7.53 6.13 9.84
3/26/2021 7:00:00 AM 9.69 49.442 0.181 7.53 5.77 9.85
3/26/2021 7:15:00 AM 9.69 49.442 0.181 7.53 5.73 9.86
3/26/2021 7:30:00 AM 9.68 49.424 0.182 7.53 6 9.87
3/26/2021 7:45:00 AM 9.68 49.424 0.182 7.53 5.84 9.86
3/26/2021 8:00:00 AM 9.69 49.442 0.182 7.54 5.44 9.9
3/26/2021 8:15:00 AM 9.7 49.46 0.185 7.54 5.69 9.94
3/26/2021 8:30:00 AM 9.71 49.478 0.183 7.55 5.53 9.99
3/26/2021 8:45:00 AM 9.75 49.55 0.183 7.56 5.79 10.07
3/26/2021 9:00:00 AM 9.81 49.658 0.185 7.57 5.54 10.14
3/26/2021 9:15:00 AM 9.87 49.766 0.186 7.58 5.38 10.21
3/26/2021 9:30:00 AM 9.96 49.928 0.185 7.59 5.17 10.31
3/26/2021 9:45:00 AM 10.06 50.108 0.186 7.61 5.33 10.39
3/26/2021 10:00:00 AM 10.14 50.252 0.186 7.62 6.59 10.46
3/26/2021 10:15:00 AM 10.25 50.45 0.187 7.63 5.37 10.54
3/26/2021 10:30:00 AM 10.4 50.72 0.186 7.65 5.21 10.65
3/26/2021 10:45:00 AM 10.54 50.972 0.185 7.67 6 10.75
3/26/2021 11:00:00 AM 10.67 51.206 0.186 7.69 5.64 10.82
3/26/2021 11:15:00 AM 10.86 51.548 0.185 7.71 5.89 10.91
3/26/2021 11:30:00 AM 10.99 51.782 0.185 7.72 5.7 10.95
3/26/2021 11:45:00 AM 11.11 51.998 0.185 7.74 5.26 11
3/26/2021 12:00:00 PM 11.18 52.124 0.185 7.75 5.58 11.03
3/26/2021 12:15:00 PM 11.3 52.34 0.185 7.76 5.47 11.08
3/26/2021 12:30:00 PM 11.37 52.466 0.185 7.77 5.22 11.09
3/26/2021 12:45:00 PM 11.41 52.538 0.185 7.78 5.16 11.08
3/26/2021 1:00:00 PM 11.43 52.574 0.185 7.78 5.05 11.06
3/26/2021 1:15:00 PM 11.45 52.61 0.185 7.79 5.07 11.06
3/26/2021 1:30:00 PM 11.55 52.79 0.186 7.8 5.32 11.09
3/26/2021 1:45:00 PM 11.56 52.808 0.186 7.8 5.08 11.07
3/26/2021 2:00:00 PM 11.63 52.934 0.186 7.82 5.25 11.09
3/26/2021 2:15:00 PM 11.66 52.988 0.187 7.82 4.78 11.1
3/26/2021 2:30:00 PM 11.65 52.97 0.187 7.83 4.96 11.09
3/26/2021 2:45:00 PM 11.65 52.97 0.187 7.84 5.02 11.09
3/26/2021 3:00:00 PM 11.66 52.988 0.187 7.84 5.34 11.11
3/26/2021 3:15:00 PM 11.68 53.024 0.187 7.85 5.13 11.13
3/26/2021 3:30:00 PM 11.73 53.114 0.187 7.86 4.99 11.13
3/26/2021 3:45:00 PM 11.73 53.114 0.188 7.87 4.99 11.1
3/26/2021 4:00:00 PM 11.72 53.096 0.188 7.86 4.97 11.03
3/26/2021 4:15:00 PM 11.7 53.06 0.188 7.85 4.84 10.98
3/26/2021 4:30:00 PM 11.63 52.934 0.188 7.84 4.93 10.9
3/26/2021 4:45:00 PM 11.58 52.844 0.187 7.83 5.11 10.85
3/26/2021 5:00:00 PM 11.54 52.772 0.188 7.82 4.86 10.82
3/26/2021 5:15:00 PM 11.5 52.7 0.186 7.82 4.71 10.76
3/26/2021 5:30:00 PM 11.47 52.646 0.186 7.8 4.95 10.71
3/26/2021 5:45:00 PM 11.43 52.574 0.186 7.79 5.31 10.67
3/26/2021 6:00:00 PM 11.37 52.466 0.186 7.79 4.92 10.63
3/26/2021 6:15:00 PM 11.29 52.322 0.187 7.77 5.43 10.59
3/26/2021 6:30:00 PM 11.21 52.178 0.185 7.77 5.05 10.55
3/26/2021 6:45:00 PM 11.12 52.016 0.185 7.76 5.28 10.52
3/26/2021 7:00:00 PM 11.04 51.872 0.186 7.75 5.11 10.48
3/26/2021 7:15:00 PM 10.95 51.71 0.187 7.74 5.06 10.44
3/26/2021 7:30:00 PM 10.86 51.548 0.187 7.73 4.93 10.38
3/26/2021 7:45:00 PM 10.79 51.422 0.187 7.71 5.02 10.33
3/26/2021 8:00:00 PM 10.72 51.296 0.188 7.7 5.08 10.28
3/26/2021 8:15:00 PM 10.66 51.188 0.188 7.69 6 10.24
3/26/2021 8:30:00 PM 10.6 51.08 0.19 7.68 5.75 10.19
3/26/2021 8:45:00 PM 10.54 50.972 0.191 7.68 6.41 10.15
3/26/2021 9:00:00 PM 10.48 50.864 0.191 7.67 5.77 10.11
3/26/2021 9:15:00 PM 10.41 50.738 0.192 7.66 5.64 10.07
3/26/2021 9:30:00 PM 10.33 50.594 0.193 7.65 6.06 10.05
3/26/2021 9:45:00 PM 10.25 50.45 0.193 7.65 5.93 10.03
3/26/2021 10:00:00 PM 10.17 50.306 0.195 7.64 6.09 10
3/26/2021 10:15:00 PM 10.09 50.162 0.196 7.64 5.3 9.99
3/26/2021 10:30:00 PM 10.01 50.018 0.197 7.63 5.74 9.99
3/26/2021 10:45:00 PM 9.94 49.892 0.197 7.63 5.88 9.98
3/26/2021 11:00:00 PM 9.86 49.748 0.197 7.63 5.53 9.97
3/26/2021 11:15:00 PM 9.78 49.604 0.198 7.62 5.65 9.98
3/26/2021 11:30:00 PM 9.7 49.46 0.198 7.62 5.47 9.98
3/26/2021 11:45:00 PM 9.63 49.334 0.198 7.62 5.42 9.99
3/27/2021 12:00:00 AM 9.55 49.19 0.198 7.62 5.55 10
3/27/2021 12:15:00 AM 9.48 49.064 0.198 7.62 5.51 10.01
3/27/2021 12:30:00 AM 9.41 48.938 0.198 7.62 5.83 10.01
3/27/2021 12:45:00 AM 9.34 48.812 0.197 7.62 5.55 10.02
3/27/2021 1:00:00 AM 9.27 48.686 0.198 7.61 5.26 10.02
3/27/2021 1:15:00 AM 9.19 48.542 0.198 7.61 5.64 10.04
3/27/2021 1:30:00 AM 9.12 48.416 0.199 7.61 5.46 10.05
3/27/2021 1:45:00 AM 9.06 48.308 0.2 7.61 6 10.06
3/27/2021 2:00:00 AM 9 48.2 0.201 7.61 5.23 10.06
3/27/2021 2:15:00 AM 8.95 48.11 0.202 7.61 5.45 10.07
3/27/2021 2:30:00 AM 8.9 48.02 0.203 7.62 5.51 10.08
3/27/2021 2:45:00 AM 8.86 47.948 0.204 7.61 5.37 10.09
3/27/2021 3:00:00 AM 8.81 47.858 0.205 7.61 5.37 10.09
3/27/2021 3:15:00 AM 8.77 47.786 0.205 7.61 5.3 10.1
3/27/2021 3:30:00 AM 8.72 47.696 0.205 7.61 4.91 10.12
3/27/2021 3:45:00 AM 8.67 47.606 0.205 7.61 5.43 10.13
3/27/2021 4:00:00 AM 8.61 47.498 0.205 7.61 5.39 10.14
3/27/2021 4:15:00 AM 8.56 47.408 0.206 7.62 5.08 10.15
3/27/2021 4:30:00 AM 8.51 47.318 0.206 7.61 5.17 10.16
3/27/2021 4:45:00 AM 8.47 47.246 0.207 7.61 5.12 10.17
3/27/2021 5:00:00 AM 8.43 47.174 0.207 7.61 5.74 10.17
3/27/2021 5:15:00 AM 8.39 47.102 0.207 7.61 5 10.19
3/27/2021 5:30:00 AM 8.35 47.03 0.207 7.61 5.39 10.19
3/27/2021 5:45:00 AM 8.32 46.976 0.207 7.61 5.19 10.2
3/27/2021 6:00:00 AM 8.28 46.904 0.207 7.61 5.58 10.2
3/27/2021 6:15:00 AM 8.25 46.85 0.207 7.61 5.23 10.23
3/27/2021 6:30:00 AM 8.21 46.778 0.206 7.61 5.22 10.23
3/27/2021 6:45:00 AM 8.17 46.706 0.207 7.61 5.33 10.24
3/27/2021 7:00:00 AM 8.13 46.634 0.208 7.61 5.18 10.25
3/27/2021 7:15:00 AM 8.09 46.562 0.207 7.61 5.3 10.27
3/27/2021 7:30:00 AM 8.05 46.49 0.208 7.61 6.73 10.28
3/27/2021 7:45:00 AM 8.02 46.436 0.208 7.62 5.02 10.31
3/27/2021 8:00:00 AM 7.99 46.382 0.209 7.62 5.3 10.32
3/27/2021 8:15:00 AM 7.97 46.346 0.209 7.62 5.25 10.37
3/27/2021 8:30:00 AM 7.95 46.31 0.209 7.62 5.02 10.4
3/27/2021 8:45:00 AM 7.93 46.274 0.21 7.63 6.08 10.44
3/27/2021 9:00:00 AM 7.91 46.238 0.209 7.64 5.03 10.5
3/27/2021 9:15:00 AM 7.89 46.202 0.21 7.64 5.43 10.56
3/27/2021 9:30:00 AM 7.88 46.184 0.21 7.65 4.33 10.63
3/27/2021 9:45:00 AM 7.87 46.166 0.211 7.66 4.7 10.68
3/27/2021 10:00:00 AM 7.85 46.13 0.21 7.66 4.87 10.76
3/27/2021 10:15:00 AM 7.84 46.112 0.21 7.67 7.41 10.8
3/27/2021 10:30:00 AM 7.85 46.13 0.21 7.68 5 10.9
3/27/2021 10:45:00 AM 7.88 46.184 0.21 7.69 4.75 10.99
3/27/2021 11:00:00 AM 7.92 46.256 0.21 7.7 5.21 11.1
3/27/2021 11:15:00 AM 7.96 46.328 0.211 7.71 4.59 11.18
3/27/2021 11:30:00 AM 8.03 46.454 0.211 7.73 4.5 11.31
3/27/2021 11:45:00 AM 8.12 46.616 0.21 7.75 4.69 11.41
3/27/2021 12:00:00 PM 8.23 46.814 0.21 7.76 5.09 11.52
3/27/2021 12:15:00 PM 8.33 46.994 0.211 7.78 4.62 11.6
3/27/2021 12:30:00 PM 8.47 47.246 0.211 7.8 4.42 11.69
3/27/2021 12:45:00 PM 8.65 47.57 0.21 7.81 4.41 11.73
3/27/2021 1:00:00 PM 8.82 47.876 0.212 7.82 4.46 11.81
3/27/2021 1:15:00 PM 9 48.2 0.211 7.84 4.73 11.87
3/27/2021 1:30:00 PM 9.2 48.56 0.211 7.85 4.79 11.91
3/27/2021 1:45:00 PM 9.34 48.812 0.211 7.86 4.59 11.95
3/27/2021 2:00:00 PM 9.5 49.1 0.211 7.87 4.57 11.97
3/27/2021 2:15:00 PM 9.69 49.442 0.21 7.88 4.56 12.01
3/27/2021 2:30:00 PM 9.83 49.694 0.211 7.89 4.41 12.02
3/27/2021 2:45:00 PM 10.01 50.018 0.211 7.9 4.17 12.02
3/27/2021 3:00:00 PM 10.17 50.306 0.212 7.91 5.07 12.03
3/27/2021 3:15:00 PM 10.34 50.612 0.213 7.92 4.02 12.02
3/27/2021 3:30:00 PM 10.49 50.882 0.213 7.93 4.07 12
3/27/2021 3:45:00 PM 10.61 51.098 0.213 7.94 3.99 11.99
3/27/2021 4:00:00 PM 10.64 51.152 0.213 7.94 4 11.97
3/27/2021 4:15:00 PM 10.68 51.224 0.213 7.95 4.92 11.96
3/27/2021 4:30:00 PM 10.68 51.224 0.213 7.95 3.96 11.93
3/27/2021 4:45:00 PM 10.71 51.278 0.213 7.95 3.89 11.9
3/27/2021 5:00:00 PM 10.74 51.332 0.214 7.95 3.99 11.86
3/27/2021 5:15:00 PM 10.77 51.386 0.215 7.95 4.04 11.8
3/27/2021 5:30:00 PM 10.81 51.458 0.215 7.95 3.87 11.74
3/27/2021 5:45:00 PM 10.89 51.602 0.215 7.95 3.86 11.73
3/27/2021 6:00:00 PM 10.93 51.674 0.216 7.95 4.45 11.65
3/27/2021 6:15:00 PM 10.98 51.764 0.216 7.94 4.15 11.57
3/27/2021 6:30:00 PM 10.98 51.764 0.217 7.93 4.23 11.49
3/27/2021 6:45:00 PM 11 51.8 0.217 7.92 4.11 11.41
3/27/2021 7:00:00 PM 10.98 51.764 0.216 7.91 4.03 11.29
3/27/2021 7:15:00 PM 10.93 51.674 0.218 7.89 3.95 11.18
3/27/2021 7:30:00 PM 10.88 51.584 0.218 7.87 4.07 11.05
3/27/2021 7:45:00 PM 10.83 51.494 0.219 7.85 3.85 10.92
3/27/2021 8:00:00 PM 10.77 51.386 0.218 7.83 4.04 10.8
3/27/2021 8:15:00 PM 10.72 51.296 0.218 7.81 4.25 10.68
3/27/2021 8:30:00 PM 10.67 51.206 0.218 7.79 4.23 10.59
3/27/2021 8:45:00 PM 10.62 51.116 0.219 7.77 4.13 10.49
3/27/2021 9:00:00 PM 10.57 51.026 0.22 7.76 4.36 10.39
3/27/2021 9:15:00 PM 10.53 50.954 0.219 7.75 4.77 10.3
3/27/2021 9:30:00 PM 10.48 50.864 0.22 7.73 4.39 10.21
3/27/2021 9:45:00 PM 10.42 50.756 0.221 7.72 4.41 10.16
3/27/2021 10:00:00 PM 10.35 50.63 0.22 7.71 4.6 10.08
3/27/2021 10:15:00 PM 10.28 50.504 0.22 7.7 4.52 10.03
3/27/2021 10:30:00 PM 10.2 50.36 0.221 7.69 4.27 9.99
3/27/2021 10:45:00 PM 10.12 50.216 0.22 7.68 4.68 9.94
3/27/2021 11:00:00 PM 10.04 50.072 0.223 7.67 4.64 9.91
3/27/2021 11:15:00 PM 9.97 49.946 0.221 7.67 4.45 9.9
3/27/2021 11:30:00 PM 9.9 49.82 0.221 7.66 4.6 9.88
3/27/2021 11:45:00 PM 9.82 49.676 0.221 7.65 4.49 9.86
3/28/2021 12:00:00 AM 9.76 49.568 0.222 7.65 4.7 9.85
3/28/2021 12:15:00 AM 9.68 49.424 0.221 7.65 4.74 9.85
3/28/2021 12:30:00 AM 9.61 49.298 0.221 7.64 4.51 9.84
3/28/2021 12:45:00 AM 9.54 49.172 0.222 7.64 4.7 9.83
3/28/2021 1:00:00 AM 9.47 49.046 0.222 7.64 4.85 9.84
3/28/2021 1:15:00 AM 9.4 48.92 0.222 7.64 5.2 9.84
3/28/2021 1:30:00 AM 9.34 48.812 0.222 7.64 4.74 9.85
3/28/2021 1:45:00 AM 9.27 48.686 0.222 7.63 4.75 9.86
3/28/2021 2:00:00 AM 9.2 48.56 0.222 7.63 4.71 9.87
3/28/2021 2:15:00 AM 9.13 48.434 0.223 7.63 4.85 9.87
3/28/2021 2:30:00 AM 9.06 48.308 0.223 7.63 4.83 9.88
3/28/2021 2:45:00 AM 8.99 48.182 0.223 7.63 6.86 9.9
3/28/2021 3:00:00 AM 8.91 48.038 0.223 7.63 4.51 9.91
3/28/2021 3:15:00 AM 8.82 47.876 0.225 7.63 5.39 9.92
3/28/2021 3:30:00 AM 8.73 47.714 0.224 7.63 4.83 9.94
3/28/2021 3:45:00 AM 8.65 47.57 0.225 7.64 4.97 9.96
3/28/2021 4:00:00 AM 8.57 47.426 0.224 7.63 4.47 9.97
3/28/2021 4:15:00 AM 8.49 47.282 0.226 7.63 4.51 9.98
3/28/2021 4:30:00 AM 8.42 47.156 0.225 7.63 4.51 10
3/28/2021 4:45:00 AM 8.35 47.03 0.227 7.64 4.69 10.01
3/28/2021 5:00:00 AM 8.29 46.922 0.226 7.64 4.3 10.03
3/28/2021 5:15:00 AM 8.23 46.814 0.227 7.64 4.48 10.04
3/28/2021 5:30:00 AM 8.17 46.706 0.227 7.64 4.81 10.06
3/28/2021 5:45:00 AM 8.12 46.616 0.226 7.64 4.47 10.07
3/28/2021 6:00:00 AM 8.07 46.526 0.227 7.64 4.49 10.08
3/28/2021 6:15:00 AM 8.04 46.472 0.228 7.64 4.44 10.09
3/28/2021 6:30:00 AM 8 46.4 0.228 7.64 4.38 10.11
3/28/2021 6:45:00 AM 7.97 46.346 0.229 7.64 4.77 10.11
3/28/2021 7:00:00 AM 7.95 46.31 0.229 7.64 4.5 10.12
3/28/2021 7:15:00 AM 7.94 46.292 0.23 7.64 5.06 10.12
3/28/2021 7:30:00 AM 7.93 46.274 0.229 7.64 6.29 10.13
3/28/2021 7:45:00 AM 7.92 46.256 0.229 7.64 6.27 10.14
3/28/2021 8:00:00 AM 7.92 46.256 0.23 7.64 4.41 10.16
3/28/2021 8:15:00 AM 7.92 46.256 0.231 7.65 4.62 10.19
3/28/2021 8:30:00 AM 7.93 46.274 0.23 7.65 4.65 10.22
3/28/2021 8:45:00 AM 7.94 46.292 0.23 7.65 4.37 10.24
3/28/2021 9:00:00 AM 7.96 46.328 0.23 7.66 3.94 10.28
3/28/2021 9:15:00 AM 7.98 46.364 0.23 7.66 3.99 10.33
3/28/2021 9:30:00 AM 8.01 46.418 0.23 7.67 3.94 10.36
3/28/2021 9:45:00 AM 8.03 46.454 0.231 7.67 4.08 10.39
3/28/2021 10:00:00 AM 8.06 46.508 0.233 7.68 4.08 10.41
3/28/2021 10:15:00 AM 8.08 46.544 0.232 7.68 4.12 10.44
3/28/2021 10:30:00 AM 8.1 46.58 0.232 7.69 3.98 10.49
3/28/2021 10:45:00 AM 8.13 46.634 0.231 7.7 3.56 10.56
3/28/2021 11:00:00 AM 8.17 46.706 0.231 7.7 3.63 10.62
3/28/2021 11:15:00 AM 8.2 46.76 0.232 7.71 3.57 10.66
3/28/2021 11:30:00 AM 8.23 46.814 0.233 7.72 3.78 10.71
3/28/2021 11:45:00 AM 8.27 46.886 0.234 7.72 3.83 10.76
3/28/2021 12:00:00 PM 8.32 46.976 0.236 7.73 3.69 10.83
3/28/2021 12:15:00 PM 8.36 47.048 0.235 7.74 3.96 10.86
3/28/2021 12:30:00 PM 8.41 47.138 0.236 7.75 3.81 10.93
3/28/2021 12:45:00 PM 8.45 47.21 0.235 7.76 4.17 10.95
3/28/2021 1:00:00 PM 8.5 47.3 0.235 7.76 4.29 10.99
3/28/2021 1:15:00 PM 8.55 47.39 0.235 7.77 3.82 11.04
3/28/2021 1:30:00 PM 8.59 47.462 0.234 7.78 3.49 11.07
3/28/2021 1:45:00 PM 8.65 47.57 0.234 7.79 3.58 11.11
3/28/2021 2:00:00 PM 8.69 47.642 0.235 7.79 3.62 11.11
3/28/2021 2:15:00 PM 8.74 47.732 0.235 7.8 6.8 11.12
3/28/2021 2:30:00 PM 8.79 47.822 0.234 7.81 3.74 11.16
3/28/2021 2:45:00 PM 8.85 47.93 0.234 7.81 3.61 11.17
3/28/2021 3:00:00 PM 8.9 48.02 0.234 7.82 3.67 11.19
3/28/2021 3:15:00 PM 8.95 48.11 0.234 7.82 3.89 11.18
3/28/2021 3:30:00 PM 9 48.2 0.234 7.83 3.58 11.18
3/28/2021 3:45:00 PM 9.03 48.254 0.233 7.83 3.76 11.13
3/28/2021 4:00:00 PM 9.07 48.326 0.234 7.83 3.83 11.15
3/28/2021 4:15:00 PM 9.1 48.38 0.232 7.83 4.26 11.14
3/28/2021 4:30:00 PM 9.12 48.416 0.231 7.83 3.83 11.08
3/28/2021 4:45:00 PM 9.13 48.434 0.231 7.82 3.85 11.01
3/28/2021 5:00:00 PM 9.15 48.47 0.23 7.82 4.08 10.99
3/28/2021 5:15:00 PM 9.17 48.506 0.229 7.82 3.85 10.98
3/28/2021 5:30:00 PM 9.16 48.488 0.229 7.81 3.64 10.89
3/28/2021 5:45:00 PM 9.17 48.506 0.228 7.81 3.9 10.89
3/28/2021 6:00:00 PM 9.18 48.524 0.228 7.8 4.4 10.88
3/28/2021 6:15:00 PM 9.19 48.542 0.227 7.8 4.95 10.88
3/28/2021 6:30:00 PM 9.18 48.524 0.228 7.8 5.79 10.86
3/28/2021 6:45:00 PM 9.17 48.506 0.227 7.8 6.53 10.84
3/28/2021 7:00:00 PM 9.14 48.452 0.226 7.79 6.39 10.8
3/28/2021 7:15:00 PM 9.09 48.362 0.226 7.78 6.71 10.76
3/28/2021 7:30:00 PM 9.04 48.272 0.225 7.78 6.03 10.72
3/28/2021 7:45:00 PM 8.98 48.164 0.223 7.77 5.36 10.67
3/28/2021 8:00:00 PM 8.91 48.038 0.221 7.76 4.68 10.63
3/28/2021 8:15:00 PM 8.85 47.93 0.219 7.75 4.32 10.59
3/28/2021 8:30:00 PM 8.81 47.858 0.218 7.74 4.5 10.56
3/28/2021 8:45:00 PM 8.77 47.786 0.217 7.74 4.3 10.52
3/28/2021 9:00:00 PM 8.7 47.66 0.215 7.73 4.45 10.49
3/28/2021 9:15:00 PM 8.65 47.57 0.214 7.72 4.98 10.46
3/28/2021 9:30:00 PM 8.59 47.462 0.212 7.72 4.66 10.42
3/28/2021 9:45:00 PM 8.53 47.354 0.212 7.71 4.67 10.39
3/28/2021 10:00:00 PM 8.45 47.21 0.209 7.7 4.88 10.37
3/28/2021 10:15:00 PM 8.38 47.084 0.208 7.7 4.45 10.36
3/28/2021 10:30:00 PM 8.3 46.94 0.205 7.69 5.32 10.33
3/28/2021 10:45:00 PM 8.22 46.796 0.203 7.68 4.73 10.33
3/28/2021 11:00:00 PM 8.14 46.652 0.201 7.67 5.35 10.33
3/28/2021 11:15:00 PM 8.06 46.508 0.199 7.66 5.18 10.33
3/28/2021 11:30:00 PM 7.97 46.346 0.197 7.66 4.91 10.34
3/28/2021 11:45:00 PM 7.9 46.22 0.196 7.66 4.98 10.36
3/29/2021 12:00:00 AM 7.82 46.076 0.196 7.65 6.04 10.36
3/29/2021 12:15:00 AM 7.74 45.932 0.194 7.65 5.4 10.39
3/29/2021 12:30:00 AM 7.65 45.77 0.192 7.65 5.54 10.41
3/29/2021 12:45:00 AM 7.56 45.608 0.191 7.64 5.73 10.43
3/29/2021 1:00:00 AM 7.46 45.428 0.189 7.64 5.88 10.46
3/29/2021 1:15:00 AM 7.37 45.266 0.187 7.64 6.25 10.5
3/29/2021 1:30:00 AM 7.27 45.086 0.185 7.63 6.36 10.52
3/29/2021 1:45:00 AM 7.17 44.906 0.182 7.63 6.38 10.54
3/29/2021 2:00:00 AM 7.08 44.744 0.178 7.62 6.58 10.59
3/29/2021 2:15:00 AM 6.99 44.582 0.175 7.61 6.31 10.62
3/29/2021 2:30:00 AM 6.9 44.42 0.173 7.6 6.31 10.65
3/29/2021 2:45:00 AM 6.8 44.24 0.17 7.6 5.64 10.66
3/29/2021 3:00:00 AM 6.72 44.096 0.169 7.59 6.84 10.7
3/29/2021 3:15:00 AM 6.64 43.952 0.168 7.59 6.63 10.73
3/29/2021 3:30:00 AM 6.56 43.808 0.167 7.58 6.48 10.74
3/29/2021 3:45:00 AM 6.49 43.682 0.168 7.58 6.43 10.77
3/29/2021 4:00:00 AM 6.42 43.556 0.167 7.58 6.02 10.78
3/29/2021 4:15:00 AM 6.36 43.448 0.169 7.58 6.7 10.81
3/29/2021 4:30:00 AM 6.3 43.34 0.169 7.58 6.47 10.83
3/29/2021 4:45:00 AM 6.24 43.232 0.171 7.59 6.33 10.83
3/29/2021 5:00:00 AM 6.19 43.142 0.172 7.59 6.04 10.85
3/29/2021 5:15:00 AM 6.14 43.052 0.173 7.59 6.47 10.87
3/29/2021 5:30:00 AM 6.08 42.944 0.173 7.59 6.78 10.89
3/29/2021 5:45:00 AM 6.02 42.836 0.174 7.59 6.75 10.91
3/29/2021 6:00:00 AM 5.97 42.746 0.176 7.6 6.29 10.92
3/29/2021 6:15:00 AM 5.93 42.674 0.179 7.6 6.58 10.92
3/29/2021 6:30:00 AM 5.87 42.566 0.178 7.61 6.52 10.95
3/29/2021 6:45:00 AM 5.83 42.494 0.179 7.6 7.04 10.96
3/29/2021 7:00:00 AM 5.79 42.422 0.18 7.61 6.29 10.97
3/29/2021 7:15:00 AM 5.75 42.35 0.182 7.61 6.19 11
3/29/2021 7:30:00 AM 5.72 42.296 0.184 7.62 6.25 11.02
3/29/2021 7:45:00 AM 5.68 42.224 0.185 7.62 7.59 11.04
3/29/2021 8:00:00 AM 5.65 42.17 0.185 7.62 7.35 11.07
3/29/2021 8:15:00 AM 5.63 42.134 0.188 7.63 6.24 11.1
3/29/2021 8:30:00 AM 5.6 42.08 0.188 7.64 5.75 11.15
3/29/2021 8:45:00 AM 5.58 42.044 0.19 7.64 5.56 11.18
3/29/2021 9:00:00 AM 5.55 41.99 0.192 7.65 5.87 11.21
3/29/2021 9:15:00 AM 5.53 41.954 0.193 7.65 5.82 11.26
3/29/2021 9:30:00 AM 5.53 41.954 0.194 7.66 5.96 11.32
3/29/2021 9:45:00 AM 5.52 41.936 0.198 7.67 5.48 11.36
3/29/2021 10:00:00 AM 5.52 41.936 0.197 7.68 5.47 11.44
3/29/2021 10:15:00 AM 5.53 41.954 0.199 7.69 5.5 11.51
3/29/2021 10:30:00 AM 5.54 41.972 0.199 7.71 5.11 11.61
3/29/2021 10:45:00 AM 5.56 42.008 0.2 7.72 5.27 11.7
3/29/2021 11:00:00 AM 5.68 42.224 0.202 7.73 5.25 11.79
3/29/2021 11:15:00 AM 5.73 42.314 0.202 7.75 5.01 11.87
3/29/2021 11:30:00 AM 5.83 42.494 0.203 7.76 7.61 11.96
3/29/2021 11:45:00 AM 5.99 42.782 0.203 7.77 5.26 12.04
3/29/2021 12:00:00 PM 6.1 42.98 0.205 7.78 5.32 12.09
3/29/2021 12:15:00 PM 6.23 43.214 0.205 7.8 5.56 12.17
3/29/2021 12:30:00 PM 6.38 43.484 0.204 7.81 5.05 12.23
3/29/2021 12:45:00 PM 6.54 43.772 0.205 7.82 5.01 12.27
3/29/2021 1:00:00 PM 6.72 44.096 0.206 7.83 4.92 12.31
3/29/2021 1:15:00 PM 6.94 44.492 0.206 7.84 5.01 12.34
3/29/2021 1:30:00 PM 7.18 44.924 0.206 7.86 5.17 12.38
3/29/2021 1:45:00 PM 7.4 45.32 0.207 7.87 4.82 12.38
3/29/2021 2:00:00 PM 7.63 45.734 0.207 7.88 5.01 12.39
3/29/2021 2:15:00 PM 7.83 46.094 0.208 7.88 4.72 12.38
3/29/2021 2:30:00 PM 8.02 46.436 0.208 7.89 4.47 12.38
3/29/2021 2:45:00 PM 8.2 46.76 0.209 7.9 4.6 12.38
3/29/2021 3:00:00 PM 8.38 47.084 0.21 7.91 4.47 12.37
3/29/2021 3:15:00 PM 8.53 47.354 0.21 7.92 4.6 12.36
3/29/2021 3:30:00 PM 8.66 47.588 0.21 7.93 4.36 12.35
3/29/2021 3:45:00 PM 8.76 47.768 0.211 7.93 4.58 12.32
3/29/2021 4:00:00 PM 8.87 47.966 0.211 7.93 4.73 12.29
3/29/2021 4:15:00 PM 8.98 48.164 0.211 7.94 4.38 12.28
3/29/2021 4:30:00 PM 9.06 48.308 0.213 7.94 4.43 12.23
3/29/2021 4:45:00 PM 9.14 48.452 0.214 7.94 4.5 12.16
3/29/2021 5:00:00 PM 9.21 48.578 0.215 7.94 4.17 12.14
3/29/2021 5:15:00 PM 9.27 48.686 0.216 7.94 4.21 12.07
3/29/2021 5:30:00 PM 9.3 48.74 0.216 7.94 4.31 12.01
3/29/2021 5:45:00 PM 9.33 48.794 0.217 7.94 4.08 11.94
3/29/2021 6:00:00 PM 9.34 48.812 0.217 7.93 4.35 11.88
3/29/2021 6:15:00 PM 9.33 48.794 0.218 7.92 4.25 11.8
3/29/2021 6:30:00 PM 9.31 48.758 0.216 7.91 6.12 11.71
3/29/2021 6:45:00 PM 9.26 48.668 0.217 7.9 5.03 11.63
3/29/2021 7:00:00 PM 9.2 48.56 0.218 7.88 4.44 11.53
3/29/2021 7:15:00 PM 9.13 48.434 0.219 7.87 4.4 11.42
3/29/2021 7:30:00 PM 9.06 48.308 0.218 7.85 4.4 11.34
3/29/2021 7:45:00 PM 8.97 48.146 0.218 7.84 4.21 11.26
3/29/2021 8:00:00 PM 8.89 48.002 0.219 7.82 4.38 11.17
3/29/2021 8:15:00 PM 8.8 47.84 0.219 7.81 4.59 11.07
3/29/2021 8:30:00 PM 8.71 47.678 0.219 7.79 4.48 10.99
3/29/2021 8:45:00 PM 8.62 47.516 0.221 7.78 4.53 10.92
3/29/2021 9:00:00 PM 8.54 47.372 0.22 7.77 4.14 10.86
3/29/2021 9:15:00 PM 8.45 47.21 0.221 7.76 4.39 10.81
3/29/2021 9:30:00 PM 8.36 47.048 0.223 7.75 4.54 10.76
3/29/2021 9:45:00 PM 8.27 46.886 0.222 7.75 3.95 10.71
3/29/2021 10:00:00 PM 8.18 46.724 0.223 7.74 4.61 10.67
3/29/2021 10:15:00 PM 8.09 46.562 0.224 7.74 4.37 10.64
3/29/2021 10:30:00 PM 8 46.4 0.224 7.73 4.19 10.6
3/29/2021 10:45:00 PM 7.92 46.256 0.224 7.73 4.25 10.58
3/29/2021 11:00:00 PM 7.84 46.112 0.224 7.72 4.41 10.57
3/29/2021 11:15:00 PM 7.76 45.968 0.225 7.72 4.41 10.55
3/29/2021 11:30:00 PM 7.68 45.824 0.225 7.71 4.34 10.55
3/29/2021 11:45:00 PM 7.59 45.662 0.226 7.71 4.17 10.55
3/30/2021 12:00:00 AM 7.51 45.518 0.226 7.71 4.39 10.54
3/30/2021 12:15:00 AM 7.44 45.392 0.226 7.71 4.11 10.54
3/30/2021 12:30:00 AM 7.35 45.23 0.228 7.71 4.26 10.55
3/30/2021 12:45:00 AM 7.26 45.068 0.228 7.71 4.87 10.59
3/30/2021 1:00:00 AM 7.17 44.906 0.228 7.7 4.47 10.59
3/30/2021 1:15:00 AM 7.08 44.744 0.229 7.7 4.59 10.6
3/30/2021 1:30:00 AM 6.98 44.564 0.228 7.7 4.45 10.61
3/30/2021 1:45:00 AM 6.88 44.384 0.228 7.7 4.48 10.65
3/30/2021 2:00:00 AM 6.8 44.24 0.23 7.7 5.22 10.64
3/30/2021 2:15:00 AM 6.71 44.078 0.229 7.7 4.59 10.67
3/30/2021 2:30:00 AM 6.61 43.898 0.23 7.7 4.1 10.7
3/30/2021 2:45:00 AM 6.52 43.736 0.23 7.7 4.21 10.71
3/30/2021 3:00:00 AM 6.44 43.592 0.229 7.69 3.91 10.73
3/30/2021 3:15:00 AM 6.35 43.43 0.23 7.7 4.03 10.75
3/30/2021 3:30:00 AM 6.27 43.286 0.23 7.7 4.25 10.77
3/30/2021 3:45:00 AM 6.18 43.124 0.23 7.69 4.04 10.78
3/30/2021 4:00:00 AM 6.09 42.962 0.231 7.7 3.95 10.82
3/30/2021 4:15:00 AM 6.01 42.818 0.232 7.7 4.32 10.82
3/30/2021 4:30:00 AM 5.92 42.656 0.232 7.69 4.35 10.85
3/30/2021 4:45:00 AM 5.82 42.476 0.231 7.7 4.67 10.89
3/30/2021 5:00:00 AM 5.74 42.332 0.232 7.7 4.37 10.92
3/30/2021 5:15:00 AM 5.65 42.17 0.232 7.7 4.35 10.96
3/30/2021 5:30:00 AM 5.57 42.026 0.233 7.7 4.63 10.98
3/30/2021 5:45:00 AM 5.49 41.882 0.234 7.7 3.94 11
3/30/2021 6:00:00 AM 5.4 41.72 0.232 7.7 5.45 11.03
3/30/2021 6:15:00 AM 5.31 41.558 0.233 7.7 3.87 11.06
3/30/2021 6:30:00 AM 5.26 41.468 0.236 7.7 3.94 11.06
3/30/2021 6:45:00 AM 5.18 41.324 0.234 7.7 3.88 11.08
3/30/2021 7:00:00 AM 5.11 41.198 0.235 7.7 4.07 11.1
3/30/2021 7:15:00 AM 5.05 41.09 0.236 7.7 4.39 11.14
3/30/2021 7:30:00 AM 5.02 41.036 0.238 7.7 4.46 11.13
3/30/2021 7:45:00 AM 4.93 40.874 0.235 7.7 5.14 11.22
3/30/2021 8:00:00 AM 4.89 40.802 0.237 7.71 4.23 11.28
3/30/2021 8:15:00 AM 4.87 40.766 0.238 7.72 3.99 11.36
3/30/2021 8:30:00 AM 4.86 40.748 0.237 7.73 3.77 11.44
3/30/2021 8:45:00 AM 4.85 40.73 0.238 7.73 3.97 11.53
3/30/2021 9:00:00 AM 4.88 40.784 0.238 7.74 3.58 11.62
3/30/2021 9:15:00 AM 4.93 40.874 0.24 7.75 3.85 11.65
3/30/2021 9:30:00 AM 4.99 40.982 0.239 7.76 3.65 11.77
3/30/2021 9:45:00 AM 5.05 41.09 0.238 7.77 3.41 11.87
3/30/2021 10:00:00 AM 5.15 41.27 0.239 7.78 3.66 11.98
3/30/2021 10:15:00 AM 5.26 41.468 0.239 7.79 3.98 12.04
3/30/2021 10:30:00 AM 5.41 41.738 0.241 7.8 3.67 12.11
3/30/2021 10:45:00 AM 5.56 42.008 0.241 7.81 3.87 12.16
3/30/2021 11:00:00 AM 5.74 42.332 0.244 7.82 3.62 12.21
3/30/2021 11:15:00 AM 5.94 42.692 0.243 7.82 3.64 12.23
3/30/2021 11:30:00 AM 6.16 43.088 0.243 7.83 3.63 12.27
3/30/2021 11:45:00 AM 6.39 43.502 0.243 7.84 3.53 12.29
3/30/2021 12:00:00 PM 6.64 43.952 0.241 7.86 3.32 12.36
3/30/2021 12:15:00 PM 6.89 44.402 0.243 7.86 4.03 12.4
3/30/2021 12:30:00 PM 7.14 44.852 0.241 7.87 3.36 12.42
3/30/2021 12:45:00 PM 7.41 45.338 0.242 7.88 3.46 12.44
3/30/2021 1:00:00 PM 7.67 45.806 0.243 7.88 3.72 12.4
3/30/2021 1:15:00 PM 7.92 46.256 0.246 7.89 3.23 12.41
3/30/2021 1:30:00 PM 8.17 46.706 0.242 7.9 3.29 12.43
3/30/2021 1:45:00 PM 8.41 47.138 0.244 7.91 3.16 12.39
3/30/2021 2:00:00 PM 8.65 47.57 0.242 7.91 3.29 12.39
3/30/2021 2:15:00 PM 8.88 47.984 0.242 7.91 4.21 12.36
3/30/2021 2:30:00 PM 9.11 48.398 0.241 7.92 3.58 12.34
3/30/2021 2:45:00 PM 9.32 48.776 0.242 7.93 3.48 12.33
3/30/2021 3:00:00 PM 9.52 49.136 0.244 7.91 3.87 12.28
3/30/2021 3:15:00 PM 9.71 49.478 0.242 7.94 3.43 12.25
3/30/2021 3:30:00 PM 9.88 49.784 0.242 7.94 3.16 12.2
3/30/2021 3:45:00 PM 10.03 50.054 0.243 7.95 3.53 12.16
3/30/2021 4:00:00 PM 10.17 50.306 0.242 7.95 3.33 12.09
3/30/2021 4:15:00 PM 10.3 50.54 0.242 7.95 3.8 12.05
3/30/2021 4:30:00 PM 10.41 50.738 0.243 7.96 3.49 11.98
3/30/2021 4:45:00 PM 10.5 50.9 0.243 7.95 3.42 11.92
3/30/2021 5:00:00 PM 10.58 51.044 0.243 7.95 3.61 11.85
3/30/2021 5:15:00 PM 10.65 51.17 0.243 7.95 3.12 11.78
3/30/2021 5:30:00 PM 10.71 51.278 0.243 7.95 3.53 11.72
3/30/2021 5:45:00 PM 10.75 51.35 0.244 7.94 3.43 11.62
3/30/2021 6:00:00 PM 10.77 51.386 0.243 7.94 3.43 11.53
3/30/2021 6:15:00 PM 10.78 51.404 0.243 7.93 3.76 11.43
3/30/2021 6:30:00 PM 10.78 51.404 0.244 7.91 3.7 11.31
3/30/2021 6:45:00 PM 10.77 51.386 0.242 7.9 3.17 11.18
3/30/2021 7:00:00 PM 10.74 51.332 0.243 7.89 3.38 11.09
3/30/2021 7:15:00 PM 10.7 51.26 0.244 7.88 3.66 10.97
3/30/2021 7:30:00 PM 10.66 51.188 0.244 7.86 3.48 10.83
3/30/2021 7:45:00 PM 10.6 51.08 0.243 7.84 3.39 10.72
3/30/2021 8:00:00 PM 10.56 51.008 0.243 7.83 3.53 10.61
3/30/2021 8:15:00 PM 10.51 50.918 0.243 7.82 3.38 10.49
3/30/2021 8:30:00 PM 10.45 50.81 0.244 7.8 3.65 10.41
3/30/2021 8:45:00 PM 10.39 50.702 0.244 7.79 3.33 10.3
3/30/2021 9:00:00 PM 10.33 50.594 0.245 7.78 3.85 10.25
3/30/2021 9:15:00 PM 10.27 50.486 0.245 7.77 3.4 10.17
3/30/2021 9:30:00 PM 10.21 50.378 0.245 7.76 3.66 10.11
3/30/2021 9:45:00 PM 10.15 50.27 0.245 7.76 3.6 10.06
3/30/2021 10:00:00 PM 10.08 50.144 0.246 7.75 3.76 10.02
3/30/2021 10:15:00 PM 10.02 50.036 0.247 7.74 3.74 9.96
3/30/2021 10:30:00 PM 9.95 49.91 0.246 7.73 3.83 9.92
3/30/2021 10:45:00 PM 9.89 49.802 0.247 7.73 3.64 9.89
3/30/2021 11:00:00 PM 9.82 49.676 0.249 7.72 3.63 9.85
3/30/2021 11:15:00 PM 9.76 49.568 0.248 7.72 3.59 9.84
3/30/2021 11:30:00 PM 9.71 49.478 0.248 7.72 3.5 9.82
3/30/2021 11:45:00 PM 9.65 49.37 0.25 7.71 3.81 9.81
3/31/2021 12:00:00 AM 9.61 49.298 0.249 7.71 3.58 9.8
3/31/2021 12:15:00 AM 9.55 49.19 0.251 7.71 3.81 9.78
3/31/2021 12:30:00 AM 9.5 49.1 0.25 7.7 3.56 9.78
3/31/2021 12:45:00 AM 9.45 49.01 0.251 7.7 3.9 9.78
3/31/2021 1:00:00 AM 9.4 48.92 0.25 7.7 3.81 9.77
3/31/2021 1:15:00 AM 9.35 48.83 0.251 7.7 3.68 9.78
3/31/2021 1:30:00 AM 9.3 48.74 0.252 7.7 3.42 9.76
3/31/2021 1:45:00 AM 9.24 48.632 0.253 7.7 3.54 9.78
3/31/2021 2:00:00 AM 9.18 48.524 0.253 7.69 3.4 9.78
3/31/2021 2:15:00 AM 9.12 48.416 0.254 7.69 3.52 9.78
3/31/2021 2:30:00 AM 9.06 48.308 0.254 7.69 3.62 9.79
3/31/2021 2:45:00 AM 9 48.2 0.254 7.69 3.58 9.81
3/31/2021 3:00:00 AM 8.94 48.092 0.254 7.69 3.43 9.81
3/31/2021 3:15:00 AM 8.88 47.984 0.254 7.69 3.4 9.83
3/31/2021 3:30:00 AM 8.83 47.894 0.255 7.69 3.55 9.84
3/31/2021 3:45:00 AM 8.77 47.786 0.255 7.69 3.41 9.85
3/31/2021 4:00:00 AM 8.72 47.696 0.257 7.69 3.5 9.86
3/31/2021 4:15:00 AM 8.67 47.606 0.256 7.69 3.33 9.87
3/31/2021 4:30:00 AM 8.63 47.534 0.255 7.69 3.89 9.87
3/31/2021 4:45:00 AM 8.58 47.444 0.257 7.69 3.87 9.88
3/31/2021 5:00:00 AM 8.53 47.354 0.256 7.69 3.58 9.88
3/31/2021 5:15:00 AM 8.49 47.282 0.256 7.69 4.44 9.91
3/31/2021 5:30:00 AM 8.45 47.21 0.257 7.69 3.58 9.92
3/31/2021 5:45:00 AM 8.41 47.138 0.257 7.69 3.46 9.93
3/31/2021 6:00:00 AM 8.36 47.048 0.257 7.69 3.48 9.93
3/31/2021 6:15:00 AM 8.32 46.976 0.257 7.69 3.78 9.95
3/31/2021 6:30:00 AM 8.28 46.904 0.258 7.69 3.77 9.97
3/31/2021 6:45:00 AM 8.24 46.832 0.257 7.69 3.85 9.98
3/31/2021 7:00:00 AM 8.2 46.76 0.258 7.69 4.22 9.98
3/31/2021 7:15:00 AM 8.17 46.706 0.258 7.69 5.91 9.99
3/31/2021 7:30:00 AM 8.14 46.652 0.259 7.7 4.42 10.04
3/31/2021 7:45:00 AM 8.13 46.634 0.258 7.69 3.91 10.06
3/31/2021 8:00:00 AM 8.12 46.616 0.259 7.7 3.82 10.11
3/31/2021 8:15:00 AM 8.11 46.598 0.258 7.71 3.68 10.18
3/31/2021 8:30:00 AM 8.11 46.598 0.257 7.71 1230.69 10.26
3/31/2021 8:45:00 AM 8.11 46.598 0.237 7.73 7874.16 10.33
3/31/2021 9:00:00 AM 8.12 46.616 0.234 7.75 13209.64 10.41
3/31/2021 9:15:00 AM 8.13 46.634 0.22 7.77 15126.1 10.5
3/31/2021 9:30:00 AM 8.15 46.67 0.221 7.75 14948.69 10.56
3/31/2021 9:45:00 AM 8.17 46.706 0.257 7.76 5.87 10.64
3/31/2021 10:00:00 AM 8.2 46.76 0.258 7.76 3.81 10.72
3/31/2021 10:15:00 AM 8.22 46.796 0.257 7.77 3.22 10.79
3/31/2021 10:30:00 AM 8.25 46.85 0.262 7.77 3.59 10.83
3/31/2021 10:45:00 AM 8.28 46.904 0.258 7.79 3.3 10.93
3/31/2021 11:00:00 AM 8.32 46.976 0.259 7.79 3.38 11.01
3/31/2021 11:15:00 AM 8.35 47.03 0.258 7.8 3.55 11.04
3/31/2021 11:30:00 AM 8.37 47.066 0.256 7.8 3.42 11.1
3/31/2021 11:45:00 AM 8.41 47.138 0.257 7.81 3.57 11.12
3/31/2021 12:00:00 PM 8.43 47.174 0.257 7.81 3.44 11.14
3/31/2021 12:15:00 PM 8.46 47.228 0.257 7.82 3.42 11.17